PWSweather.com
Personal Weather Stations
Station Observations
HVALPSUND
Hvalpsund, FarsoeDK 9640

HvalpsundFarsoeDK 9640

Lat: 56.705311, Lon: 9.203638

Elevation: 5

Station Type: Vantage Pro2

http://hvalpsundvejr.dk

High Low Average
Temperature 47.6°F8.7°C 34.9°F1.6°C 41.1°F5.1°C
Dew Point 32.0°F0.0°C 25.3°F-3.7°C 28.5°F-1.9°C
Winds 19.0 mph 30.6 kmh 3.0 mph 4.8 kmh 9.0 mph E14.5 kmh E
Wind Gusts 26.0 mph41.8 kmh 4.0 mph6.4 kmh 12.0 mph19.3 kmh
Humidity 82% 44% 62%
Pressure 30.52 in1033.5 mb 30.41 in1029.8 mb -
Precipitation 0.00 in0.0 mm - -
Hour Temp Dew Point Humidity Winds Wind Gusts Pressure Precip Precip Rate Daily Precip Total
12:00 AM 36.6°F2.6°C 29.1°F-1.6°C 74% 11.0 mph NE17.7 kmh NE 15.0 mph24.1 kmh 30.42 in1030.1 mb 0.00 in0.0 mm 0.00 in0.0 mm 0.00 in0.0 mm
12:01 AM 36.6°F2.6°C 29.1°F-1.6°C 74% 12.0 mph NE19.3 kmh NE 16.0 mph25.7 kmh 30.42 in1030.1 mb 0.00 in0.0 mm 0.00 in0.0 mm 0.00 in0.0 mm
12:02 AM 36.6°F2.6°C 29.1°F-1.6°C 74% 11.0 mph NE17.7 kmh NE 14.0 mph22.5 kmh 30.42 in1030.1 mb 0.00 in0.0 mm 0.00 in0.0 mm 0.00 in0.0 mm
12:03 AM 36.6°F2.6°C 29.1°F-1.6°C 74% 11.0 mph NE17.7 kmh NE 14.0 mph22.5 kmh 30.42 in1030.1 mb 0.00 in0.0 mm 0.00 in0.0 mm 0.00 in0.0 mm
12:04 AM 36.6°F2.6°C 29.1°F-1.6°C 74% 11.0 mph ENE17.7 kmh ENE 14.0 mph22.5 kmh 30.42 in1030.1 mb 0.00 in0.0 mm 0.00 in0.0 mm 0.00 in0.0 mm
12:05 AM 36.6°F2.6°C 29.1°F-1.6°C 74% 12.0 mph ENE19.3 kmh ENE 16.0 mph25.7 kmh 30.41 in1029.8 mb 0.00 in0.0 mm 0.00 in0.0 mm 0.00 in0.0 mm
12:06 AM 36.7°F2.6°C 29.2°F-1.6°C 74% 11.0 mph ENE17.7 kmh ENE 13.0 mph20.9 kmh 30.41 in1029.8 mb 0.00 in0.0 mm 0.00 in0.0 mm 0.00 in0.0 mm
12:07 AM 36.7°F2.6°C 29.2°F-1.6°C 74% 10.0 mph ENE16.1 kmh ENE 12.0 mph19.3 kmh 30.41 in1029.8 mb 0.00 in0.0 mm 0.00 in0.0 mm 0.00 in0.0 mm
12:08 AM 36.7°F2.6°C 29.2°F-1.6°C 74% 11.0 mph ENE17.7 kmh ENE 14.0 mph22.5 kmh 30.41 in1029.8 mb 0.00 in0.0 mm 0.00 in0.0 mm 0.00 in0.0 mm
12:09 AM 36.6°F2.6°C 29.1°F-1.6°C 74% 12.0 mph ENE19.3 kmh ENE 16.0 mph25.7 kmh 30.41 in1029.8 mb 0.00 in0.0 mm 0.00 in0.0 mm 0.00 in0.0 mm
12:10 AM 36.6°F2.6°C 29.1°F-1.6°C 74% 11.0 mph ENE17.7 kmh ENE 14.0 mph22.5 kmh 30.41 in1029.8 mb 0.00 in0.0 mm 0.00 in0.0 mm 0.00 in0.0 mm
12:11 AM 36.6°F2.6°C 29.1°F-1.6°C 74% 11.0 mph NE17.7 kmh NE 14.0 mph22.5 kmh 30.41 in1029.8 mb 0.00 in0.0 mm 0.00 in0.0 mm 0.00 in0.0 mm
12:12 AM 36.6°F2.6°C 29.1°F-1.6°C 74% 10.0 mph ENE16.1 kmh ENE 12.0 mph19.3 kmh 30.41 in1029.8 mb 0.00 in0.0 mm 0.00 in0.0 mm 0.00 in0.0 mm
12:13 AM 36.6°F2.6°C 29.1°F-1.6°C 74% 11.0 mph NE17.7 kmh NE 14.0 mph22.5 kmh 30.41 in1029.8 mb 0.00 in0.0 mm 0.00 in0.0 mm 0.00 in0.0 mm
12:14 AM 36.6°F2.6°C 29.1°F-1.6°C 74% 10.0 mph ENE16.1 kmh ENE 14.0 mph22.5 kmh 30.41 in1029.8 mb 0.00 in0.0 mm 0.00 in0.0 mm 0.00 in0.0 mm
12:15 AM 36.6°F2.6°C 29.1°F-1.6°C 74% 11.0 mph NE17.7 kmh NE 14.0 mph22.5 kmh 30.41 in1029.8 mb 0.00 in0.0 mm 0.00 in0.0 mm 0.00 in0.0 mm
12:16 AM 36.6°F2.6°C 29.1°F-1.6°C 74% 11.0 mph ENE17.7 kmh ENE 13.0 mph20.9 kmh 30.41 in1029.8 mb 0.00 in0.0 mm 0.00 in0.0 mm 0.00 in0.0 mm
12:17 AM 36.6°F2.6°C 29.1°F-1.6°C 74% 11.0 mph ENE17.7 kmh ENE 13.0 mph20.9 kmh 30.41 in1029.8 mb 0.00 in0.0 mm 0.00 in0.0 mm 0.00 in0.0 mm
12:18 AM 36.6°F2.6°C 29.1°F-1.6°C 74% 10.0 mph NE16.1 kmh NE 14.0 mph22.5 kmh 30.41 in1029.8 mb 0.00 in0.0 mm 0.00 in0.0 mm 0.00 in0.0 mm
12:19 AM 36.6°F2.6°C 29.1°F-1.6°C 74% 9.0 mph ENE14.5 kmh ENE 11.0 mph17.7 kmh 30.41 in1029.8 mb 0.00 in0.0 mm 0.00 in0.0 mm 0.00 in0.0 mm
12:20 AM 36.6°F2.6°C 29.1°F-1.6°C 74% 8.0 mph ENE12.9 kmh ENE 10.0 mph16.1 kmh 30.42 in1030.1 mb 0.00 in0.0 mm 0.00 in0.0 mm 0.00 in0.0 mm
12:21 AM 36.6°F2.6°C 29.1°F-1.6°C 74% 8.0 mph ENE12.9 kmh ENE 12.0 mph19.3 kmh 30.41 in1029.8 mb 0.00 in0.0 mm 0.00 in0.0 mm 0.00 in0.0 mm
12:22 AM 36.7°F2.6°C 29.2°F-1.6°C 74% 9.0 mph ENE14.5 kmh ENE 12.0 mph19.3 kmh 30.42 in1030.1 mb 0.00 in0.0 mm 0.00 in0.0 mm 0.00 in0.0 mm
12:23 AM 36.6°F2.6°C 29.1°F-1.6°C 74% 8.0 mph ENE12.9 kmh ENE 10.0 mph16.1 kmh 30.42 in1030.1 mb 0.00 in0.0 mm 0.00 in0.0 mm 0.00 in0.0 mm
12:24 AM 36.6°F2.6°C 29.1°F-1.6°C 74% 8.0 mph ENE12.9 kmh ENE 10.0 mph16.1 kmh 30.42 in1030.1 mb 0.00 in0.0 mm 0.00 in0.0 mm 0.00 in0.0 mm
12:25 AM 36.6°F2.6°C 29.1°F-1.6°C 74% 7.0 mph ENE11.3 kmh ENE 11.0 mph17.7 kmh 30.42 in1030.1 mb 0.00 in0.0 mm 0.00 in0.0 mm 0.00 in0.0 mm
12:26 AM 36.6°F2.6°C 29.1°F-1.6°C 74% 9.0 mph ENE14.5 kmh ENE 11.0 mph17.7 kmh 30.42 in1030.1 mb 0.00 in0.0 mm 0.00 in0.0 mm 0.00 in0.0 mm
12:27 AM 36.6°F2.6°C 29.1°F-1.6°C 74% 7.0 mph ENE11.3 kmh ENE 9.0 mph14.5 kmh 30.42 in1030.1 mb 0.00 in0.0 mm 0.00 in0.0 mm 0.00 in0.0 mm
12:28 AM 36.6°F2.6°C 29.1°F-1.6°C 74% 7.0 mph ENE11.3 kmh ENE 9.0 mph14.5 kmh 30.42 in1030.1 mb 0.00 in0.0 mm 0.00 in0.0 mm 0.00 in0.0 mm
12:29 AM 36.6°F2.6°C 29.1°F-1.6°C 74% 8.0 mph ENE12.9 kmh ENE 10.0 mph16.1 kmh 30.42 in1030.1 mb 0.00 in0.0 mm 0.00 in0.0 mm 0.00 in0.0 mm
12:30 AM 36.6°F2.6°C 29.1°F-1.6°C 74% 8.0 mph ENE12.9 kmh ENE 12.0 mph19.3 kmh 30.42 in1030.1 mb 0.00 in0.0 mm 0.00 in0.0 mm 0.00 in0.0 mm
12:31 AM 36.5°F2.5°C 29.0°F-1.7°C 74% 9.0 mph ENE14.5 kmh ENE 10.0 mph16.1 kmh 30.42 in1030.1 mb 0.00 in0.0 mm 0.00 in0.0 mm 0.00 in0.0 mm
12:32 AM 36.6°F2.6°C 29.4°F-1.4°C 75% 9.0 mph ENE14.5 kmh ENE 12.0 mph19.3 kmh 30.42 in1030.1 mb 0.00 in0.0 mm 0.00 in0.0 mm 0.00 in0.0 mm
12:33 AM 36.5°F2.5°C 29.3°F-1.5°C 75% 8.0 mph ENE12.9 kmh ENE 11.0 mph17.7 kmh 30.42 in1030.1 mb 0.00 in0.0 mm 0.00 in0.0 mm 0.00 in0.0 mm
12:34 AM 36.5°F2.5°C 29.3°F-1.5°C 75% 9.0 mph ENE14.5 kmh ENE 11.0 mph17.7 kmh 30.42 in1030.1 mb 0.00 in0.0 mm 0.00 in0.0 mm 0.00 in0.0 mm
12:35 AM 36.5°F2.5°C 29.3°F-1.5°C 75% 10.0 mph ENE16.1 kmh ENE 13.0 mph20.9 kmh 30.42 in1030.1 mb 0.00 in0.0 mm 0.00 in0.0 mm 0.00 in0.0 mm
12:36 AM 36.6°F2.6°C 29.4°F-1.4°C 75% 8.0 mph ENE12.9 kmh ENE 10.0 mph16.1 kmh 30.42 in1030.1 mb 0.00 in0.0 mm 0.00 in0.0 mm 0.00 in0.0 mm
12:37 AM 36.6°F2.6°C 29.4°F-1.4°C 75% 9.0 mph ENE14.5 kmh ENE 13.0 mph20.9 kmh 30.42 in1030.1 mb 0.00 in0.0 mm 0.00 in0.0 mm 0.00 in0.0 mm
12:38 AM 36.6°F2.6°C 29.4°F-1.4°C 75% 10.0 mph ENE16.1 kmh ENE 12.0 mph19.3 kmh 30.42 in1030.1 mb 0.00 in0.0 mm 0.00 in0.0 mm 0.00 in0.0 mm
12:39 AM 36.7°F2.6°C 29.5°F-1.4°C 75% 10.0 mph ENE16.1 kmh ENE 12.0 mph19.3 kmh 30.42 in1030.1 mb 0.00 in0.0 mm 0.00 in0.0 mm 0.00 in0.0 mm
12:40 AM 36.6°F2.6°C 29.4°F-1.4°C 75% 9.0 mph ENE14.5 kmh ENE 14.0 mph22.5 kmh 30.42 in1030.1 mb 0.00 in0.0 mm 0.00 in0.0 mm 0.00 in0.0 mm
12:41 AM 36.6°F2.6°C 29.4°F-1.4°C 75% 13.0 mph ENE20.9 kmh ENE 16.0 mph25.7 kmh 30.42 in1030.1 mb 0.00 in0.0 mm 0.00 in0.0 mm 0.00 in0.0 mm
12:42 AM 36.7°F2.6°C 29.5°F-1.4°C 75% 10.0 mph ENE16.1 kmh ENE 13.0 mph20.9 kmh 30.42 in1030.1 mb 0.00 in0.0 mm 0.00 in0.0 mm 0.00 in0.0 mm
12:43 AM 36.7°F2.6°C 29.5°F-1.4°C 75% 10.0 mph ENE16.1 kmh ENE 13.0 mph20.9 kmh 30.41 in1029.8 mb 0.00 in0.0 mm 0.00 in0.0 mm 0.00 in0.0 mm
12:44 AM 36.7°F2.6°C 29.5°F-1.4°C 75% 10.0 mph ENE16.1 kmh ENE 13.0 mph20.9 kmh 30.42 in1030.1 mb 0.00 in0.0 mm 0.00 in0.0 mm 0.00 in0.0 mm
12:45 AM 36.7°F2.6°C 29.5°F-1.4°C 75% 10.0 mph ENE16.1 kmh ENE 14.0 mph22.5 kmh 30.42 in1030.1 mb 0.00 in0.0 mm 0.00 in0.0 mm 0.00 in0.0 mm
12:46 AM 36.8°F2.7°C 29.6°F-1.3°C 75% 10.0 mph ENE16.1 kmh ENE 13.0 mph20.9 kmh 30.42 in1030.1 mb 0.00 in0.0 mm 0.00 in0.0 mm 0.00 in0.0 mm
12:47 AM 36.8°F2.7°C 29.6°F-1.3°C 75% 10.0 mph ENE16.1 kmh ENE 14.0 mph22.5 kmh 30.42 in1030.1 mb 0.00 in0.0 mm 0.00 in0.0 mm 0.00 in0.0 mm
12:48 AM 36.8°F2.7°C 29.6°F-1.3°C 75% 12.0 mph ENE19.3 kmh ENE 15.0 mph24.1 kmh 30.42 in1030.1 mb 0.00 in0.0 mm 0.00 in0.0 mm 0.00 in0.0 mm
12:49 AM 36.8°F2.7°C 29.6°F-1.3°C 75% 10.0 mph ENE16.1 kmh ENE 11.0 mph17.7 kmh 30.42 in1030.1 mb 0.00 in0.0 mm 0.00 in0.0 mm 0.00 in0.0 mm
12:50 AM 36.8°F2.7°C 29.6°F-1.3°C 75% 10.0 mph ENE16.1 kmh ENE 15.0 mph24.1 kmh 30.42 in1030.1 mb 0.00 in0.0 mm 0.00 in0.0 mm 0.00 in0.0 mm
12:51 AM 36.8°F2.7°C 29.6°F-1.3°C 75% 9.0 mph ENE14.5 kmh ENE 12.0 mph19.3 kmh 30.42 in1030.1 mb 0.00 in0.0 mm 0.00 in0.0 mm 0.00 in0.0 mm
12:52 AM 36.8°F2.7°C 29.6°F-1.3°C 75% 8.0 mph ENE12.9 kmh ENE 11.0 mph17.7 kmh 30.42 in1030.1 mb 0.00 in0.0 mm 0.00 in0.0 mm 0.00 in0.0 mm
12:53 AM 36.8°F2.7°C 29.6°F-1.3°C 75% 9.0 mph ENE14.5 kmh ENE 13.0 mph20.9 kmh 30.42 in1030.1 mb 0.00 in0.0 mm 0.00 in0.0 mm 0.00 in0.0 mm
12:54 AM 36.8°F2.7°C 29.6°F-1.3°C 75% 9.0 mph ENE14.5 kmh ENE 13.0 mph20.9 kmh 30.42 in1030.1 mb 0.00 in0.0 mm 0.00 in0.0 mm 0.00 in0.0 mm
12:55 AM 36.9°F2.7°C 29.7°F-1.3°C 75% 9.0 mph ENE14.5 kmh ENE 11.0 mph17.7 kmh 30.42 in1030.1 mb 0.00 in0.0 mm 0.00 in0.0 mm 0.00 in0.0 mm
12:56 AM 36.8°F2.7°C 29.6°F-1.3°C 75% 9.0 mph ENE14.5 kmh ENE 13.0 mph20.9 kmh 30.42 in1030.1 mb 0.00 in0.0 mm 0.00 in0.0 mm 0.00 in0.0 mm
12:57 AM 36.9°F2.7°C 29.7°F-1.3°C 75% 10.0 mph ENE16.1 kmh ENE 12.0 mph19.3 kmh 30.42 in1030.1 mb 0.00 in0.0 mm 0.00 in0.0 mm 0.00 in0.0 mm
12:58 AM 36.9°F2.7°C 29.7°F-1.3°C 75% 10.0 mph ENE16.1 kmh ENE 13.0 mph20.9 kmh 30.42 in1030.1 mb 0.00 in0.0 mm 0.00 in0.0 mm 0.00 in0.0 mm
12:59 AM 36.9°F2.7°C 29.7°F-1.3°C 75% 7.0 mph ENE11.3 kmh ENE 11.0 mph17.7 kmh 30.42 in1030.1 mb 0.00 in0.0 mm 0.00 in0.0 mm 0.00 in0.0 mm
01:00 AM 37.0°F2.8°C 29.8°F-1.2°C 75% 8.0 mph ENE12.9 kmh ENE 9.0 mph14.5 kmh 30.42 in1030.1 mb 0.00 in0.0 mm 0.00 in0.0 mm 0.00 in0.0 mm
01:01 AM 36.9°F2.7°C 29.7°F-1.3°C 75% 9.0 mph ENE14.5 kmh ENE 12.0 mph19.3 kmh 30.42 in1030.1 mb 0.00 in0.0 mm 0.00 in0.0 mm 0.00 in0.0 mm
01:02 AM 36.9°F2.7°C 29.7°F-1.3°C 75% 10.0 mph ENE16.1 kmh ENE 13.0 mph20.9 kmh 30.42 in1030.1 mb 0.00 in0.0 mm 0.00 in0.0 mm 0.00 in0.0 mm
01:03 AM 36.9°F2.7°C 29.7°F-1.3°C 75% 10.0 mph ENE16.1 kmh ENE 12.0 mph19.3 kmh 30.42 in1030.1 mb 0.00 in0.0 mm 0.00 in0.0 mm 0.00 in0.0 mm
01:04 AM 36.9°F2.7°C 29.7°F-1.3°C 75% 8.0 mph ENE12.9 kmh ENE 11.0 mph17.7 kmh 30.42 in1030.1 mb 0.00 in0.0 mm 0.00 in0.0 mm 0.00 in0.0 mm
01:05 AM 36.9°F2.7°C 29.7°F-1.3°C 75% 9.0 mph ENE14.5 kmh ENE 11.0 mph17.7 kmh 30.42 in1030.1 mb 0.00 in0.0 mm 0.00 in0.0 mm 0.00 in0.0 mm
01:06 AM 37.0°F2.8°C 29.8°F-1.2°C 75% 10.0 mph ENE16.1 kmh ENE 13.0 mph20.9 kmh 30.42 in1030.1 mb 0.00 in0.0 mm 0.00 in0.0 mm 0.00 in0.0 mm
01:07 AM 37.0°F2.8°C 29.8°F-1.2°C 75% 9.0 mph ENE14.5 kmh ENE 12.0 mph19.3 kmh 30.42 in1030.1 mb 0.00 in0.0 mm 0.00 in0.0 mm 0.00 in0.0 mm
01:08 AM 37.0°F2.8°C 29.8°F-1.2°C 75% 8.0 mph ENE12.9 kmh ENE 11.0 mph17.7 kmh 30.42 in1030.1 mb 0.00 in0.0 mm 0.00 in0.0 mm 0.00 in0.0 mm
01:09 AM 37.0°F2.8°C 29.8°F-1.2°C 75% 7.0 mph ENE11.3 kmh ENE 9.0 mph14.5 kmh 30.42 in1030.1 mb 0.00 in0.0 mm 0.00 in0.0 mm 0.00 in0.0 mm
01:10 AM 37.0°F2.8°C 29.8°F-1.2°C 75% 9.0 mph ENE14.5 kmh ENE 12.0 mph19.3 kmh 30.42 in1030.1 mb 0.00 in0.0 mm 0.00 in0.0 mm 0.00 in0.0 mm
01:11 AM 37.0°F2.8°C 29.8°F-1.2°C 75% 13.0 mph ENE20.9 kmh ENE 16.0 mph25.7 kmh 30.42 in1030.1 mb 0.00 in0.0 mm 0.00 in0.0 mm 0.00 in0.0 mm
01:12 AM 37.0°F2.8°C 29.8°F-1.2°C 75% 9.0 mph ENE14.5 kmh ENE 11.0 mph17.7 kmh 30.42 in1030.1 mb 0.00 in0.0 mm 0.00 in0.0 mm 0.00 in0.0 mm
01:13 AM 37.1°F2.8°C 29.9°F-1.2°C 75% 8.0 mph ENE12.9 kmh ENE 11.0 mph17.7 kmh 30.42 in1030.1 mb 0.00 in0.0 mm 0.00 in0.0 mm 0.00 in0.0 mm
01:14 AM 37.1°F2.8°C 29.9°F-1.2°C 75% 8.0 mph ENE12.9 kmh ENE 10.0 mph16.1 kmh 30.42 in1030.1 mb 0.00 in0.0 mm 0.00 in0.0 mm 0.00 in0.0 mm
01:15 AM 37.1°F2.8°C 29.9°F-1.2°C 75% 10.0 mph E16.1 kmh E 13.0 mph20.9 kmh 30.42 in1030.1 mb 0.00 in0.0 mm 0.00 in0.0 mm 0.00 in0.0 mm
01:16 AM 37.1°F2.8°C 29.9°F-1.2°C 75% 9.0 mph ENE14.5 kmh ENE 11.0 mph17.7 kmh 30.42 in1030.1 mb 0.00 in0.0 mm 0.00 in0.0 mm 0.00 in0.0 mm
01:17 AM 37.2°F2.9°C 30.0°F-1.1°C 75% 9.0 mph E14.5 kmh E 11.0 mph17.7 kmh 30.42 in1030.1 mb 0.00 in0.0 mm 0.00 in0.0 mm 0.00 in0.0 mm
01:18 AM 37.2°F2.9°C 30.0°F-1.1°C 75% 8.0 mph E12.9 kmh E 11.0 mph17.7 kmh 30.42 in1030.1 mb 0.00 in0.0 mm 0.00 in0.0 mm 0.00 in0.0 mm
01:19 AM 37.2°F2.9°C 30.0°F-1.1°C 75% 9.0 mph E14.5 kmh E 11.0 mph17.7 kmh 30.42 in1030.1 mb 0.00 in0.0 mm 0.00 in0.0 mm 0.00 in0.0 mm
01:20 AM 37.2°F2.9°C 30.0°F-1.1°C 75% 8.0 mph ENE12.9 kmh ENE 10.0 mph16.1 kmh 30.42 in1030.1 mb 0.00 in0.0 mm 0.00 in0.0 mm 0.00 in0.0 mm
01:21 AM 37.2°F2.9°C 30.0°F-1.1°C 75% 9.0 mph ENE14.5 kmh ENE 13.0 mph20.9 kmh 30.42 in1030.1 mb 0.00 in0.0 mm 0.00 in0.0 mm 0.00 in0.0 mm
01:22 AM 37.2°F2.9°C 30.0°F-1.1°C 75% 9.0 mph E14.5 kmh E 11.0 mph17.7 kmh 30.43 in1030.5 mb 0.00 in0.0 mm 0.00 in0.0 mm 0.00 in0.0 mm
01:23 AM 37.2°F2.9°C 30.0°F-1.1°C 75% 8.0 mph E12.9 kmh E 11.0 mph17.7 kmh 30.42 in1030.1 mb 0.00 in0.0 mm 0.00 in0.0 mm 0.00 in0.0 mm
01:24 AM 37.2°F2.9°C 30.0°F-1.1°C 75% 8.0 mph E12.9 kmh E 10.0 mph16.1 kmh 30.42 in1030.1 mb 0.00 in0.0 mm 0.00 in0.0 mm 0.00 in0.0 mm
01:25 AM 37.2°F2.9°C 30.0°F-1.1°C 75% 9.0 mph E14.5 kmh E 12.0 mph19.3 kmh 30.43 in1030.5 mb 0.00 in0.0 mm 0.00 in0.0 mm 0.00 in0.0 mm
01:26 AM 37.2°F2.9°C 30.0°F-1.1°C 75% 8.0 mph E12.9 kmh E 11.0 mph17.7 kmh 30.43 in1030.5 mb 0.00 in0.0 mm 0.00 in0.0 mm 0.00 in0.0 mm
01:27 AM 37.2°F2.9°C 30.0°F-1.1°C 75% 9.0 mph E14.5 kmh E 10.0 mph16.1 kmh 30.43 in1030.5 mb 0.00 in0.0 mm 0.00 in0.0 mm 0.00 in0.0 mm
01:28 AM 37.1°F2.8°C 29.9°F-1.2°C 75% 8.0 mph E12.9 kmh E 10.0 mph16.1 kmh 30.43 in1030.5 mb 0.00 in0.0 mm 0.00 in0.0 mm 0.00 in0.0 mm
01:29 AM 37.1°F2.8°C 29.9°F-1.2°C 75% 9.0 mph E14.5 kmh E 13.0 mph20.9 kmh 30.43 in1030.5 mb 0.00 in0.0 mm 0.00 in0.0 mm 0.00 in0.0 mm
01:30 AM 37.1°F2.8°C 29.9°F-1.2°C 75% 9.0 mph E14.5 kmh E 13.0 mph20.9 kmh 30.43 in1030.5 mb 0.00 in0.0 mm 0.00 in0.0 mm 0.00 in0.0 mm
01:31 AM 37.1°F2.8°C 29.9°F-1.2°C 75% 9.0 mph E14.5 kmh E 12.0 mph19.3 kmh 30.43 in1030.5 mb 0.00 in0.0 mm 0.00 in0.0 mm 0.00 in0.0 mm
01:32 AM 37.0°F2.8°C 29.8°F-1.2°C 75% 8.0 mph E12.9 kmh E 10.0 mph16.1 kmh 30.43 in1030.5 mb 0.00 in0.0 mm 0.00 in0.0 mm 0.00 in0.0 mm
01:33 AM 37.0°F2.8°C 29.8°F-1.2°C 75% 9.0 mph E14.5 kmh E 13.0 mph20.9 kmh 30.43 in1030.5 mb 0.00 in0.0 mm 0.00 in0.0 mm 0.00 in0.0 mm
01:34 AM 37.0°F2.8°C 29.8°F-1.2°C 75% 9.0 mph E14.5 kmh E 13.0 mph20.9 kmh 30.43 in1030.5 mb 0.00 in0.0 mm 0.00 in0.0 mm 0.00 in0.0 mm
01:35 AM 37.0°F2.8°C 29.8°F-1.2°C 75% 10.0 mph E16.1 kmh E 13.0 mph20.9 kmh 30.43 in1030.5 mb 0.00 in0.0 mm 0.00 in0.0 mm 0.00 in0.0 mm
01:36 AM 36.9°F2.7°C 29.7°F-1.3°C 75% 8.0 mph E12.9 kmh E 11.0 mph17.7 kmh 30.43 in1030.5 mb 0.00 in0.0 mm 0.00 in0.0 mm 0.00 in0.0 mm
01:37 AM 36.9°F2.7°C 29.7°F-1.3°C 75% 10.0 mph E16.1 kmh E 16.0 mph25.7 kmh 30.43 in1030.5 mb 0.00 in0.0 mm 0.00 in0.0 mm 0.00 in0.0 mm
01:38 AM 36.8°F2.7°C 29.6°F-1.3°C 75% 9.0 mph E14.5 kmh E 11.0 mph17.7 kmh 30.43 in1030.5 mb 0.00 in0.0 mm 0.00 in0.0 mm 0.00 in0.0 mm
01:39 AM 36.8°F2.7°C 29.6°F-1.3°C 75% 10.0 mph E16.1 kmh E 12.0 mph19.3 kmh 30.43 in1030.5 mb 0.00 in0.0 mm 0.00 in0.0 mm 0.00 in0.0 mm
01:40 AM 36.8°F2.7°C 29.6°F-1.3°C 75% 9.0 mph E14.5 kmh E 13.0 mph20.9 kmh 30.43 in1030.5 mb 0.00 in0.0 mm 0.00 in0.0 mm 0.00 in0.0 mm
01:41 AM 36.7°F2.6°C 29.5°F-1.4°C 75% 9.0 mph E14.5 kmh E 11.0 mph17.7 kmh 30.43 in1030.5 mb 0.00 in0.0 mm 0.00 in0.0 mm 0.00 in0.0 mm
01:42 AM 36.7°F2.6°C 29.5°F-1.4°C 75% 9.0 mph E14.5 kmh E 12.0 mph19.3 kmh 30.43 in1030.5 mb 0.00 in0.0 mm 0.00 in0.0 mm 0.00 in0.0 mm
01:43 AM 36.6°F2.6°C 29.4°F-1.4°C 75% 9.0 mph E14.5 kmh E 10.0 mph16.1 kmh 30.43 in1030.5 mb 0.00 in0.0 mm 0.00 in0.0 mm 0.00 in0.0 mm
01:44 AM 36.6°F2.6°C 29.4°F-1.4°C 75% 8.0 mph E12.9 kmh E 12.0 mph19.3 kmh 30.42 in1030.1 mb 0.00 in0.0 mm 0.00 in0.0 mm 0.00 in0.0 mm
01:45 AM 36.6°F2.6°C 29.4°F-1.4°C 75% 9.0 mph E14.5 kmh E 11.0 mph17.7 kmh 30.43 in1030.5 mb 0.00 in0.0 mm 0.00 in0.0 mm 0.00 in0.0 mm
01:46 AM 36.5°F2.5°C 29.7°F-1.3°C 76% 9.0 mph E14.5 kmh E 10.0 mph16.1 kmh 30.43 in1030.5 mb 0.00 in0.0 mm 0.00 in0.0 mm 0.00 in0.0 mm
01:47 AM 36.5°F2.5°C 29.7°F-1.3°C 76% 7.0 mph E11.3 kmh E 9.0 mph14.5 kmh 30.43 in1030.5 mb 0.00 in0.0 mm 0.00 in0.0 mm 0.00 in0.0 mm
01:48 AM 36.4°F2.4°C 29.6°F-1.3°C 76% 8.0 mph E12.9 kmh E 10.0 mph16.1 kmh 30.43 in1030.5 mb 0.00 in0.0 mm 0.00 in0.0 mm 0.00 in0.0 mm
01:49 AM 36.5°F2.5°C 29.7°F-1.3°C 76% 7.0 mph E11.3 kmh E 9.0 mph14.5 kmh 30.43 in1030.5 mb 0.00 in0.0 mm 0.00 in0.0 mm 0.00 in0.0 mm
01:50 AM 36.4°F2.4°C 29.6°F-1.3°C 76% 7.0 mph E11.3 kmh E 8.0 mph12.9 kmh 30.43 in1030.5 mb 0.00 in0.0 mm 0.00 in0.0 mm 0.00 in0.0 mm
01:51 AM 36.4°F2.4°C 29.6°F-1.3°C 76% 7.0 mph E11.3 kmh E 9.0 mph14.5 kmh 30.43 in1030.5 mb 0.00 in0.0 mm 0.00 in0.0 mm 0.00 in0.0 mm
01:52 AM 36.4°F2.4°C 29.6°F-1.3°C 76% 8.0 mph E12.9 kmh E 10.0 mph16.1 kmh 30.43 in1030.5 mb 0.00 in0.0 mm 0.00 in0.0 mm 0.00 in0.0 mm
01:53 AM 36.4°F2.4°C 29.6°F-1.3°C 76% 7.0 mph E11.3 kmh E 9.0 mph14.5 kmh 30.43 in1030.5 mb 0.00 in0.0 mm 0.00 in0.0 mm 0.00 in0.0 mm
01:54 AM 36.3°F2.4°C 29.5°F-1.4°C 76% 6.0 mph E9.7 kmh E 10.0 mph16.1 kmh 30.43 in1030.5 mb 0.00 in0.0 mm 0.00 in0.0 mm 0.00 in0.0 mm
01:55 AM 36.3°F2.4°C 29.5°F-1.4°C 76% 7.0 mph E11.3 kmh E 10.0 mph16.1 kmh 30.43 in1030.5 mb 0.00 in0.0 mm 0.00 in0.0 mm 0.00 in0.0 mm
01:56 AM 36.3°F2.4°C 29.5°F-1.4°C 76% 8.0 mph E12.9 kmh E 10.0 mph16.1 kmh 30.43 in1030.5 mb 0.00 in0.0 mm 0.00 in0.0 mm 0.00 in0.0 mm
01:57 AM 36.3°F2.4°C 29.5°F-1.4°C 76% 9.0 mph E14.5 kmh E 11.0 mph17.7 kmh 30.43 in1030.5 mb 0.00 in0.0 mm 0.00 in0.0 mm 0.00 in0.0 mm
01:58 AM 36.2°F2.3°C 29.4°F-1.4°C 76% 9.0 mph E14.5 kmh E 10.0 mph16.1 kmh 30.43 in1030.5 mb 0.00 in0.0 mm 0.00 in0.0 mm 0.00 in0.0 mm
01:59 AM 36.2°F2.3°C 29.4°F-1.4°C 76% 9.0 mph E14.5 kmh E 10.0 mph16.1 kmh 30.43 in1030.5 mb 0.00 in0.0 mm 0.00 in0.0 mm 0.00 in0.0 mm
02:00 AM 36.2°F2.3°C 29.7°F-1.3°C 77% 9.0 mph E14.5 kmh E 11.0 mph17.7 kmh 30.43 in1030.5 mb 0.00 in0.0 mm 0.00 in0.0 mm 0.00 in0.0 mm
02:01 AM 36.1°F2.3°C 29.6°F-1.3°C 77% 8.0 mph E12.9 kmh E 9.0 mph14.5 kmh 30.43 in1030.5 mb 0.00 in0.0 mm 0.00 in0.0 mm 0.00 in0.0 mm
02:02 AM 36.1°F2.3°C 29.6°F-1.3°C 77% 8.0 mph E12.9 kmh E 9.0 mph14.5 kmh 30.43 in1030.5 mb 0.00 in0.0 mm 0.00 in0.0 mm 0.00 in0.0 mm
02:03 AM 36.1°F2.3°C 29.6°F-1.3°C 77% 8.0 mph E12.9 kmh E 10.0 mph16.1 kmh 30.43 in1030.5 mb 0.00 in0.0 mm 0.00 in0.0 mm 0.00 in0.0 mm
02:04 AM 36.1°F2.3°C 29.6°F-1.3°C 77% 8.0 mph E12.9 kmh E 10.0 mph16.1 kmh 30.43 in1030.5 mb 0.00 in0.0 mm 0.00 in0.0 mm 0.00 in0.0 mm
02:05 AM 36.1°F2.3°C 29.6°F-1.3°C 77% 9.0 mph E14.5 kmh E 10.0 mph16.1 kmh 30.43 in1030.5 mb 0.00 in0.0 mm 0.00 in0.0 mm 0.00 in0.0 mm
02:06 AM 36.1°F2.3°C 29.6°F-1.3°C 77% 7.0 mph E11.3 kmh E 9.0 mph14.5 kmh 30.43 in1030.5 mb 0.00 in0.0 mm 0.00 in0.0 mm 0.00 in0.0 mm
02:07 AM 36.1°F2.3°C 29.6°F-1.3°C 77% 7.0 mph E11.3 kmh E 9.0 mph14.5 kmh 30.43 in1030.5 mb 0.00 in0.0 mm 0.00 in0.0 mm 0.00 in0.0 mm
02:08 AM 36.1°F2.3°C 29.6°F-1.3°C 77% 7.0 mph E11.3 kmh E 8.0 mph12.9 kmh 30.43 in1030.5 mb 0.00 in0.0 mm 0.00 in0.0 mm 0.00 in0.0 mm
02:09 AM 36.0°F2.2°C 29.5°F-1.4°C 77% 8.0 mph E12.9 kmh E 9.0 mph14.5 kmh 30.43 in1030.5 mb 0.00 in0.0 mm 0.00 in0.0 mm 0.00 in0.0 mm
02:10 AM 36.0°F2.2°C 29.5°F-1.4°C 77% 6.0 mph E9.7 kmh E 8.0 mph12.9 kmh 30.43 in1030.5 mb 0.00 in0.0 mm 0.00 in0.0 mm 0.00 in0.0 mm
02:11 AM 36.0°F2.2°C 29.5°F-1.4°C 77% 6.0 mph E9.7 kmh E 8.0 mph12.9 kmh 30.43 in1030.5 mb 0.00 in0.0 mm 0.00 in0.0 mm 0.00 in0.0 mm
02:12 AM 35.9°F2.2°C 29.4°F-1.4°C 77% 7.0 mph E11.3 kmh E 9.0 mph14.5 kmh 30.43 in1030.5 mb 0.00 in0.0 mm 0.00 in0.0 mm 0.00 in0.0 mm
02:13 AM 35.9°F2.2°C 29.4°F-1.4°C 77% 8.0 mph E12.9 kmh E 9.0 mph14.5 kmh 30.43 in1030.5 mb 0.00 in0.0 mm 0.00 in0.0 mm 0.00 in0.0 mm
02:14 AM 35.8°F2.1°C 29.3°F-1.5°C 77% 8.0 mph E12.9 kmh E 9.0 mph14.5 kmh 30.43 in1030.5 mb 0.00 in0.0 mm 0.00 in0.0 mm 0.00 in0.0 mm
02:15 AM 35.9°F2.2°C 29.7°F-1.3°C 78% 7.0 mph E11.3 kmh E 8.0 mph12.9 kmh 30.43 in1030.5 mb 0.00 in0.0 mm 0.00 in0.0 mm 0.00 in0.0 mm
02:16 AM 35.9°F2.2°C 29.7°F-1.3°C 78% 7.0 mph E11.3 kmh E 10.0 mph16.1 kmh 30.43 in1030.5 mb 0.00 in0.0 mm 0.00 in0.0 mm 0.00 in0.0 mm
02:17 AM 35.9°F2.2°C 29.7°F-1.3°C 78% 7.0 mph E11.3 kmh E 9.0 mph14.5 kmh 30.43 in1030.5 mb 0.00 in0.0 mm 0.00 in0.0 mm 0.00 in0.0 mm
02:18 AM 35.8°F2.1°C 29.6°F-1.3°C 78% 6.0 mph E9.7 kmh E 9.0 mph14.5 kmh 30.43 in1030.5 mb 0.00 in0.0 mm 0.00 in0.0 mm 0.00 in0.0 mm
02:19 AM 35.8°F2.1°C 29.6°F-1.3°C 78% 6.0 mph ESE9.7 kmh ESE 8.0 mph12.9 kmh 30.43 in1030.5 mb 0.00 in0.0 mm 0.00 in0.0 mm 0.00 in0.0 mm
02:20 AM 35.7°F2.1°C 29.5°F-1.4°C 78% 7.0 mph E11.3 kmh E 9.0 mph14.5 kmh 30.43 in1030.5 mb 0.00 in0.0 mm 0.00 in0.0 mm 0.00 in0.0 mm
02:21 AM 35.7°F2.1°C 29.5°F-1.4°C 78% 7.0 mph ESE11.3 kmh ESE 10.0 mph16.1 kmh 30.43 in1030.5 mb 0.00 in0.0 mm 0.00 in0.0 mm 0.00 in0.0 mm
02:22 AM 35.7°F2.1°C 29.5°F-1.4°C 78% 6.0 mph ESE9.7 kmh ESE 8.0 mph12.9 kmh 30.43 in1030.5 mb 0.00 in0.0 mm 0.00 in0.0 mm 0.00 in0.0 mm
02:23 AM 35.7°F2.1°C 29.5°F-1.4°C 78% 8.0 mph E12.9 kmh E 10.0 mph16.1 kmh 30.43 in1030.5 mb 0.00 in0.0 mm 0.00 in0.0 mm 0.00 in0.0 mm
02:24 AM 35.6°F2.0°C 29.4°F-1.4°C 78% 7.0 mph E11.3 kmh E 10.0 mph16.1 kmh 30.43 in1030.5 mb 0.00 in0.0 mm 0.00 in0.0 mm 0.00 in0.0 mm
02:25 AM 35.6°F2.0°C 29.4°F-1.4°C 78% 8.0 mph E12.9 kmh E 11.0 mph17.7 kmh 30.43 in1030.5 mb 0.00 in0.0 mm 0.00 in0.0 mm 0.00 in0.0 mm
02:26 AM 35.6°F2.0°C 29.4°F-1.4°C 78% 7.0 mph E11.3 kmh E 10.0 mph16.1 kmh 30.43 in1030.5 mb 0.00 in0.0 mm 0.00 in0.0 mm 0.00 in0.0 mm
02:27 AM 35.6°F2.0°C 29.4°F-1.4°C 78% 8.0 mph E12.9 kmh E 10.0 mph16.1 kmh 30.43 in1030.5 mb 0.00 in0.0 mm 0.00 in0.0 mm 0.00 in0.0 mm
02:28 AM 35.5°F1.9°C 29.3°F-1.5°C 78% 6.0 mph ESE9.7 kmh ESE 8.0 mph12.9 kmh 30.43 in1030.5 mb 0.00 in0.0 mm 0.00 in0.0 mm 0.00 in0.0 mm
02:29 AM 35.5°F1.9°C 29.3°F-1.5°C 78% 5.0 mph ESE8.0 kmh ESE 8.0 mph12.9 kmh 30.43 in1030.5 mb 0.00 in0.0 mm 0.00 in0.0 mm 0.00 in0.0 mm
02:30 AM 35.4°F1.9°C 29.2°F-1.6°C 78% 6.0 mph ESE9.7 kmh ESE 8.0 mph12.9 kmh 30.43 in1030.5 mb 0.00 in0.0 mm 0.00 in0.0 mm 0.00 in0.0 mm
02:31 AM 35.3°F1.8°C 29.1°F-1.6°C 78% 6.0 mph E9.7 kmh E 8.0 mph12.9 kmh 30.43 in1030.5 mb 0.00 in0.0 mm 0.00 in0.0 mm 0.00 in0.0 mm
02:32 AM 35.3°F1.8°C 29.5°F-1.4°C 79% 6.0 mph E9.7 kmh E 9.0 mph14.5 kmh 30.43 in1030.5 mb 0.00 in0.0 mm 0.00 in0.0 mm 0.00 in0.0 mm
02:33 AM 35.2°F1.8°C 29.4°F-1.4°C 79% 8.0 mph E12.9 kmh E 12.0 mph19.3 kmh 30.43 in1030.5 mb 0.00 in0.0 mm 0.00 in0.0 mm 0.00 in0.0 mm
02:34 AM 35.1°F1.7°C 29.3°F-1.5°C 79% 9.0 mph E14.5 kmh E 12.0 mph19.3 kmh 30.43 in1030.5 mb 0.00 in0.0 mm 0.00 in0.0 mm 0.00 in0.0 mm
02:35 AM 35.0°F1.7°C 29.2°F-1.6°C 79% 10.0 mph E16.1 kmh E 12.0 mph19.3 kmh 30.43 in1030.5 mb 0.00 in0.0 mm 0.00 in0.0 mm 0.00 in0.0 mm
02:36 AM 35.0°F1.7°C 29.2°F-1.6°C 79% 11.0 mph E17.7 kmh E 12.0 mph19.3 kmh 30.43 in1030.5 mb 0.00 in0.0 mm 0.00 in0.0 mm 0.00 in0.0 mm
02:37 AM 35.0°F1.7°C 29.5°F-1.4°C 80% 8.0 mph E12.9 kmh E 10.0 mph16.1 kmh 30.43 in1030.5 mb 0.00 in0.0 mm 0.00 in0.0 mm 0.00 in0.0 mm
02:38 AM 35.0°F1.7°C 29.5°F-1.4°C 80% 9.0 mph E14.5 kmh E 13.0 mph20.9 kmh 30.43 in1030.5 mb 0.00 in0.0 mm 0.00 in0.0 mm 0.00 in0.0 mm
02:39 AM 35.0°F1.7°C 29.5°F-1.4°C 80% 9.0 mph E14.5 kmh E 11.0 mph17.7 kmh 30.43 in1030.5 mb 0.00 in0.0 mm 0.00 in0.0 mm 0.00 in0.0 mm
02:40 AM 35.0°F1.7°C 29.5°F-1.4°C 80% 8.0 mph E12.9 kmh E 10.0 mph16.1 kmh 30.44 in1030.8 mb 0.00 in0.0 mm 0.00 in0.0 mm 0.00 in0.0 mm
02:41 AM 35.0°F1.7°C 29.5°F-1.4°C 80% 9.0 mph E14.5 kmh E 12.0 mph19.3 kmh 30.44 in1030.8 mb 0.00 in0.0 mm 0.00 in0.0 mm 0.00 in0.0 mm
02:42 AM 35.0°F1.7°C 29.5°F-1.4°C 80% 8.0 mph E12.9 kmh E 9.0 mph14.5 kmh 30.44 in1030.8 mb 0.00 in0.0 mm 0.00 in0.0 mm 0.00 in0.0 mm
02:43 AM 35.0°F1.7°C 29.5°F-1.4°C 80% 8.0 mph E12.9 kmh E 10.0 mph16.1 kmh 30.44 in1030.8 mb 0.00 in0.0 mm 0.00 in0.0 mm 0.00 in0.0 mm
02:44 AM 35.0°F1.7°C 29.5°F-1.4°C 80% 8.0 mph E12.9 kmh E 9.0 mph14.5 kmh 30.44 in1030.8 mb 0.00 in0.0 mm 0.00 in0.0 mm 0.00 in0.0 mm
02:45 AM 35.0°F1.7°C 29.5°F-1.4°C 80% 8.0 mph E12.9 kmh E 10.0 mph16.1 kmh 30.44 in1030.8 mb 0.00 in0.0 mm 0.00 in0.0 mm 0.00 in0.0 mm
02:46 AM 35.0°F1.7°C 29.5°F-1.4°C 80% 8.0 mph E12.9 kmh E 11.0 mph17.7 kmh 30.44 in1030.8 mb 0.00 in0.0 mm 0.00 in0.0 mm 0.00 in0.0 mm
02:47 AM 35.0°F1.7°C 29.5°F-1.4°C 80% 7.0 mph E11.3 kmh E 10.0 mph16.1 kmh 30.44 in1030.8 mb 0.00 in0.0 mm 0.00 in0.0 mm 0.00 in0.0 mm
02:48 AM 34.9°F1.6°C 29.4°F-1.4°C 80% 8.0 mph E12.9 kmh E 9.0 mph14.5 kmh 30.44 in1030.8 mb 0.00 in0.0 mm 0.00 in0.0 mm 0.00 in0.0 mm
02:49 AM 35.0°F1.7°C 29.5°F-1.4°C 80% 8.0 mph E12.9 kmh E 10.0 mph16.1 kmh 30.44 in1030.8 mb 0.00 in0.0 mm 0.00 in0.0 mm 0.00 in0.0 mm
02:50 AM 35.0°F1.7°C 29.8°F-1.2°C 81% 7.0 mph E11.3 kmh E 10.0 mph16.1 kmh 30.44 in1030.8 mb 0.00 in0.0 mm 0.00 in0.0 mm 0.00 in0.0 mm
02:51 AM 35.1°F1.7°C 29.9°F-1.2°C 81% 8.0 mph E12.9 kmh E 10.0 mph16.1 kmh 30.44 in1030.8 mb 0.00 in0.0 mm 0.00 in0.0 mm 0.00 in0.0 mm
02:52 AM 35.1°F1.7°C 29.9°F-1.2°C 81% 7.0 mph E11.3 kmh E 11.0 mph17.7 kmh 30.44 in1030.8 mb 0.00 in0.0 mm 0.00 in0.0 mm 0.00 in0.0 mm
02:53 AM 35.2°F1.8°C 30.0°F-1.1°C 81% 7.0 mph ESE11.3 kmh ESE 10.0 mph16.1 kmh 30.44 in1030.8 mb 0.00 in0.0 mm 0.00 in0.0 mm 0.00 in0.0 mm
02:54 AM 35.2°F1.8°C 30.0°F-1.1°C 81% 8.0 mph E12.9 kmh E 9.0 mph14.5 kmh 30.44 in1030.8 mb 0.00 in0.0 mm 0.00 in0.0 mm 0.00 in0.0 mm
02:55 AM 35.2°F1.8°C 30.0°F-1.1°C 81% 8.0 mph E12.9 kmh E 10.0 mph16.1 kmh 30.44 in1030.8 mb 0.00 in0.0 mm 0.00 in0.0 mm 0.00 in0.0 mm
02:56 AM 35.2°F1.8°C 30.0°F-1.1°C 81% 8.0 mph E12.9 kmh E 10.0 mph16.1 kmh 30.44 in1030.8 mb 0.00 in0.0 mm 0.00 in0.0 mm 0.00 in0.0 mm
02:57 AM 35.2°F1.8°C 30.0°F-1.1°C 81% 9.0 mph E14.5 kmh E 10.0 mph16.1 kmh 30.44 in1030.8 mb 0.00 in0.0 mm 0.00 in0.0 mm 0.00 in0.0 mm
02:58 AM 35.2°F1.8°C 30.0°F-1.1°C 81% 8.0 mph E12.9 kmh E 9.0 mph14.5 kmh 30.44 in1030.8 mb 0.00 in0.0 mm 0.00 in0.0 mm 0.00 in0.0 mm
02:59 AM 35.2°F1.8°C 30.0°F-1.1°C 81% 7.0 mph E11.3 kmh E 10.0 mph16.1 kmh 30.44 in1030.8 mb 0.00 in0.0 mm 0.00 in0.0 mm 0.00 in0.0 mm
03:00 AM 35.2°F1.8°C 30.0°F-1.1°C 81% 8.0 mph E12.9 kmh E 11.0 mph17.7 kmh 30.44 in1030.8 mb 0.00 in0.0 mm 0.00 in0.0 mm 0.00 in0.0 mm
03:01 AM 35.2°F1.8°C 30.0°F-1.1°C 81% 8.0 mph E12.9 kmh E 10.0 mph16.1 kmh 30.44 in1030.8 mb 0.00 in0.0 mm 0.00 in0.0 mm 0.00 in0.0 mm
03:02 AM 35.2°F1.8°C 30.0°F-1.1°C 81% 8.0 mph E12.9 kmh E 9.0 mph14.5 kmh 30.44 in1030.8 mb 0.00 in0.0 mm 0.00 in0.0 mm 0.00 in0.0 mm
03:03 AM 35.2°F1.8°C 30.0°F-1.1°C 81% 9.0 mph E14.5 kmh E 10.0 mph16.1 kmh 30.44 in1030.8 mb 0.00 in0.0 mm 0.00 in0.0 mm 0.00 in0.0 mm
03:04 AM 35.2°F1.8°C 30.0°F-1.1°C 81% 7.0 mph E11.3 kmh E 9.0 mph14.5 kmh 30.45 in1031.2 mb 0.00 in0.0 mm 0.00 in0.0 mm 0.00 in0.0 mm
03:05 AM 35.1°F1.7°C 29.9°F-1.2°C 81% 8.0 mph E12.9 kmh E 11.0 mph17.7 kmh 30.45 in1031.2 mb 0.00 in0.0 mm 0.00 in0.0 mm 0.00 in0.0 mm
03:06 AM 35.1°F1.7°C 29.9°F-1.2°C 81% 8.0 mph E12.9 kmh E 11.0 mph17.7 kmh 30.45 in1031.2 mb 0.00 in0.0 mm 0.00 in0.0 mm 0.00 in0.0 mm
03:07 AM 35.1°F1.7°C 29.9°F-1.2°C 81% 7.0 mph E11.3 kmh E 10.0 mph16.1 kmh 30.45 in1031.2 mb 0.00 in0.0 mm 0.00 in0.0 mm 0.00 in0.0 mm
03:08 AM 35.1°F1.7°C 29.9°F-1.2°C 81% 7.0 mph E11.3 kmh E 10.0 mph16.1 kmh 30.45 in1031.2 mb 0.00 in0.0 mm 0.00 in0.0 mm 0.00 in0.0 mm
03:09 AM 35.1°F1.7°C 29.9°F-1.2°C 81% 7.0 mph E11.3 kmh E 10.0 mph16.1 kmh 30.45 in1031.2 mb 0.00 in0.0 mm 0.00 in0.0 mm 0.00 in0.0 mm
03:10 AM 35.1°F1.7°C 29.9°F-1.2°C 81% 6.0 mph E9.7 kmh E 8.0 mph12.9 kmh 30.45 in1031.2 mb 0.00 in0.0 mm 0.00 in0.0 mm 0.00 in0.0 mm
03:11 AM 35.2°F1.8°C 30.3°F-0.9°C 82% 7.0 mph E11.3 kmh E 9.0 mph14.5 kmh 30.45 in1031.2 mb 0.00 in0.0 mm 0.00 in0.0 mm 0.00 in0.0 mm
03:12 AM 35.2°F1.8°C 30.3°F-0.9°C 82% 8.0 mph E12.9 kmh E 9.0 mph14.5 kmh 30.45 in1031.2 mb 0.00 in0.0 mm 0.00 in0.0 mm 0.00 in0.0 mm
03:13 AM 35.2°F1.8°C 30.3°F-0.9°C 82% 7.0 mph E11.3 kmh E 10.0 mph16.1 kmh 30.45 in1031.2 mb 0.00 in0.0 mm 0.00 in0.0 mm 0.00 in0.0 mm
03:14 AM 35.3°F1.8°C 30.4°F-0.9°C 82% 7.0 mph E11.3 kmh E 9.0 mph14.5 kmh 30.45 in1031.2 mb 0.00 in0.0 mm 0.00 in0.0 mm 0.00 in0.0 mm
03:15 AM 35.4°F1.9°C 30.5°F-0.8°C 82% 5.0 mph E8.0 kmh E 8.0 mph12.9 kmh 30.45 in1031.2 mb 0.00 in0.0 mm 0.00 in0.0 mm 0.00 in0.0 mm
03:16 AM 35.4°F1.9°C 30.5°F-0.8°C 82% 7.0 mph ESE11.3 kmh ESE 9.0 mph14.5 kmh 30.45 in1031.2 mb 0.00 in0.0 mm 0.00 in0.0 mm 0.00 in0.0 mm
03:17 AM 35.5°F1.9°C 30.6°F-0.8°C 82% 6.0 mph E9.7 kmh E 8.0 mph12.9 kmh 30.45 in1031.2 mb 0.00 in0.0 mm 0.00 in0.0 mm 0.00 in0.0 mm
03:18 AM 35.5°F1.9°C 30.6°F-0.8°C 82% 6.0 mph E9.7 kmh E 8.0 mph12.9 kmh 30.45 in1031.2 mb 0.00 in0.0 mm 0.00 in0.0 mm 0.00 in0.0 mm
03:19 AM 35.5°F1.9°C 30.6°F-0.8°C 82% 5.0 mph E8.0 kmh E 7.0 mph11.3 kmh 30.45 in1031.2 mb 0.00 in0.0 mm 0.00 in0.0 mm 0.00 in0.0 mm
03:20 AM 35.6°F2.0°C 30.7°F-0.7°C 82% 5.0 mph E8.0 kmh E 8.0 mph12.9 kmh 30.45 in1031.2 mb 0.00 in0.0 mm 0.00 in0.0 mm 0.00 in0.0 mm
03:21 AM 35.7°F2.1°C 30.8°F-0.7°C 82% 5.0 mph ESE8.0 kmh ESE 8.0 mph12.9 kmh 30.45 in1031.2 mb 0.00 in0.0 mm 0.00 in0.0 mm 0.00 in0.0 mm
03:22 AM 35.7°F2.1°C 30.8°F-0.7°C 82% 7.0 mph ESE11.3 kmh ESE 9.0 mph14.5 kmh 30.45 in1031.2 mb 0.00 in0.0 mm 0.00 in0.0 mm 0.00 in0.0 mm
03:23 AM 35.7°F2.1°C 30.8°F-0.7°C 82% 5.0 mph ESE8.0 kmh ESE 7.0 mph11.3 kmh 30.45 in1031.2 mb 0.00 in0.0 mm 0.00 in0.0 mm 0.00 in0.0 mm
03:24 AM 35.9°F2.2°C 31.0°F-0.6°C 82% 6.0 mph ESE9.7 kmh ESE 9.0 mph14.5 kmh 30.45 in1031.2 mb 0.00 in0.0 mm 0.00 in0.0 mm 0.00 in0.0 mm
03:25 AM 36.0°F2.2°C 31.0°F-0.6°C 82% 6.0 mph ESE9.7 kmh ESE 9.0 mph14.5 kmh 30.45 in1031.2 mb 0.00 in0.0 mm 0.00 in0.0 mm 0.00 in0.0 mm
03:26 AM 36.1°F2.3°C 31.1°F-0.5°C 82% 8.0 mph ESE12.9 kmh ESE 11.0 mph17.7 kmh 30.45 in1031.2 mb 0.00 in0.0 mm 0.00 in0.0 mm 0.00 in0.0 mm
03:27 AM 36.3°F2.4°C 31.3°F-0.4°C 82% 8.0 mph ESE12.9 kmh ESE 11.0 mph17.7 kmh 30.45 in1031.2 mb 0.00 in0.0 mm 0.00 in0.0 mm 0.00 in0.0 mm
03:28 AM 36.5°F2.5°C 31.5°F-0.3°C 82% 7.0 mph ESE11.3 kmh ESE 9.0 mph14.5 kmh 30.45 in1031.2 mb 0.00 in0.0 mm 0.00 in0.0 mm 0.00 in0.0 mm
03:29 AM 36.6°F2.6°C 31.6°F-0.2°C 82% 6.0 mph ESE9.7 kmh ESE 9.0 mph14.5 kmh 30.45 in1031.2 mb 0.00 in0.0 mm 0.00 in0.0 mm 0.00 in0.0 mm
03:30 AM 36.8°F2.7°C 31.8°F-0.1°C 82% 7.0 mph ESE11.3 kmh ESE 9.0 mph14.5 kmh 30.45 in1031.2 mb 0.00 in0.0 mm 0.00 in0.0 mm 0.00 in0.0 mm
03:31 AM 36.9°F2.7°C 31.9°F-0.1°C 82% 8.0 mph ESE12.9 kmh ESE 10.0 mph16.1 kmh 30.45 in1031.2 mb 0.00 in0.0 mm 0.00 in0.0 mm 0.00 in0.0 mm
03:32 AM 37.0°F2.8°C 32.0°F0.0°C 82% 8.0 mph E12.9 kmh E 11.0 mph17.7 kmh 30.45 in1031.2 mb 0.00 in0.0 mm 0.00 in0.0 mm 0.00 in0.0 mm
03:33 AM 37.0°F2.8°C 31.7°F-0.2°C 81% 10.0 mph E16.1 kmh E 12.0 mph19.3 kmh 30.45 in1031.2 mb 0.00 in0.0 mm 0.00 in0.0 mm 0.00 in0.0 mm
03:34 AM 37.0°F2.8°C 31.7°F-0.2°C 81% 10.0 mph E16.1 kmh E 13.0 mph20.9 kmh 30.45 in1031.2 mb 0.00 in0.0 mm 0.00 in0.0 mm 0.00 in0.0 mm
03:35 AM 37.0°F2.8°C 31.7°F-0.2°C 81% 9.0 mph ESE14.5 kmh ESE 11.0 mph17.7 kmh 30.45 in1031.2 mb 0.00 in0.0 mm 0.00 in0.0 mm 0.00 in0.0 mm
03:36 AM 37.0°F2.8°C 31.7°F-0.2°C 81% 7.0 mph ESE11.3 kmh ESE 9.0 mph14.5 kmh 30.45 in1031.2 mb 0.00 in0.0 mm 0.00 in0.0 mm 0.00 in0.0 mm
03:37 AM 36.9°F2.7°C 31.6°F-0.2°C 81% 7.0 mph ESE11.3 kmh ESE 10.0 mph16.1 kmh 30.45 in1031.2 mb 0.00 in0.0 mm 0.00 in0.0 mm 0.00 in0.0 mm
03:38 AM 36.9°F2.7°C 31.6°F-0.2°C 81% 8.0 mph E12.9 kmh E 12.0 mph19.3 kmh 30.45 in1031.2 mb 0.00 in0.0 mm 0.00 in0.0 mm 0.00 in0.0 mm
03:39 AM 36.8°F2.7°C 31.5°F-0.3°C 81% 6.0 mph ESE9.7 kmh ESE 9.0 mph14.5 kmh 30.45 in1031.2 mb 0.00 in0.0 mm 0.00 in0.0 mm 0.00 in0.0 mm
03:40 AM 36.8°F2.7°C 31.2°F-0.4°C 80% 7.0 mph ESE11.3 kmh ESE 10.0 mph16.1 kmh 30.45 in1031.2 mb 0.00 in0.0 mm 0.00 in0.0 mm 0.00 in0.0 mm
03:41 AM 36.8°F2.7°C 31.2°F-0.4°C 80% 7.0 mph ESE11.3 kmh ESE 9.0 mph14.5 kmh 30.45 in1031.2 mb 0.00 in0.0 mm 0.00 in0.0 mm 0.00 in0.0 mm
03:42 AM 36.8°F2.7°C 31.2°F-0.4°C 80% 7.0 mph E11.3 kmh E 10.0 mph16.1 kmh 30.45 in1031.2 mb 0.00 in0.0 mm 0.00 in0.0 mm 0.00 in0.0 mm
03:43 AM 36.7°F2.6°C 31.1°F-0.5°C 80% 7.0 mph ESE11.3 kmh ESE 9.0 mph14.5 kmh 30.45 in1031.2 mb 0.00 in0.0 mm 0.00 in0.0 mm 0.00 in0.0 mm
03:44 AM 36.6°F2.6°C 31.0°F-0.6°C 80% 8.0 mph E12.9 kmh E 9.0 mph14.5 kmh 30.45 in1031.2 mb 0.00 in0.0 mm 0.00 in0.0 mm 0.00 in0.0 mm
03:45 AM 36.6°F2.6°C 31.0°F-0.6°C 80% 7.0 mph E11.3 kmh E 9.0 mph14.5 kmh 30.45 in1031.2 mb 0.00 in0.0 mm 0.00 in0.0 mm 0.00 in0.0 mm
03:46 AM 36.5°F2.5°C 30.9°F-0.6°C 80% 7.0 mph E11.3 kmh E 10.0 mph16.1 kmh 30.45 in1031.2 mb 0.00 in0.0 mm 0.00 in0.0 mm 0.00 in0.0 mm
03:47 AM 36.5°F2.5°C 30.9°F-0.6°C 80% 6.0 mph E9.7 kmh E 8.0 mph12.9 kmh 30.45 in1031.2 mb 0.00 in0.0 mm 0.00 in0.0 mm 0.00 in0.0 mm
03:48 AM 36.4°F2.4°C 30.8°F-0.7°C 80% 6.0 mph E9.7 kmh E 8.0 mph12.9 kmh 30.45 in1031.2 mb 0.00 in0.0 mm 0.00 in0.0 mm 0.00 in0.0 mm
03:49 AM 36.4°F2.4°C 30.8°F-0.7°C 80% 6.0 mph E9.7 kmh E 8.0 mph12.9 kmh 30.45 in1031.2 mb 0.00 in0.0 mm 0.00 in0.0 mm 0.00 in0.0 mm
03:50 AM 36.4°F2.4°C 30.8°F-0.7°C 80% 6.0 mph E9.7 kmh E 9.0 mph14.5 kmh 30.45 in1031.2 mb 0.00 in0.0 mm 0.00 in0.0 mm 0.00 in0.0 mm
03:51 AM 36.2°F2.3°C 30.6°F-0.8°C 80% 8.0 mph E12.9 kmh E 10.0 mph16.1 kmh 30.45 in1031.2 mb 0.00 in0.0 mm 0.00 in0.0 mm 0.00 in0.0 mm
03:52 AM 36.2°F2.3°C 30.6°F-0.8°C 80% 7.0 mph ESE11.3 kmh ESE 8.0 mph12.9 kmh 30.45 in1031.2 mb 0.00 in0.0 mm 0.00 in0.0 mm 0.00 in0.0 mm
03:53 AM 36.2°F2.3°C 30.6°F-0.8°C 80% 7.0 mph ESE11.3 kmh ESE 8.0 mph12.9 kmh 30.45 in1031.2 mb 0.00 in0.0 mm 0.00 in0.0 mm 0.00 in0.0 mm
03:54 AM 36.1°F2.3°C 30.5°F-0.8°C 80% 7.0 mph ESE11.3 kmh ESE 10.0 mph16.1 kmh 30.45 in1031.2 mb 0.00 in0.0 mm 0.00 in0.0 mm 0.00 in0.0 mm
03:55 AM 36.1°F2.3°C 30.8°F-0.7°C 81% 7.0 mph ESE11.3 kmh ESE 9.0 mph14.5 kmh 30.45 in1031.2 mb 0.00 in0.0 mm 0.00 in0.0 mm 0.00 in0.0 mm
03:56 AM 36.0°F2.2°C 30.4°F-0.9°C 80% 6.0 mph E9.7 kmh E 9.0 mph14.5 kmh 30.45 in1031.2 mb 0.00 in0.0 mm 0.00 in0.0 mm 0.00 in0.0 mm
03:57 AM 36.0°F2.2°C 30.4°F-0.9°C 80% 7.0 mph E11.3 kmh E 9.0 mph14.5 kmh 30.45 in1031.2 mb 0.00 in0.0 mm 0.00 in0.0 mm 0.00 in0.0 mm
03:58 AM 36.0°F2.2°C 30.4°F-0.9°C 80% 7.0 mph ESE11.3 kmh ESE 8.0 mph12.9 kmh 30.45 in1031.2 mb 0.00 in0.0 mm 0.00 in0.0 mm 0.00 in0.0 mm
03:59 AM 36.0°F2.2°C 30.4°F-0.9°C 80% 8.0 mph ESE12.9 kmh ESE 14.0 mph22.5 kmh 30.46 in1031.5 mb 0.00 in0.0 mm 0.00 in0.0 mm 0.00 in0.0 mm
04:00 AM 36.0°F2.2°C 30.4°F-0.9°C 80% 9.0 mph ESE14.5 kmh ESE 11.0 mph17.7 kmh 30.45 in1031.2 mb 0.00 in0.0 mm 0.00 in0.0 mm 0.00 in0.0 mm
04:01 AM 36.0°F2.2°C 30.4°F-0.9°C 80% 9.0 mph ESE14.5 kmh ESE 12.0 mph19.3 kmh 30.46 in1031.5 mb 0.00 in0.0 mm 0.00 in0.0 mm 0.00 in0.0 mm
04:02 AM 36.0°F2.2°C 30.4°F-0.9°C 80% 8.0 mph ESE12.9 kmh ESE 11.0 mph17.7 kmh 30.45 in1031.2 mb 0.00 in0.0 mm 0.00 in0.0 mm 0.00 in0.0 mm
04:03 AM 36.0°F2.2°C 30.4°F-0.9°C 80% 8.0 mph ESE12.9 kmh ESE 11.0 mph17.7 kmh 30.46 in1031.5 mb 0.00 in0.0 mm 0.00 in0.0 mm 0.00 in0.0 mm
04:04 AM 36.0°F2.2°C 30.4°F-0.9°C 80% 9.0 mph ESE14.5 kmh ESE 11.0 mph17.7 kmh 30.46 in1031.5 mb 0.00 in0.0 mm 0.00 in0.0 mm 0.00 in0.0 mm
04:05 AM 36.0°F2.2°C 30.4°F-0.9°C 80% 9.0 mph ESE14.5 kmh ESE 12.0 mph19.3 kmh 30.46 in1031.5 mb 0.00 in0.0 mm 0.00 in0.0 mm 0.00 in0.0 mm
04:06 AM 36.0°F2.2°C 30.1°F-1.1°C 79% 7.0 mph ESE11.3 kmh ESE 9.0 mph14.5 kmh 30.46 in1031.5 mb 0.00 in0.0 mm 0.00 in0.0 mm 0.00 in0.0 mm
04:07 AM 36.1°F2.3°C 30.2°F-1.0°C 79% 8.0 mph E12.9 kmh E 10.0 mph16.1 kmh 30.46 in1031.5 mb 0.00 in0.0 mm 0.00 in0.0 mm 0.00 in0.0 mm
04:08 AM 36.0°F2.2°C 30.1°F-1.1°C 79% 7.0 mph ESE11.3 kmh ESE 10.0 mph16.1 kmh 30.46 in1031.5 mb 0.00 in0.0 mm 0.00 in0.0 mm 0.00 in0.0 mm
04:09 AM 36.1°F2.3°C 30.2°F-1.0°C 79% 7.0 mph E11.3 kmh E 9.0 mph14.5 kmh 30.46 in1031.5 mb 0.00 in0.0 mm 0.00 in0.0 mm 0.00 in0.0 mm
04:10 AM 36.0°F2.2°C 30.1°F-1.1°C 79% 6.0 mph ESE9.7 kmh ESE 9.0 mph14.5 kmh 30.46 in1031.5 mb 0.00 in0.0 mm 0.00 in0.0 mm 0.00 in0.0 mm
04:11 AM 36.1°F2.3°C 30.2°F-1.0°C 79% 7.0 mph ESE11.3 kmh ESE 9.0 mph14.5 kmh 30.46 in1031.5 mb 0.00 in0.0 mm 0.00 in0.0 mm 0.00 in0.0 mm
04:12 AM 36.0°F2.2°C 30.1°F-1.1°C 79% 7.0 mph ESE11.3 kmh ESE 11.0 mph17.7 kmh 30.46 in1031.5 mb 0.00 in0.0 mm 0.00 in0.0 mm 0.00 in0.0 mm
04:13 AM 36.1°F2.3°C 30.2°F-1.0°C 79% 8.0 mph E12.9 kmh E 11.0 mph17.7 kmh 30.46 in1031.5 mb 0.00 in0.0 mm 0.00 in0.0 mm 0.00 in0.0 mm
04:14 AM 36.1°F2.3°C 30.2°F-1.0°C 79% 6.0 mph ESE9.7 kmh ESE 9.0 mph14.5 kmh 30.46 in1031.5 mb 0.00 in0.0 mm 0.00 in0.0 mm 0.00 in0.0 mm
04:15 AM 36.1°F2.3°C 29.9°F-1.2°C 78% 7.0 mph E11.3 kmh E 9.0 mph14.5 kmh 30.46 in1031.5 mb 0.00 in0.0 mm 0.00 in0.0 mm 0.00 in0.0 mm
04:16 AM 36.1°F2.3°C 29.9°F-1.2°C 78% 7.0 mph E11.3 kmh E 8.0 mph12.9 kmh 30.46 in1031.5 mb 0.00 in0.0 mm 0.00 in0.0 mm 0.00 in0.0 mm
04:17 AM 36.1°F2.3°C 29.9°F-1.2°C 78% 7.0 mph E11.3 kmh E 9.0 mph14.5 kmh 30.46 in1031.5 mb 0.00 in0.0 mm 0.00 in0.0 mm 0.00 in0.0 mm
04:18 AM 36.1°F2.3°C 29.9°F-1.2°C 78% 8.0 mph E12.9 kmh E 10.0 mph16.1 kmh 30.46 in1031.5 mb 0.00 in0.0 mm 0.00 in0.0 mm 0.00 in0.0 mm
04:19 AM 36.1°F2.3°C 29.9°F-1.2°C 78% 8.0 mph E12.9 kmh E 9.0 mph14.5 kmh 30.46 in1031.5 mb 0.00 in0.0 mm 0.00 in0.0 mm 0.00 in0.0 mm
04:20 AM 36.2°F2.3°C 30.0°F-1.1°C 78% 8.0 mph E12.9 kmh E 10.0 mph16.1 kmh 30.46 in1031.5 mb 0.00 in0.0 mm 0.00 in0.0 mm 0.00 in0.0 mm
04:21 AM 36.2°F2.3°C 30.0°F-1.1°C 78% 7.0 mph E11.3 kmh E 9.0 mph14.5 kmh 30.46 in1031.5 mb 0.00 in0.0 mm 0.00 in0.0 mm 0.00 in0.0 mm
04:22 AM 36.2°F2.3°C 30.0°F-1.1°C 78% 7.0 mph E11.3 kmh E 8.0 mph12.9 kmh 30.46 in1031.5 mb 0.00 in0.0 mm 0.00 in0.0 mm 0.00 in0.0 mm
04:23 AM 36.3°F2.4°C 30.1°F-1.1°C 78% 6.0 mph E9.7 kmh E 10.0 mph16.1 kmh 30.46 in1031.5 mb 0.00 in0.0 mm 0.00 in0.0 mm 0.00 in0.0 mm
04:24 AM 36.3°F2.4°C 30.1°F-1.1°C 78% 8.0 mph E12.9 kmh E 10.0 mph16.1 kmh 30.46 in1031.5 mb 0.00 in0.0 mm 0.00 in0.0 mm 0.00 in0.0 mm
04:25 AM 36.3°F2.4°C 30.1°F-1.1°C 78% 6.0 mph E9.7 kmh E 9.0 mph14.5 kmh 30.46 in1031.5 mb 0.00 in0.0 mm 0.00 in0.0 mm 0.00 in0.0 mm
04:26 AM 36.4°F2.4°C 30.2°F-1.0°C 78% 7.0 mph E11.3 kmh E 10.0 mph16.1 kmh 30.46 in1031.5 mb 0.00 in0.0 mm 0.00 in0.0 mm 0.00 in0.0 mm
04:27 AM 36.4°F2.4°C 30.2°F-1.0°C 78% 7.0 mph E11.3 kmh E 9.0 mph14.5 kmh 30.46 in1031.5 mb 0.00 in0.0 mm 0.00 in0.0 mm 0.00 in0.0 mm
04:28 AM 36.5°F2.5°C 30.3°F-0.9°C 78% 7.0 mph E11.3 kmh E 10.0 mph16.1 kmh 30.46 in1031.5 mb 0.00 in0.0 mm 0.00 in0.0 mm 0.00 in0.0 mm
04:29 AM 36.5°F2.5°C 30.3°F-0.9°C 78% 7.0 mph E11.3 kmh E 9.0 mph14.5 kmh 30.46 in1031.5 mb 0.00 in0.0 mm 0.00 in0.0 mm 0.00 in0.0 mm
04:30 AM 36.5°F2.5°C 30.0°F-1.1°C 77% 8.0 mph E12.9 kmh E 10.0 mph16.1 kmh 30.46 in1031.5 mb 0.00 in0.0 mm 0.00 in0.0 mm 0.00 in0.0 mm
04:31 AM 36.6°F2.6°C 30.1°F-1.1°C 77% 6.0 mph E9.7 kmh E 10.0 mph16.1 kmh 30.46 in1031.5 mb 0.00 in0.0 mm 0.00 in0.0 mm 0.00 in0.0 mm
04:32 AM 36.6°F2.6°C 30.1°F-1.1°C 77% 7.0 mph E11.3 kmh E 10.0 mph16.1 kmh 30.46 in1031.5 mb 0.00 in0.0 mm 0.00 in0.0 mm 0.00 in0.0 mm
04:33 AM 36.6°F2.6°C 30.1°F-1.1°C 77% 9.0 mph E14.5 kmh E 10.0 mph16.1 kmh 30.46 in1031.5 mb 0.00 in0.0 mm 0.00 in0.0 mm 0.00 in0.0 mm
04:34 AM 36.6°F2.6°C 30.1°F-1.1°C 77% 9.0 mph E14.5 kmh E 11.0 mph17.7 kmh 30.46 in1031.5 mb 0.00 in0.0 mm 0.00 in0.0 mm 0.00 in0.0 mm
04:35 AM 36.6°F2.6°C 30.4°F-0.9°C 78% 6.0 mph E9.7 kmh E 8.0 mph12.9 kmh 30.46 in1031.5 mb 0.00 in0.0 mm 0.00 in0.0 mm 0.00 in0.0 mm
04:36 AM 36.6°F2.6°C 30.4°F-0.9°C 78% 7.0 mph E11.3 kmh E 9.0 mph14.5 kmh 30.46 in1031.5 mb 0.00 in0.0 mm 0.00 in0.0 mm 0.00 in0.0 mm
04:37 AM 36.6°F2.6°C 30.4°F-0.9°C 78% 7.0 mph ESE11.3 kmh ESE 8.0 mph12.9 kmh 30.46 in1031.5 mb 0.00 in0.0 mm 0.00 in0.0 mm 0.00 in0.0 mm
04:38 AM 36.6°F2.6°C 30.1°F-1.1°C 77% 7.0 mph E11.3 kmh E 8.0 mph12.9 kmh 30.46 in1031.5 mb 0.00 in0.0 mm 0.00 in0.0 mm 0.00 in0.0 mm
04:39 AM 36.6°F2.6°C 30.1°F-1.1°C 77% 7.0 mph E11.3 kmh E 10.0 mph16.1 kmh 30.46 in1031.5 mb 0.00 in0.0 mm 0.00 in0.0 mm 0.00 in0.0 mm
04:40 AM 36.6°F2.6°C 30.1°F-1.1°C 77% 8.0 mph E12.9 kmh E 10.0 mph16.1 kmh 30.46 in1031.5 mb 0.00 in0.0 mm 0.00 in0.0 mm 0.00 in0.0 mm
04:41 AM 36.6°F2.6°C 30.1°F-1.1°C 77% 7.0 mph E11.3 kmh E 8.0 mph12.9 kmh 30.46 in1031.5 mb 0.00 in0.0 mm 0.00 in0.0 mm 0.00 in0.0 mm
04:42 AM 36.6°F2.6°C 30.1°F-1.1°C 77% 8.0 mph E12.9 kmh E 9.0 mph14.5 kmh 30.46 in1031.5 mb 0.00 in0.0 mm 0.00 in0.0 mm 0.00 in0.0 mm
04:43 AM 36.6°F2.6°C 30.1°F-1.1°C 77% 5.0 mph E8.0 kmh E 7.0 mph11.3 kmh 30.46 in1031.5 mb 0.00 in0.0 mm 0.00 in0.0 mm 0.00 in0.0 mm
04:44 AM 36.6°F2.6°C 30.1°F-1.1°C 77% 7.0 mph E11.3 kmh E 10.0 mph16.1 kmh 30.46 in1031.5 mb 0.00 in0.0 mm 0.00 in0.0 mm 0.00 in0.0 mm
04:45 AM 36.7°F2.6°C 30.2°F-1.0°C 77% 7.0 mph E11.3 kmh E 9.0 mph14.5 kmh 30.46 in1031.5 mb 0.00 in0.0 mm 0.00 in0.0 mm 0.00 in0.0 mm
04:46 AM 36.7°F2.6°C 30.2°F-1.0°C 77% 8.0 mph E12.9 kmh E 9.0 mph14.5 kmh 30.46 in1031.5 mb 0.00 in0.0 mm 0.00 in0.0 mm 0.00 in0.0 mm
04:47 AM 36.7°F2.6°C 30.2°F-1.0°C 77% 5.0 mph E8.0 kmh E 7.0 mph11.3 kmh 30.46 in1031.5 mb 0.00 in0.0 mm 0.00 in0.0 mm 0.00 in0.0 mm
04:48 AM 36.7°F2.6°C 30.2°F-1.0°C 77% 5.0 mph E8.0 kmh E 7.0 mph11.3 kmh 30.46 in1031.5 mb 0.00 in0.0 mm 0.00 in0.0 mm 0.00 in0.0 mm
04:49 AM 36.7°F2.6°C 30.2°F-1.0°C 77% 4.0 mph ENE6.4 kmh ENE 5.0 mph8.0 kmh 30.46 in1031.5 mb 0.00 in0.0 mm 0.00 in0.0 mm 0.00 in0.0 mm
04:50 AM 36.6°F2.6°C 30.4°F-0.9°C 78% 4.0 mph ENE6.4 kmh ENE 5.0 mph8.0 kmh 30.46 in1031.5 mb 0.00 in0.0 mm 0.00 in0.0 mm 0.00 in0.0 mm
04:51 AM 36.6°F2.6°C 30.4°F-0.9°C 78% 5.0 mph ENE8.0 kmh ENE 6.0 mph9.7 kmh 30.46 in1031.5 mb 0.00 in0.0 mm 0.00 in0.0 mm 0.00 in0.0 mm
04:52 AM 36.5°F2.5°C 30.3°F-0.9°C 78% 4.0 mph E6.4 kmh E 5.0 mph8.0 kmh 30.46 in1031.5 mb 0.00 in0.0 mm 0.00 in0.0 mm 0.00 in0.0 mm
04:53 AM 36.5°F2.5°C 30.3°F-0.9°C 78% 5.0 mph ENE8.0 kmh ENE 8.0 mph12.9 kmh 30.47 in1031.8 mb 0.00 in0.0 mm 0.00 in0.0 mm 0.00 in0.0 mm
04:54 AM 36.5°F2.5°C 30.3°F-0.9°C 78% 6.0 mph ENE9.7 kmh ENE 7.0 mph11.3 kmh 30.47 in1031.8 mb 0.00 in0.0 mm 0.00 in0.0 mm 0.00 in0.0 mm
04:55 AM 36.4°F2.4°C 30.2°F-1.0°C 78% 5.0 mph ENE8.0 kmh ENE 7.0 mph11.3 kmh 30.46 in1031.5 mb 0.00 in0.0 mm 0.00 in0.0 mm 0.00 in0.0 mm
04:56 AM 36.5°F2.5°C 30.3°F-0.9°C 78% 5.0 mph E8.0 kmh E 8.0 mph12.9 kmh 30.46 in1031.5 mb 0.00 in0.0 mm 0.00 in0.0 mm 0.00 in0.0 mm
04:57 AM 36.4°F2.4°C 30.2°F-1.0°C 78% 5.0 mph E8.0 kmh E 7.0 mph11.3 kmh 30.47 in1031.8 mb 0.00 in0.0 mm 0.00 in0.0 mm 0.00 in0.0 mm
04:58 AM 36.4°F2.4°C 30.2°F-1.0°C 78% 6.0 mph ENE9.7 kmh ENE 8.0 mph12.9 kmh 30.47 in1031.8 mb 0.00 in0.0 mm 0.00 in0.0 mm 0.00 in0.0 mm
04:59 AM 36.4°F2.4°C 30.5°F-0.8°C 79% 6.0 mph ENE9.7 kmh ENE 8.0 mph12.9 kmh 30.47 in1031.8 mb 0.00 in0.0 mm 0.00 in0.0 mm 0.00 in0.0 mm
05:00 AM 36.4°F2.4°C 30.5°F-0.8°C 79% 5.0 mph ENE8.0 kmh ENE 6.0 mph9.7 kmh 30.47 in1031.8 mb 0.00 in0.0 mm 0.00 in0.0 mm 0.00 in0.0 mm
05:01 AM 36.3°F2.4°C 30.4°F-0.9°C 79% 5.0 mph ENE8.0 kmh ENE 7.0 mph11.3 kmh 30.47 in1031.8 mb 0.00 in0.0 mm 0.00 in0.0 mm 0.00 in0.0 mm
05:02 AM 36.3°F2.4°C 30.4°F-0.9°C 79% 5.0 mph ENE8.0 kmh ENE 8.0 mph12.9 kmh 30.47 in1031.8 mb 0.00 in0.0 mm 0.00 in0.0 mm 0.00 in0.0 mm
05:03 AM 36.3°F2.4°C 30.4°F-0.9°C 79% 6.0 mph ENE9.7 kmh ENE 9.0 mph14.5 kmh 30.47 in1031.8 mb 0.00 in0.0 mm 0.00 in0.0 mm 0.00 in0.0 mm
05:04 AM 36.3°F2.4°C 30.4°F-0.9°C 79% 5.0 mph ENE8.0 kmh ENE 9.0 mph14.5 kmh 30.47 in1031.8 mb 0.00 in0.0 mm 0.00 in0.0 mm 0.00 in0.0 mm
05:05 AM 36.3°F2.4°C 30.4°F-0.9°C 79% 5.0 mph ENE8.0 kmh ENE 8.0 mph12.9 kmh 30.47 in1031.8 mb 0.00 in0.0 mm 0.00 in0.0 mm 0.00 in0.0 mm
05:06 AM 36.2°F2.3°C 30.3°F-0.9°C 79% 5.0 mph ENE8.0 kmh ENE 7.0 mph11.3 kmh 30.47 in1031.8 mb 0.00 in0.0 mm 0.00 in0.0 mm 0.00 in0.0 mm
05:07 AM 36.2°F2.3°C 30.3°F-0.9°C 79% 4.0 mph ENE6.4 kmh ENE 7.0 mph11.3 kmh 30.47 in1031.8 mb 0.00 in0.0 mm 0.00 in0.0 mm 0.00 in0.0 mm
05:08 AM 36.2°F2.3°C 30.3°F-0.9°C 79% 6.0 mph ENE9.7 kmh ENE 8.0 mph12.9 kmh 30.47 in1031.8 mb 0.00 in0.0 mm 0.00 in0.0 mm 0.00 in0.0 mm
05:09 AM 36.2°F2.3°C 30.0°F-1.1°C 78% 7.0 mph ENE11.3 kmh ENE 10.0 mph16.1 kmh 30.47 in1031.8 mb 0.00 in0.0 mm 0.00 in0.0 mm 0.00 in0.0 mm
05:10 AM 36.2°F2.3°C 30.0°F-1.1°C 78% 5.0 mph ENE8.0 kmh ENE 8.0 mph12.9 kmh 30.47 in1031.8 mb 0.00 in0.0 mm 0.00 in0.0 mm 0.00 in0.0 mm
05:11 AM 36.1°F2.3°C 29.9°F-1.2°C 78% 6.0 mph ENE9.7 kmh ENE 8.0 mph12.9 kmh 30.47 in1031.8 mb 0.00 in0.0 mm 0.00 in0.0 mm 0.00 in0.0 mm
05:12 AM 36.0°F2.2°C 29.8°F-1.2°C 78% 5.0 mph ENE8.0 kmh ENE 7.0 mph11.3 kmh 30.47 in1031.8 mb 0.00 in0.0 mm 0.00 in0.0 mm 0.00 in0.0 mm
05:13 AM 36.1°F2.3°C 29.9°F-1.2°C 78% 9.0 mph ENE14.5 kmh ENE 12.0 mph19.3 kmh 30.47 in1031.8 mb 0.00 in0.0 mm 0.00 in0.0 mm 0.00 in0.0 mm
05:14 AM 36.0°F2.2°C 29.8°F-1.2°C 78% 7.0 mph E11.3 kmh E 9.0 mph14.5 kmh 30.47 in1031.8 mb 0.00 in0.0 mm 0.00 in0.0 mm 0.00 in0.0 mm
05:15 AM 36.0°F2.2°C 29.8°F-1.2°C 78% 6.0 mph ENE9.7 kmh ENE 8.0 mph12.9 kmh 30.47 in1031.8 mb 0.00 in0.0 mm 0.00 in0.0 mm 0.00 in0.0 mm
05:16 AM 36.0°F2.2°C 29.8°F-1.2°C 78% 7.0 mph ENE11.3 kmh ENE 9.0 mph14.5 kmh 30.47 in1031.8 mb 0.00 in0.0 mm 0.00 in0.0 mm 0.00 in0.0 mm
05:17 AM 36.0°F2.2°C 29.8°F-1.2°C 78% 7.0 mph E11.3 kmh E 10.0 mph16.1 kmh 30.47 in1031.8 mb 0.00 in0.0 mm 0.00 in0.0 mm 0.00 in0.0 mm
05:18 AM 36.0°F2.2°C 29.8°F-1.2°C 78% 6.0 mph ENE9.7 kmh ENE 9.0 mph14.5 kmh 30.47 in1031.8 mb 0.00 in0.0 mm 0.00 in0.0 mm 0.00 in0.0 mm
05:19 AM 36.0°F2.2°C 29.5°F-1.4°C 77% 6.0 mph ENE9.7 kmh ENE 9.0 mph14.5 kmh 30.47 in1031.8 mb 0.00 in0.0 mm 0.00 in0.0 mm 0.00 in0.0 mm
05:20 AM 36.0°F2.2°C 29.5°F-1.4°C 77% 7.0 mph ENE11.3 kmh ENE 10.0 mph16.1 kmh 30.47 in1031.8 mb 0.00 in0.0 mm 0.00 in0.0 mm 0.00 in0.0 mm
05:21 AM 36.0°F2.2°C 29.5°F-1.4°C 77% 7.0 mph ENE11.3 kmh ENE 9.0 mph14.5 kmh 30.47 in1031.8 mb 0.00 in0.0 mm 0.00 in0.0 mm 0.00 in0.0 mm
05:22 AM 36.0°F2.2°C 29.2°F-1.6°C 76% 6.0 mph ENE9.7 kmh ENE 9.0 mph14.5 kmh 30.47 in1031.8 mb 0.00 in0.0 mm 0.00 in0.0 mm 0.00 in0.0 mm
05:23 AM 36.1°F2.3°C 29.3°F-1.5°C 76% 7.0 mph E11.3 kmh E 9.0 mph14.5 kmh 30.47 in1031.8 mb 0.00 in0.0 mm 0.00 in0.0 mm 0.00 in0.0 mm
05:24 AM 36.1°F2.3°C 29.3°F-1.5°C 76% 8.0 mph E12.9 kmh E 9.0 mph14.5 kmh 30.47 in1031.8 mb 0.00 in0.0 mm 0.00 in0.0 mm 0.00 in0.0 mm
05:25 AM 36.1°F2.3°C 29.0°F-1.7°C 75% 7.0 mph E11.3 kmh E 9.0 mph14.5 kmh 30.47 in1031.8 mb 0.00 in0.0 mm 0.00 in0.0 mm 0.00 in0.0 mm
05:26 AM 36.1°F2.3°C 29.0°F-1.7°C 75% 6.0 mph E9.7 kmh E 9.0 mph14.5 kmh 30.47 in1031.8 mb 0.00 in0.0 mm 0.00 in0.0 mm 0.00 in0.0 mm
05:27 AM 36.1°F2.3°C 29.0°F-1.7°C 75% 8.0 mph E12.9 kmh E 10.0 mph16.1 kmh 30.47 in1031.8 mb 0.00 in0.0 mm 0.00 in0.0 mm 0.00 in0.0 mm
05:28 AM 36.1°F2.3°C 29.0°F-1.7°C 75% 7.0 mph E11.3 kmh E 9.0 mph14.5 kmh 30.47 in1031.8 mb 0.00 in0.0 mm 0.00 in0.0 mm 0.00 in0.0 mm
05:29 AM 36.2°F2.3°C 28.7°F-1.8°C 74% 7.0 mph E11.3 kmh E 10.0 mph16.1 kmh 30.47 in1031.8 mb 0.00 in0.0 mm 0.00 in0.0 mm 0.00 in0.0 mm
05:30 AM 36.1°F2.3°C 28.6°F-1.9°C 74% 6.0 mph E9.7 kmh E 11.0 mph17.7 kmh 30.47 in1031.8 mb 0.00 in0.0 mm 0.00 in0.0 mm 0.00 in0.0 mm
05:31 AM 36.1°F2.3°C 28.6°F-1.9°C 74% 6.0 mph E9.7 kmh E 8.0 mph12.9 kmh 30.47 in1031.8 mb 0.00 in0.0 mm 0.00 in0.0 mm 0.00 in0.0 mm
05:32 AM 36.1°F2.3°C 28.6°F-1.9°C 74% 6.0 mph ENE9.7 kmh ENE 8.0 mph12.9 kmh 30.47 in1031.8 mb 0.00 in0.0 mm 0.00 in0.0 mm 0.00 in0.0 mm
05:33 AM 36.1°F2.3°C 28.6°F-1.9°C 74% 6.0 mph ENE9.7 kmh ENE 9.0 mph14.5 kmh 30.47 in1031.8 mb 0.00 in0.0 mm 0.00 in0.0 mm 0.00 in0.0 mm
05:34 AM 36.1°F2.3°C 28.6°F-1.9°C 74% 6.0 mph E9.7 kmh E 10.0 mph16.1 kmh 30.47 in1031.8 mb 0.00 in0.0 mm 0.00 in0.0 mm 0.00 in0.0 mm
05:35 AM 36.1°F2.3°C 28.3°F-2.1°C 73% 7.0 mph ENE11.3 kmh ENE 10.0 mph16.1 kmh 30.47 in1031.8 mb 0.00 in0.0 mm 0.00 in0.0 mm 0.00 in0.0 mm
05:36 AM 36.1°F2.3°C 28.3°F-2.1°C 73% 5.0 mph ENE8.0 kmh ENE 8.0 mph12.9 kmh 30.47 in1031.8 mb 0.00 in0.0 mm 0.00 in0.0 mm 0.00 in0.0 mm
05:37 AM 36.1°F2.3°C 28.3°F-2.1°C 73% 5.0 mph E8.0 kmh E 8.0 mph12.9 kmh 30.47 in1031.8 mb 0.00 in0.0 mm 0.00 in0.0 mm 0.00 in0.0 mm
05:38 AM 36.1°F2.3°C 28.3°F-2.1°C 73% 7.0 mph E11.3 kmh E 9.0 mph14.5 kmh 30.47 in1031.8 mb 0.00 in0.0 mm 0.00 in0.0 mm 0.00 in0.0 mm
05:39 AM 36.1°F2.3°C 28.3°F-2.1°C 73% 7.0 mph ENE11.3 kmh ENE 9.0 mph14.5 kmh 30.47 in1031.8 mb 0.00 in0.0 mm 0.00 in0.0 mm 0.00 in0.0 mm
05:40 AM 36.2°F2.3°C 28.4°F-2.0°C 73% 8.0 mph ENE12.9 kmh ENE 9.0 mph14.5 kmh 30.47 in1031.8 mb 0.00 in0.0 mm 0.00 in0.0 mm 0.00 in0.0 mm
05:41 AM 36.1°F2.3°C 28.0°F-2.2°C 72% 6.0 mph ENE9.7 kmh ENE 9.0 mph14.5 kmh 30.48 in1032.2 mb 0.00 in0.0 mm 0.00 in0.0 mm 0.00 in0.0 mm
05:42 AM 36.2°F2.3°C 28.1°F-2.2°C 72% 6.0 mph ENE9.7 kmh ENE 10.0 mph16.1 kmh 30.48 in1032.2 mb 0.00 in0.0 mm 0.00 in0.0 mm 0.00 in0.0 mm
05:43 AM 36.2°F2.3°C 28.1°F-2.2°C 72% 7.0 mph ENE11.3 kmh ENE 10.0 mph16.1 kmh 30.48 in1032.2 mb 0.00 in0.0 mm 0.00 in0.0 mm 0.00 in0.0 mm
05:44 AM 36.2°F2.3°C 28.1°F-2.2°C 72% 5.0 mph ENE8.0 kmh ENE 8.0 mph12.9 kmh 30.48 in1032.2 mb 0.00 in0.0 mm 0.00 in0.0 mm 0.00 in0.0 mm
05:45 AM 36.2°F2.3°C 27.7°F-2.4°C 71% 8.0 mph ENE12.9 kmh ENE 10.0 mph16.1 kmh 30.48 in1032.2 mb 0.00 in0.0 mm 0.00 in0.0 mm 0.00 in0.0 mm
05:46 AM 36.2°F2.3°C 27.7°F-2.4°C 71% 6.0 mph ENE9.7 kmh ENE 9.0 mph14.5 kmh 30.48 in1032.2 mb 0.00 in0.0 mm 0.00 in0.0 mm 0.00 in0.0 mm
05:47 AM 36.2°F2.3°C 27.7°F-2.4°C 71% 8.0 mph ENE12.9 kmh ENE 11.0 mph17.7 kmh 30.48 in1032.2 mb 0.00 in0.0 mm 0.00 in0.0 mm 0.00 in0.0 mm
05:48 AM 36.3°F2.4°C 27.8°F-2.3°C 71% 8.0 mph ENE12.9 kmh ENE 10.0 mph16.1 kmh 30.48 in1032.2 mb 0.00 in0.0 mm 0.00 in0.0 mm 0.00 in0.0 mm
05:49 AM 36.3°F2.4°C 27.8°F-2.3°C 71% 7.0 mph ENE11.3 kmh ENE 10.0 mph16.1 kmh 30.48 in1032.2 mb 0.00 in0.0 mm 0.00 in0.0 mm 0.00 in0.0 mm
05:50 AM 36.3°F2.4°C 27.8°F-2.3°C 71% 6.0 mph ENE9.7 kmh ENE 9.0 mph14.5 kmh 30.48 in1032.2 mb 0.00 in0.0 mm 0.00 in0.0 mm 0.00 in0.0 mm
05:51 AM 36.3°F2.4°C 28.2°F-2.1°C 72% 5.0 mph ENE8.0 kmh ENE 8.0 mph12.9 kmh 30.48 in1032.2 mb 0.00 in0.0 mm 0.00 in0.0 mm 0.00 in0.0 mm
05:52 AM 36.3°F2.4°C 28.2°F-2.1°C 72% 5.0 mph ENE8.0 kmh ENE 9.0 mph14.5 kmh 30.48 in1032.2 mb 0.00 in0.0 mm 0.00 in0.0 mm 0.00 in0.0 mm
05:53 AM 36.3°F2.4°C 28.2°F-2.1°C 72% 5.0 mph ENE8.0 kmh ENE 8.0 mph12.9 kmh 30.48 in1032.2 mb 0.00 in0.0 mm 0.00 in0.0 mm 0.00 in0.0 mm
05:54 AM 36.3°F2.4°C 28.2°F-2.1°C 72% 5.0 mph ENE8.0 kmh ENE 9.0 mph14.5 kmh 30.48 in1032.2 mb 0.00 in0.0 mm 0.00 in0.0 mm 0.00 in0.0 mm
05:55 AM 36.3°F2.4°C 28.2°F-2.1°C 72% 5.0 mph ENE8.0 kmh ENE 9.0 mph14.5 kmh 30.48 in1032.2 mb 0.00 in0.0 mm 0.00 in0.0 mm 0.00 in0.0 mm
05:56 AM 36.2°F2.3°C 27.7°F-2.4°C 71% 5.0 mph ENE8.0 kmh ENE 8.0 mph12.9 kmh 30.48 in1032.2 mb 0.00 in0.0 mm 0.00 in0.0 mm 0.00 in0.0 mm
05:57 AM 36.2°F2.3°C 27.7°F-2.4°C 71% 9.0 mph E14.5 kmh E 11.0 mph17.7 kmh 30.48 in1032.2 mb 0.00 in0.0 mm 0.00 in0.0 mm 0.00 in0.0 mm
05:58 AM 36.2°F2.3°C 27.7°F-2.4°C 71% 7.0 mph ENE11.3 kmh ENE 8.0 mph12.9 kmh 30.48 in1032.2 mb 0.00 in0.0 mm 0.00 in0.0 mm 0.00 in0.0 mm
05:59 AM 36.2°F2.3°C 27.7°F-2.4°C 71% 5.0 mph ENE8.0 kmh ENE 10.0 mph16.1 kmh 30.48 in1032.2 mb 0.00 in0.0 mm 0.00 in0.0 mm 0.00 in0.0 mm
06:00 AM 36.1°F2.3°C 27.6°F-2.4°C 71% 7.0 mph ENE11.3 kmh ENE 9.0 mph14.5 kmh 30.48 in1032.2 mb 0.00 in0.0 mm 0.00 in0.0 mm 0.00 in0.0 mm
06:01 AM 36.1°F2.3°C 27.3°F-2.6°C 70% 5.0 mph ENE8.0 kmh ENE 8.0 mph12.9 kmh 30.48 in1032.2 mb 0.00 in0.0 mm 0.00 in0.0 mm 0.00 in0.0 mm
06:02 AM 36.1°F2.3°C 27.3°F-2.6°C 70% 6.0 mph ENE9.7 kmh ENE 10.0 mph16.1 kmh 30.48 in1032.2 mb 0.00 in0.0 mm 0.00 in0.0 mm 0.00 in0.0 mm
06:03 AM 36.1°F2.3°C 27.3°F-2.6°C 70% 5.0 mph ENE8.0 kmh ENE 8.0 mph12.9 kmh 30.48 in1032.2 mb 0.00 in0.0 mm 0.00 in0.0 mm 0.00 in0.0 mm
06:04 AM 36.0°F2.2°C 27.5°F-2.5°C 71% 5.0 mph ENE8.0 kmh ENE 8.0 mph12.9 kmh 30.48 in1032.2 mb 0.00 in0.0 mm 0.00 in0.0 mm 0.00 in0.0 mm
06:05 AM 36.0°F2.2°C 27.5°F-2.5°C 71% 5.0 mph ENE8.0 kmh ENE 7.0 mph11.3 kmh 30.48 in1032.2 mb 0.00 in0.0 mm 0.00 in0.0 mm 0.00 in0.0 mm
06:06 AM 36.0°F2.2°C 27.5°F-2.5°C 71% 5.0 mph ENE8.0 kmh ENE 7.0 mph11.3 kmh 30.48 in1032.2 mb 0.00 in0.0 mm 0.00 in0.0 mm 0.00 in0.0 mm
06:07 AM 36.0°F2.2°C 27.5°F-2.5°C 71% 6.0 mph ENE9.7 kmh ENE 8.0 mph12.9 kmh 30.48 in1032.2 mb 0.00 in0.0 mm 0.00 in0.0 mm 0.00 in0.0 mm
06:08 AM 35.9°F2.2°C 27.4°F-2.6°C 71% 6.0 mph ENE9.7 kmh ENE 8.0 mph12.9 kmh 30.48 in1032.2 mb 0.00 in0.0 mm 0.00 in0.0 mm 0.00 in0.0 mm
06:09 AM 35.9°F2.2°C 27.4°F-2.6°C 71% 5.0 mph NE8.0 kmh NE 6.0 mph9.7 kmh 30.48 in1032.2 mb 0.00 in0.0 mm 0.00 in0.0 mm 0.00 in0.0 mm
06:10 AM 35.9°F2.2°C 27.4°F-2.6°C 71% 6.0 mph NE9.7 kmh NE 10.0 mph16.1 kmh 30.48 in1032.2 mb 0.00 in0.0 mm 0.00 in0.0 mm 0.00 in0.0 mm
06:11 AM 35.9°F2.2°C 27.4°F-2.6°C 71% 7.0 mph NE11.3 kmh NE 9.0 mph14.5 kmh 30.48 in1032.2 mb 0.00 in0.0 mm 0.00 in0.0 mm 0.00 in0.0 mm
06:12 AM 35.9°F2.2°C 27.4°F-2.6°C 71% 7.0 mph ENE11.3 kmh ENE 9.0 mph14.5 kmh 30.48 in1032.2 mb 0.00 in0.0 mm 0.00 in0.0 mm 0.00 in0.0 mm
06:13 AM 36.0°F2.2°C 27.5°F-2.5°C 71% 7.0 mph ENE11.3 kmh ENE 9.0 mph14.5 kmh 30.48 in1032.2 mb 0.00 in0.0 mm 0.00 in0.0 mm 0.00 in0.0 mm
06:14 AM 36.1°F2.3°C 27.6°F-2.4°C 71% 6.0 mph ENE9.7 kmh ENE 10.0 mph16.1 kmh 30.48 in1032.2 mb 0.00 in0.0 mm 0.00 in0.0 mm 0.00 in0.0 mm
06:15 AM 36.1°F2.3°C 27.3°F-2.6°C 70% 8.0 mph ENE12.9 kmh ENE 10.0 mph16.1 kmh 30.48 in1032.2 mb 0.00 in0.0 mm 0.00 in0.0 mm 0.00 in0.0 mm
06:16 AM 36.1°F2.3°C 27.3°F-2.6°C 70% 8.0 mph ENE12.9 kmh ENE 10.0 mph16.1 kmh 30.48 in1032.2 mb 0.00 in0.0 mm 0.00 in0.0 mm 0.00 in0.0 mm
06:17 AM 36.2°F2.3°C 27.4°F-2.6°C 70% 7.0 mph ENE11.3 kmh ENE 10.0 mph16.1 kmh 30.48 in1032.2 mb 0.00 in0.0 mm 0.00 in0.0 mm 0.00 in0.0 mm
06:18 AM 36.2°F2.3°C 27.4°F-2.6°C 70% 7.0 mph ENE11.3 kmh ENE 9.0 mph14.5 kmh 30.48 in1032.2 mb 0.00 in0.0 mm 0.00 in0.0 mm 0.00 in0.0 mm
06:19 AM 36.2°F2.3°C 27.4°F-2.6°C 70% 8.0 mph ENE12.9 kmh ENE 11.0 mph17.7 kmh 30.48 in1032.2 mb 0.00 in0.0 mm 0.00 in0.0 mm 0.00 in0.0 mm
06:20 AM 36.2°F2.3°C 27.4°F-2.6°C 70% 10.0 mph ENE16.1 kmh ENE 12.0 mph19.3 kmh 30.48 in1032.2 mb 0.00 in0.0 mm 0.00 in0.0 mm 0.00 in0.0 mm
06:21 AM 36.2°F2.3°C 27.4°F-2.6°C 70% 10.0 mph ENE16.1 kmh ENE 12.0 mph19.3 kmh 30.48 in1032.2 mb 0.00 in0.0 mm 0.00 in0.0 mm 0.00 in0.0 mm
06:22 AM 36.2°F2.3°C 27.4°F-2.6°C 70% 9.0 mph ENE14.5 kmh ENE 12.0 mph19.3 kmh 30.48 in1032.2 mb 0.00 in0.0 mm 0.00 in0.0 mm 0.00 in0.0 mm
06:23 AM 36.2°F2.3°C 27.4°F-2.6°C 70% 9.0 mph ENE14.5 kmh ENE 12.0 mph19.3 kmh 30.48 in1032.2 mb 0.00 in0.0 mm 0.00 in0.0 mm 0.00 in0.0 mm
06:24 AM 36.3°F2.4°C 27.1°F-2.7°C 69% 8.0 mph ENE12.9 kmh ENE 9.0 mph14.5 kmh 30.48 in1032.2 mb 0.00 in0.0 mm 0.00 in0.0 mm 0.00 in0.0 mm
06:25 AM 36.3°F2.4°C 27.1°F-2.7°C 69% 8.0 mph ENE12.9 kmh ENE 10.0 mph16.1 kmh 30.48 in1032.2 mb 0.00 in0.0 mm 0.00 in0.0 mm 0.00 in0.0 mm
06:26 AM 36.3°F2.4°C 27.1°F-2.7°C 69% 6.0 mph ENE9.7 kmh ENE 10.0 mph16.1 kmh 30.48 in1032.2 mb 0.00 in0.0 mm 0.00 in0.0 mm 0.00 in0.0 mm
06:27 AM 36.3°F2.4°C 27.1°F-2.7°C 69% 7.0 mph ENE11.3 kmh ENE 10.0 mph16.1 kmh 30.48 in1032.2 mb 0.00 in0.0 mm 0.00 in0.0 mm 0.00 in0.0 mm
06:28 AM 36.3°F2.4°C 27.1°F-2.7°C 69% 7.0 mph ENE11.3 kmh ENE 10.0 mph16.1 kmh 30.48 in1032.2 mb 0.00 in0.0 mm 0.00 in0.0 mm 0.00 in0.0 mm
06:29 AM 36.4°F2.4°C 27.2°F-2.7°C 69% 9.0 mph ENE14.5 kmh ENE 11.0 mph17.7 kmh 30.48 in1032.2 mb 0.00 in0.0 mm 0.00 in0.0 mm 0.00 in0.0 mm
06:30 AM 36.4°F2.4°C 27.2°F-2.7°C 69% 7.0 mph NE11.3 kmh NE 10.0 mph16.1 kmh 30.48 in1032.2 mb 0.00 in0.0 mm 0.00 in0.0 mm 0.00 in0.0 mm
06:31 AM 36.4°F2.4°C 27.2°F-2.7°C 69% 8.0 mph ENE12.9 kmh ENE 10.0 mph16.1 kmh 30.48 in1032.2 mb 0.00 in0.0 mm 0.00 in0.0 mm 0.00 in0.0 mm
06:32 AM 36.5°F2.5°C 27.3°F-2.6°C 69% 6.0 mph ENE9.7 kmh ENE 9.0 mph14.5 kmh 30.48 in1032.2 mb 0.00 in0.0 mm 0.00 in0.0 mm 0.00 in0.0 mm
06:33 AM 36.5°F2.5°C 27.3°F-2.6°C 69% 8.0 mph ENE12.9 kmh ENE 11.0 mph17.7 kmh 30.48 in1032.2 mb 0.00 in0.0 mm 0.00 in0.0 mm 0.00 in0.0 mm
06:34 AM 36.5°F2.5°C 27.3°F-2.6°C 69% 8.0 mph NE12.9 kmh NE 10.0 mph16.1 kmh 30.48 in1032.2 mb 0.00 in0.0 mm 0.00 in0.0 mm 0.00 in0.0 mm
06:35 AM 36.5°F2.5°C 27.3°F-2.6°C 69% 7.0 mph NE11.3 kmh NE 10.0 mph16.1 kmh 30.48 in1032.2 mb 0.00 in0.0 mm 0.00 in0.0 mm 0.00 in0.0 mm
06:36 AM 36.5°F2.5°C 27.0°F-2.8°C 68% 6.0 mph NE9.7 kmh NE 9.0 mph14.5 kmh 30.48 in1032.2 mb 0.00 in0.0 mm 0.00 in0.0 mm 0.00 in0.0 mm
06:37 AM 36.6°F2.6°C 27.1°F-2.7°C 68% 7.0 mph ENE11.3 kmh ENE 12.0 mph19.3 kmh 30.48 in1032.2 mb 0.00 in0.0 mm 0.00 in0.0 mm 0.00 in0.0 mm
06:38 AM 36.6°F2.6°C 27.1°F-2.7°C 68% 8.0 mph NE12.9 kmh NE 12.0 mph19.3 kmh 30.48 in1032.2 mb 0.00 in0.0 mm 0.00 in0.0 mm 0.00 in0.0 mm
06:39 AM 36.6°F2.6°C 27.1°F-2.7°C 68% 6.0 mph NE9.7 kmh NE 8.0 mph12.9 kmh 30.48 in1032.2 mb 0.00 in0.0 mm 0.00 in0.0 mm 0.00 in0.0 mm
06:40 AM 36.6°F2.6°C 27.1°F-2.7°C 68% 7.0 mph ENE11.3 kmh ENE 10.0 mph16.1 kmh 30.48 in1032.2 mb 0.00 in0.0 mm 0.00 in0.0 mm 0.00 in0.0 mm
06:41 AM 36.7°F2.6°C 27.1°F-2.7°C 68% 7.0 mph NE11.3 kmh NE 10.0 mph16.1 kmh 30.48 in1032.2 mb 0.00 in0.0 mm 0.00 in0.0 mm 0.00 in0.0 mm
06:42 AM 36.7°F2.6°C 27.1°F-2.7°C 68% 9.0 mph ENE14.5 kmh ENE 12.0 mph19.3 kmh 30.48 in1032.2 mb 0.00 in0.0 mm 0.00 in0.0 mm 0.00 in0.0 mm
06:43 AM 36.8°F2.7°C 26.9°F-2.8°C 67% 9.0 mph NE14.5 kmh NE 12.0 mph19.3 kmh 30.48 in1032.2 mb 0.00 in0.0 mm 0.00 in0.0 mm 0.00 in0.0 mm
06:44 AM 36.8°F2.7°C 26.9°F-2.8°C 67% 8.0 mph ENE12.9 kmh ENE 11.0 mph17.7 kmh 30.48 in1032.2 mb 0.00 in0.0 mm 0.00 in0.0 mm 0.00 in0.0 mm
06:45 AM 36.8°F2.7°C 26.9°F-2.8°C 67% 8.0 mph NE12.9 kmh NE 12.0 mph19.3 kmh 30.48 in1032.2 mb 0.00 in0.0 mm 0.00 in0.0 mm 0.00 in0.0 mm
06:46 AM 36.9°F2.7°C 27.0°F-2.8°C 67% 9.0 mph NE14.5 kmh NE 12.0 mph19.3 kmh 30.48 in1032.2 mb 0.00 in0.0 mm 0.00 in0.0 mm 0.00 in0.0 mm
06:47 AM 36.9°F2.7°C 27.0°F-2.8°C 67% 6.0 mph NE9.7 kmh NE 9.0 mph14.5 kmh 30.48 in1032.2 mb 0.00 in0.0 mm 0.00 in0.0 mm 0.00 in0.0 mm
06:48 AM 36.9°F2.7°C 27.0°F-2.8°C 67% 7.0 mph ENE11.3 kmh ENE 12.0 mph19.3 kmh 30.48 in1032.2 mb 0.00 in0.0 mm 0.00 in0.0 mm 0.00 in0.0 mm
06:49 AM 36.8°F2.7°C 26.5°F-3.1°C 66% 8.0 mph NE12.9 kmh NE 12.0 mph19.3 kmh 30.48 in1032.2 mb 0.00 in0.0 mm 0.00 in0.0 mm 0.00 in0.0 mm
06:50 AM 36.8°F2.7°C 26.5°F-3.1°C 66% 6.0 mph ENE9.7 kmh ENE 8.0 mph12.9 kmh 30.48 in1032.2 mb 0.00 in0.0 mm 0.00 in0.0 mm 0.00 in0.0 mm
06:51 AM 36.7°F2.6°C 26.4°F-3.1°C 66% 7.0 mph NE11.3 kmh NE 10.0 mph16.1 kmh 30.48 in1032.2 mb 0.00 in0.0 mm 0.00 in0.0 mm 0.00 in0.0 mm
06:52 AM 36.6°F2.6°C 26.3°F-3.2°C 66% 8.0 mph NE12.9 kmh NE 11.0 mph17.7 kmh 30.48 in1032.2 mb 0.00 in0.0 mm 0.00 in0.0 mm 0.00 in0.0 mm
06:53 AM 36.5°F2.5°C 26.2°F-3.2°C 66% 10.0 mph NE16.1 kmh NE 12.0 mph19.3 kmh 30.48 in1032.2 mb 0.00 in0.0 mm 0.00 in0.0 mm 0.00 in0.0 mm
06:54 AM 36.4°F2.4°C 26.1°F-3.3°C 66% 9.0 mph NE14.5 kmh NE 11.0 mph17.7 kmh 30.49 in1032.5 mb 0.00 in0.0 mm 0.00 in0.0 mm 0.00 in0.0 mm
06:55 AM 36.2°F2.3°C 26.0°F-3.3°C 66% 8.0 mph NE12.9 kmh NE 12.0 mph19.3 kmh 30.49 in1032.5 mb 0.00 in0.0 mm 0.00 in0.0 mm 0.00 in0.0 mm
06:56 AM 36.2°F2.3°C 26.0°F-3.3°C 66% 9.0 mph NE14.5 kmh NE 12.0 mph19.3 kmh 30.48 in1032.2 mb 0.00 in0.0 mm 0.00 in0.0 mm 0.00 in0.0 mm
06:57 AM 36.0°F2.2°C 25.8°F-3.4°C 66% 9.0 mph ENE14.5 kmh ENE 11.0 mph17.7 kmh 30.49 in1032.5 mb 0.00 in0.0 mm 0.00 in0.0 mm 0.00 in0.0 mm
06:58 AM 35.9°F2.2°C 25.7°F-3.5°C 66% 9.0 mph NE14.5 kmh NE 11.0 mph17.7 kmh 30.49 in1032.5 mb 0.00 in0.0 mm 0.00 in0.0 mm 0.00 in0.0 mm
06:59 AM 35.8°F2.1°C 25.6°F-3.6°C 66% 7.0 mph ENE11.3 kmh ENE 11.0 mph17.7 kmh 30.49 in1032.5 mb 0.00 in0.0 mm 0.00 in0.0 mm 0.00 in0.0 mm
07:00 AM 35.7°F2.1°C 25.5°F-3.6°C 66% 8.0 mph NE12.9 kmh NE 10.0 mph16.1 kmh 30.49 in1032.5 mb 0.00 in0.0 mm 0.00 in0.0 mm 0.00 in0.0 mm
07:01 AM 35.6°F2.0°C 25.4°F-3.7°C 66% 6.0 mph ENE9.7 kmh ENE 8.0 mph12.9 kmh 30.49 in1032.5 mb 0.00 in0.0 mm 0.00 in0.0 mm 0.00 in0.0 mm
07:02 AM 35.5°F1.9°C 25.3°F-3.7°C 66% 7.0 mph ENE11.3 kmh ENE 9.0 mph14.5 kmh 30.49 in1032.5 mb 0.00 in0.0 mm 0.00 in0.0 mm 0.00 in0.0 mm
07:03 AM 35.5°F1.9°C 25.6°F-3.6°C 67% 7.0 mph ENE11.3 kmh ENE 10.0 mph16.1 kmh 30.49 in1032.5 mb 0.00 in0.0 mm 0.00 in0.0 mm 0.00 in0.0 mm
07:04 AM 35.4°F1.9°C 25.6°F-3.6°C 67% 6.0 mph NE9.7 kmh NE 9.0 mph14.5 kmh 30.49 in1032.5 mb 0.00 in0.0 mm 0.00 in0.0 mm 0.00 in0.0 mm
07:05 AM 35.4°F1.9°C 25.6°F-3.6°C 67% 6.0 mph ENE9.7 kmh ENE 7.0 mph11.3 kmh 30.49 in1032.5 mb 0.00 in0.0 mm 0.00 in0.0 mm 0.00 in0.0 mm
07:06 AM 35.3°F1.8°C 25.5°F-3.6°C 67% 5.0 mph NE8.0 kmh NE 7.0 mph11.3 kmh 30.49 in1032.5 mb 0.00 in0.0 mm 0.00 in0.0 mm 0.00 in0.0 mm
07:07 AM 35.2°F1.8°C 25.4°F-3.7°C 67% 5.0 mph ENE8.0 kmh ENE 8.0 mph12.9 kmh 30.49 in1032.5 mb 0.00 in0.0 mm 0.00 in0.0 mm 0.00 in0.0 mm
07:08 AM 35.2°F1.8°C 25.4°F-3.7°C 67% 6.0 mph ENE9.7 kmh ENE 9.0 mph14.5 kmh 30.49 in1032.5 mb 0.00 in0.0 mm 0.00 in0.0 mm 0.00 in0.0 mm
07:09 AM 35.2°F1.8°C 25.4°F-3.7°C 67% 4.0 mph ENE6.4 kmh ENE 7.0 mph11.3 kmh 30.49 in1032.5 mb 0.00 in0.0 mm 0.00 in0.0 mm 0.00 in0.0 mm
07:10 AM 35.2°F1.8°C 25.4°F-3.7°C 67% 7.0 mph ENE11.3 kmh ENE 10.0 mph16.1 kmh 30.49 in1032.5 mb 0.00 in0.0 mm 0.00 in0.0 mm 0.00 in0.0 mm
07:11 AM 35.1°F1.7°C 25.3°F-3.7°C 67% 6.0 mph NE9.7 kmh NE 9.0 mph14.5 kmh 30.49 in1032.5 mb 0.00 in0.0 mm 0.00 in0.0 mm 0.00 in0.0 mm
07:12 AM 35.1°F1.7°C 25.6°F-3.6°C 68% 6.0 mph ENE9.7 kmh ENE 9.0 mph14.5 kmh 30.49 in1032.5 mb 0.00 in0.0 mm 0.00 in0.0 mm 0.00 in0.0 mm
07:13 AM 35.1°F1.7°C 25.6°F-3.6°C 68% 5.0 mph ENE8.0 kmh ENE 6.0 mph9.7 kmh 30.49 in1032.5 mb 0.00 in0.0 mm 0.00 in0.0 mm 0.00 in0.0 mm
07:14 AM 35.1°F1.7°C 25.6°F-3.6°C 68% 6.0 mph ENE9.7 kmh ENE 12.0 mph19.3 kmh 30.49 in1032.5 mb 0.00 in0.0 mm 0.00 in0.0 mm 0.00 in0.0 mm
07:15 AM 35.2°F1.8°C 25.7°F-3.5°C 68% 6.0 mph ENE9.7 kmh ENE 10.0 mph16.1 kmh 30.49 in1032.5 mb 0.00 in0.0 mm 0.00 in0.0 mm 0.00 in0.0 mm
07:16 AM 35.3°F1.8°C 25.8°F-3.4°C 68% 5.0 mph NE8.0 kmh NE 7.0 mph11.3 kmh 30.49 in1032.5 mb 0.00 in0.0 mm 0.00 in0.0 mm 0.00 in0.0 mm
07:17 AM 35.3°F1.8°C 25.8°F-3.4°C 68% 7.0 mph NE11.3 kmh NE 10.0 mph16.1 kmh 30.49 in1032.5 mb 0.00 in0.0 mm 0.00 in0.0 mm 0.00 in0.0 mm
07:18 AM 35.5°F1.9°C 26.0°F-3.3°C 68% 8.0 mph NE12.9 kmh NE 10.0 mph16.1 kmh 30.49 in1032.5 mb 0.00 in0.0 mm 0.00 in0.0 mm 0.00 in0.0 mm
07:19 AM 35.6°F2.0°C 26.1°F-3.3°C 68% 6.0 mph NE9.7 kmh NE 9.0 mph14.5 kmh 30.49 in1032.5 mb 0.00 in0.0 mm 0.00 in0.0 mm 0.00 in0.0 mm
07:20 AM 35.7°F2.1°C 26.2°F-3.2°C 68% 6.0 mph NE9.7 kmh NE 9.0 mph14.5 kmh 30.49 in1032.5 mb 0.00 in0.0 mm 0.00 in0.0 mm 0.00 in0.0 mm
07:21 AM 35.9°F2.2°C 26.4°F-3.1°C 68% 8.0 mph NE12.9 kmh NE 12.0 mph19.3 kmh 30.49 in1032.5 mb 0.00 in0.0 mm 0.00 in0.0 mm 0.00 in0.0 mm
07:22 AM 36.0°F2.2°C 26.1°F-3.3°C 67% 7.0 mph NE11.3 kmh NE 10.0 mph16.1 kmh 30.49 in1032.5 mb 0.00 in0.0 mm 0.00 in0.0 mm 0.00 in0.0 mm
07:23 AM 36.1°F2.3°C 26.2°F-3.2°C 67% 7.0 mph ENE11.3 kmh ENE 11.0 mph17.7 kmh 30.50 in1032.8 mb 0.00 in0.0 mm 0.00 in0.0 mm 0.00 in0.0 mm
07:24 AM 36.2°F2.3°C 26.3°F-3.2°C 67% 4.0 mph ENE6.4 kmh ENE 6.0 mph9.7 kmh 30.50 in1032.8 mb 0.00 in0.0 mm 0.00 in0.0 mm 0.00 in0.0 mm
07:25 AM 36.2°F2.3°C 26.3°F-3.2°C 67% 5.0 mph ENE8.0 kmh ENE 9.0 mph14.5 kmh 30.50 in1032.8 mb 0.00 in0.0 mm 0.00 in0.0 mm 0.00 in0.0 mm
07:26 AM 36.3°F2.4°C 26.4°F-3.1°C 67% 7.0 mph ENE11.3 kmh ENE 10.0 mph16.1 kmh 30.50 in1032.8 mb 0.00 in0.0 mm 0.00 in0.0 mm 0.00 in0.0 mm
07:27 AM 36.3°F2.4°C 26.4°F-3.1°C 67% 7.0 mph ENE11.3 kmh ENE 10.0 mph16.1 kmh 30.50 in1032.8 mb 0.00 in0.0 mm 0.00 in0.0 mm 0.00 in0.0 mm
07:28 AM 36.2°F2.3°C 26.3°F-3.2°C 67% 5.0 mph NE8.0 kmh NE 8.0 mph12.9 kmh 30.50 in1032.8 mb 0.00 in0.0 mm 0.00 in0.0 mm 0.00 in0.0 mm
07:29 AM 36.3°F2.4°C 26.4°F-3.1°C 67% 5.0 mph ENE8.0 kmh ENE 7.0 mph11.3 kmh 30.50 in1032.8 mb 0.00 in0.0 mm 0.00 in0.0 mm 0.00 in0.0 mm
07:30 AM 36.2°F2.3°C 26.0°F-3.3°C 66% 9.0 mph ENE14.5 kmh ENE 12.0 mph19.3 kmh 30.50 in1032.8 mb 0.00 in0.0 mm 0.00 in0.0 mm 0.00 in0.0 mm
07:31 AM 36.3°F2.4°C 26.0°F-3.3°C 66% 8.0 mph ENE12.9 kmh ENE 11.0 mph17.7 kmh 30.50 in1032.8 mb 0.00 in0.0 mm 0.00 in0.0 mm 0.00 in0.0 mm
07:32 AM 36.3°F2.4°C 26.0°F-3.3°C 66% 6.0 mph NE9.7 kmh NE 10.0 mph16.1 kmh 30.50 in1032.8 mb 0.00 in0.0 mm 0.00 in0.0 mm 0.00 in0.0 mm
07:33 AM 36.3°F2.4°C 26.0°F-3.3°C 66% 6.0 mph ENE9.7 kmh ENE 9.0 mph14.5 kmh 30.50 in1032.8 mb 0.00 in0.0 mm 0.00 in0.0 mm 0.00 in0.0 mm
07:34 AM 36.3°F2.4°C 26.0°F-3.3°C 66% 8.0 mph NE12.9 kmh NE 10.0 mph16.1 kmh 30.50 in1032.8 mb 0.00 in0.0 mm 0.00 in0.0 mm 0.00 in0.0 mm
07:35 AM 36.3°F2.4°C 26.0°F-3.3°C 66% 7.0 mph NE11.3 kmh NE 9.0 mph14.5 kmh 30.50 in1032.8 mb 0.00 in0.0 mm 0.00 in0.0 mm 0.00 in0.0 mm
07:36 AM 36.3°F2.4°C 26.0°F-3.3°C 66% 5.0 mph NE8.0 kmh NE 7.0 mph11.3 kmh 30.50 in1032.8 mb 0.00 in0.0 mm 0.00 in0.0 mm 0.00 in0.0 mm
07:37 AM 36.4°F2.4°C 26.1°F-3.3°C 66% 6.0 mph NE9.7 kmh NE 7.0 mph11.3 kmh 30.50 in1032.8 mb 0.00 in0.0 mm 0.00 in0.0 mm 0.00 in0.0 mm
07:38 AM 36.4°F2.4°C 26.1°F-3.3°C 66% 7.0 mph NE11.3 kmh NE 11.0 mph17.7 kmh 30.50 in1032.8 mb 0.00 in0.0 mm 0.00 in0.0 mm 0.00 in0.0 mm
07:39 AM 36.4°F2.4°C 26.1°F-3.3°C 66% 9.0 mph NE14.5 kmh NE 13.0 mph20.9 kmh 30.50 in1032.8 mb 0.00 in0.0 mm 0.00 in0.0 mm 0.00 in0.0 mm
07:40 AM 36.4°F2.4°C 26.1°F-3.3°C 66% 8.0 mph ENE12.9 kmh ENE 11.0 mph17.7 kmh 30.50 in1032.8 mb 0.00 in0.0 mm 0.00 in0.0 mm 0.00 in0.0 mm
07:41 AM 36.5°F2.5°C 26.2°F-3.2°C 66% 7.0 mph ENE11.3 kmh ENE 11.0 mph17.7 kmh 30.50 in1032.8 mb 0.00 in0.0 mm 0.00 in0.0 mm 0.00 in0.0 mm
07:42 AM 36.4°F2.4°C 26.1°F-3.3°C 66% 9.0 mph ENE14.5 kmh ENE 12.0 mph19.3 kmh 30.50 in1032.8 mb 0.00 in0.0 mm 0.00 in0.0 mm 0.00 in0.0 mm
07:43 AM 36.5°F2.5°C 26.2°F-3.2°C 66% 7.0 mph NE11.3 kmh NE 9.0 mph14.5 kmh 30.50 in1032.8 mb 0.00 in0.0 mm 0.00 in0.0 mm 0.00 in0.0 mm
07:44 AM 36.5°F2.5°C 26.2°F-3.2°C 66% 7.0 mph ENE11.3 kmh ENE 9.0 mph14.5 kmh 30.50 in1032.8 mb 0.00 in0.0 mm 0.00 in0.0 mm 0.00 in0.0 mm
07:45 AM 36.5°F2.5°C 26.2°F-3.2°C 66% 9.0 mph NE14.5 kmh NE 14.0 mph22.5 kmh 30.50 in1032.8 mb 0.00 in0.0 mm 0.00 in0.0 mm 0.00 in0.0 mm
07:46 AM 36.5°F2.5°C 26.2°F-3.2°C 66% 12.0 mph ENE19.3 kmh ENE 14.0 mph22.5 kmh 30.50 in1032.8 mb 0.00 in0.0 mm 0.00 in0.0 mm 0.00 in0.0 mm
07:47 AM 36.7°F2.6°C 26.1°F-3.3°C 65% 10.0 mph ENE16.1 kmh ENE 12.0 mph19.3 kmh 30.50 in1032.8 mb 0.00 in0.0 mm 0.00 in0.0 mm 0.00 in0.0 mm
07:48 AM 36.7°F2.6°C 26.1°F-3.3°C 65% 10.0 mph NE16.1 kmh NE 12.0 mph19.3 kmh 30.50 in1032.8 mb 0.00 in0.0 mm 0.00 in0.0 mm 0.00 in0.0 mm
07:49 AM 36.7°F2.6°C 26.1°F-3.3°C 65% 9.0 mph NE14.5 kmh NE 11.0 mph17.7 kmh 30.50 in1032.8 mb 0.00 in0.0 mm 0.00 in0.0 mm 0.00 in0.0 mm
07:50 AM 36.8°F2.7°C 26.2°F-3.2°C 65% 7.0 mph ENE11.3 kmh ENE 9.0 mph14.5 kmh 30.50 in1032.8 mb 0.00 in0.0 mm 0.00 in0.0 mm 0.00 in0.0 mm
07:51 AM 36.8°F2.7°C 26.2°F-3.2°C 65% 7.0 mph ENE11.3 kmh ENE 10.0 mph16.1 kmh 30.50 in1032.8 mb 0.00 in0.0 mm 0.00 in0.0 mm 0.00 in0.0 mm
07:52 AM 36.9°F2.7°C 26.6°F-3.0°C 66% 5.0 mph ENE8.0 kmh ENE 7.0 mph11.3 kmh 30.50 in1032.8 mb 0.00 in0.0 mm 0.00 in0.0 mm 0.00 in0.0 mm
07:53 AM 36.9°F2.7°C 26.6°F-3.0°C 66% 8.0 mph NE12.9 kmh NE 13.0 mph20.9 kmh 30.50 in1032.8 mb 0.00 in0.0 mm 0.00 in0.0 mm 0.00 in0.0 mm
07:54 AM 37.0°F2.8°C 26.7°F-2.9°C 66% 10.0 mph NE16.1 kmh NE 13.0 mph20.9 kmh 30.50 in1032.8 mb 0.00 in0.0 mm 0.00 in0.0 mm 0.00 in0.0 mm
07:55 AM 37.0°F2.8°C 26.3°F-3.2°C 65% 10.0 mph ENE16.1 kmh ENE 15.0 mph24.1 kmh 30.50 in1032.8 mb 0.00 in0.0 mm 0.00 in0.0 mm 0.00 in0.0 mm
07:56 AM 37.0°F2.8°C 26.3°F-3.2°C 65% 11.0 mph ENE17.7 kmh ENE 17.0 mph27.4 kmh 30.50 in1032.8 mb 0.00 in0.0 mm 0.00 in0.0 mm 0.00 in0.0 mm
07:57 AM 37.1°F2.8°C 26.4°F-3.1°C 65% 14.0 mph NE22.5 kmh NE 18.0 mph29.0 kmh 30.50 in1032.8 mb 0.00 in0.0 mm 0.00 in0.0 mm 0.00 in0.0 mm
07:58 AM 37.1°F2.8°C 26.4°F-3.1°C 65% 8.0 mph NE12.9 kmh NE 18.0 mph29.0 kmh 30.50 in1032.8 mb 0.00 in0.0 mm 0.00 in0.0 mm 0.00 in0.0 mm
07:59 AM 37.2°F2.9°C 26.5°F-3.1°C 65% 12.0 mph NE19.3 kmh NE 14.0 mph22.5 kmh 30.50 in1032.8 mb 0.00 in0.0 mm 0.00 in0.0 mm 0.00 in0.0 mm
08:00 AM 37.3°F2.9°C 26.6°F-3.0°C 65% 8.0 mph ENE12.9 kmh ENE 12.0 mph19.3 kmh 30.50 in1032.8 mb 0.00 in0.0 mm 0.00 in0.0 mm 0.00 in0.0 mm
08:01 AM 37.3°F2.9°C 26.6°F-3.0°C 65% 4.0 mph NNE6.4 kmh NNE 7.0 mph11.3 kmh 30.50 in1032.8 mb 0.00 in0.0 mm 0.00 in0.0 mm 0.00 in0.0 mm
08:02 AM 37.3°F2.9°C 26.6°F-3.0°C 65% 3.0 mph NE4.8 kmh NE 6.0 mph9.7 kmh 30.50 in1032.8 mb 0.00 in0.0 mm 0.00 in0.0 mm 0.00 in0.0 mm
08:03 AM 37.4°F3.0°C 26.7°F-2.9°C 65% 9.0 mph ENE14.5 kmh ENE 12.0 mph19.3 kmh 30.50 in1032.8 mb 0.00 in0.0 mm 0.00 in0.0 mm 0.00 in0.0 mm
08:04 AM 37.5°F3.1°C 26.8°F-2.9°C 65% 11.0 mph ENE17.7 kmh ENE 13.0 mph20.9 kmh 30.50 in1032.8 mb 0.00 in0.0 mm 0.00 in0.0 mm 0.00 in0.0 mm
08:05 AM 37.5°F3.1°C 26.8°F-2.9°C 65% 10.0 mph ENE16.1 kmh ENE 12.0 mph19.3 kmh 30.50 in1032.8 mb 0.00 in0.0 mm 0.00 in0.0 mm 0.00 in0.0 mm
08:06 AM 37.5°F3.1°C 26.8°F-2.9°C 65% 10.0 mph NE16.1 kmh NE 12.0 mph19.3 kmh 30.50 in1032.8 mb 0.00 in0.0 mm 0.00 in0.0 mm 0.00 in0.0 mm
08:07 AM 37.6°F3.1°C 26.5°F-3.1°C 64% 7.0 mph NE11.3 kmh NE 10.0 mph16.1 kmh 30.50 in1032.8 mb 0.00 in0.0 mm 0.00 in0.0 mm 0.00 in0.0 mm
08:08 AM 37.6°F3.1°C 26.5°F-3.1°C 64% 8.0 mph ENE12.9 kmh ENE 11.0 mph17.7 kmh 30.50 in1032.8 mb 0.00 in0.0 mm 0.00 in0.0 mm 0.00 in0.0 mm
08:09 AM 37.6°F3.1°C 26.5°F-3.1°C 64% 11.0 mph ENE17.7 kmh ENE 14.0 mph22.5 kmh 30.50 in1032.8 mb 0.00 in0.0 mm 0.00 in0.0 mm 0.00 in0.0 mm
08:10 AM 37.6°F3.1°C 26.5°F-3.1°C 64% 9.0 mph ENE14.5 kmh ENE 11.0 mph17.7 kmh 30.50 in1032.8 mb 0.00 in0.0 mm 0.00 in0.0 mm 0.00 in0.0 mm
08:11 AM 37.6°F3.1°C 26.5°F-3.1°C 64% 7.0 mph ENE11.3 kmh ENE 10.0 mph16.1 kmh 30.50 in1032.8 mb 0.00 in0.0 mm 0.00 in0.0 mm 0.00 in0.0 mm
08:12 AM 37.6°F3.1°C 26.5°F-3.1°C 64% 8.0 mph ENE12.9 kmh ENE 10.0 mph16.1 kmh 30.50 in1032.8 mb 0.00 in0.0 mm 0.00 in0.0 mm 0.00 in0.0 mm
08:13 AM 37.6°F3.1°C 26.5°F-3.1°C 64% 7.0 mph ENE11.3 kmh ENE 10.0 mph16.1 kmh 30.50 in1032.8 mb 0.00 in0.0 mm 0.00 in0.0 mm 0.00 in0.0 mm
08:14 AM 37.7°F3.2°C 26.6°F-3.0°C 64% 6.0 mph NE9.7 kmh NE 9.0 mph14.5 kmh 30.50 in1032.8 mb 0.00 in0.0 mm 0.00 in0.0 mm 0.00 in0.0 mm
08:15 AM 37.7°F3.2°C 27.0°F-2.8°C 65% 7.0 mph NE11.3 kmh NE 10.0 mph16.1 kmh 30.50 in1032.8 mb 0.00 in0.0 mm 0.00 in0.0 mm 0.00 in0.0 mm
08:16 AM 37.7°F3.2°C 26.6°F-3.0°C 64% 7.0 mph ENE11.3 kmh ENE 10.0 mph16.1 kmh 30.50 in1032.8 mb 0.00 in0.0 mm 0.00 in0.0 mm 0.00 in0.0 mm
08:17 AM 37.7°F3.2°C 26.6°F-3.0°C 64% 9.0 mph NE14.5 kmh NE 12.0 mph19.3 kmh 30.50 in1032.8 mb 0.00 in0.0 mm 0.00 in0.0 mm 0.00 in0.0 mm
08:18 AM 37.8°F3.2°C 26.7°F-2.9°C 64% 6.0 mph ENE9.7 kmh ENE 8.0 mph12.9 kmh 30.50 in1032.8 mb 0.00 in0.0 mm 0.00 in0.0 mm 0.00 in0.0 mm
08:19 AM 37.8°F3.2°C 26.7°F-2.9°C 64% 7.0 mph NE11.3 kmh NE 9.0 mph14.5 kmh 30.50 in1032.8 mb 0.00 in0.0 mm 0.00 in0.0 mm 0.00 in0.0 mm
08:20 AM 37.8°F3.2°C 26.7°F-2.9°C 64% 6.0 mph ENE9.7 kmh ENE 9.0 mph14.5 kmh 30.50 in1032.8 mb 0.00 in0.0 mm 0.00 in0.0 mm 0.00 in0.0 mm
08:21 AM 37.8°F3.2°C 27.1°F-2.7°C 65% 8.0 mph ENE12.9 kmh ENE 10.0 mph16.1 kmh 30.50 in1032.8 mb 0.00 in0.0 mm 0.00 in0.0 mm 0.00 in0.0 mm
08:22 AM 37.8°F3.2°C 26.7°F-2.9°C 64% 7.0 mph ENE11.3 kmh ENE 11.0 mph17.7 kmh 30.50 in1032.8 mb 0.00 in0.0 mm 0.00 in0.0 mm 0.00 in0.0 mm
08:23 AM 37.8°F3.2°C 26.7°F-2.9°C 64% 5.0 mph ENE8.0 kmh ENE 11.0 mph17.7 kmh 30.50 in1032.8 mb 0.00 in0.0 mm 0.00 in0.0 mm 0.00 in0.0 mm
08:24 AM 37.8°F3.2°C 27.1°F-2.7°C 65% 8.0 mph ENE12.9 kmh ENE 11.0 mph17.7 kmh 30.50 in1032.8 mb 0.00 in0.0 mm 0.00 in0.0 mm 0.00 in0.0 mm
08:25 AM 37.9°F3.3°C 27.2°F-2.7°C 65% 10.0 mph ENE16.1 kmh ENE 15.0 mph24.1 kmh 30.50 in1032.8 mb 0.00 in0.0 mm 0.00 in0.0 mm 0.00 in0.0 mm
08:26 AM 37.9°F3.3°C 26.8°F-2.9°C 64% 10.0 mph ENE16.1 kmh ENE 14.0 mph22.5 kmh 30.50 in1032.8 mb 0.00 in0.0 mm 0.00 in0.0 mm 0.00 in0.0 mm
08:27 AM 37.9°F3.3°C 26.8°F-2.9°C 64% 9.0 mph NE14.5 kmh NE 13.0 mph20.9 kmh 30.50 in1032.8 mb 0.00 in0.0 mm 0.00 in0.0 mm 0.00 in0.0 mm
08:28 AM 37.9°F3.3°C 26.8°F-2.9°C 64% 8.0 mph NE12.9 kmh NE 12.0 mph19.3 kmh 30.50 in1032.8 mb 0.00 in0.0 mm 0.00 in0.0 mm 0.00 in0.0 mm
08:29 AM 37.9°F3.3°C 27.2°F-2.7°C 65% 7.0 mph ENE11.3 kmh ENE 10.0 mph16.1 kmh 30.50 in1032.8 mb 0.00 in0.0 mm 0.00 in0.0 mm 0.00 in0.0 mm
08:30 AM 37.9°F3.3°C 27.2°F-2.7°C 65% 7.0 mph NE11.3 kmh NE 9.0 mph14.5 kmh 30.50 in1032.8 mb 0.00 in0.0 mm 0.00 in0.0 mm 0.00 in0.0 mm
08:31 AM 37.9°F3.3°C 27.2°F-2.7°C 65% 8.0 mph NE12.9 kmh NE 10.0 mph16.1 kmh 30.50 in1032.8 mb 0.00 in0.0 mm 0.00 in0.0 mm 0.00 in0.0 mm
08:32 AM 38.0°F3.3°C 27.3°F-2.6°C 65% 7.0 mph ENE11.3 kmh ENE 11.0 mph17.7 kmh 30.50 in1032.8 mb 0.00 in0.0 mm 0.00 in0.0 mm 0.00 in0.0 mm
08:33 AM 38.0°F3.3°C 27.3°F-2.6°C 65% 9.0 mph ENE14.5 kmh ENE 13.0 mph20.9 kmh 30.50 in1032.8 mb 0.00 in0.0 mm 0.00 in0.0 mm 0.00 in0.0 mm
08:34 AM 38.1°F3.4°C 27.4°F-2.6°C 65% 12.0 mph NE19.3 kmh NE 13.0 mph20.9 kmh 30.50 in1032.8 mb 0.00 in0.0 mm 0.00 in0.0 mm 0.00 in0.0 mm
08:35 AM 38.1°F3.4°C 27.4°F-2.6°C 65% 13.0 mph NE20.9 kmh NE 15.0 mph24.1 kmh 30.50 in1032.8 mb 0.00 in0.0 mm 0.00 in0.0 mm 0.00 in0.0 mm
08:36 AM 38.1°F3.4°C 27.0°F-2.8°C 64% 10.0 mph ENE16.1 kmh ENE 14.0 mph22.5 kmh 30.50 in1032.8 mb 0.00 in0.0 mm 0.00 in0.0 mm 0.00 in0.0 mm
08:37 AM 38.2°F3.4°C 27.5°F-2.5°C 65% 11.0 mph NE17.7 kmh NE 16.0 mph25.7 kmh 30.50 in1032.8 mb 0.00 in0.0 mm 0.00 in0.0 mm 0.00 in0.0 mm
08:38 AM 38.2°F3.4°C 27.5°F-2.5°C 65% 10.0 mph E16.1 kmh E 13.0 mph20.9 kmh 30.50 in1032.8 mb 0.00 in0.0 mm 0.00 in0.0 mm 0.00 in0.0 mm
08:39 AM 38.2°F3.4°C 27.5°F-2.5°C 65% 8.0 mph ENE12.9 kmh ENE 11.0 mph17.7 kmh 30.50 in1032.8 mb 0.00 in0.0 mm 0.00 in0.0 mm 0.00 in0.0 mm
08:40 AM 38.3°F3.5°C 27.6°F-2.4°C 65% 8.0 mph ENE12.9 kmh ENE 11.0 mph17.7 kmh 30.50 in1032.8 mb 0.00 in0.0 mm 0.00 in0.0 mm 0.00 in0.0 mm
08:41 AM 38.3°F3.5°C 27.6°F-2.4°C 65% 7.0 mph ENE11.3 kmh ENE 9.0 mph14.5 kmh 30.50 in1032.8 mb 0.00 in0.0 mm 0.00 in0.0 mm 0.00 in0.0 mm
08:42 AM 38.4°F3.6°C 27.7°F-2.4°C 65% 9.0 mph E14.5 kmh E 12.0 mph19.3 kmh 30.50 in1032.8 mb 0.00 in0.0 mm 0.00 in0.0 mm 0.00 in0.0 mm
08:43 AM 38.4°F3.6°C 27.7°F-2.4°C 65% 10.0 mph E16.1 kmh E 12.0 mph19.3 kmh 30.50 in1032.8 mb 0.00 in0.0 mm 0.00 in0.0 mm 0.00 in0.0 mm
08:44 AM 38.4°F3.6°C 27.7°F-2.4°C 65% 10.0 mph E16.1 kmh E 12.0 mph19.3 kmh 30.50 in1032.8 mb 0.00 in0.0 mm 0.00 in0.0 mm 0.00 in0.0 mm
08:45 AM 38.4°F3.6°C 27.7°F-2.4°C 65% 9.0 mph E14.5 kmh E 11.0 mph17.7 kmh 30.50 in1032.8 mb 0.00 in0.0 mm 0.00 in0.0 mm 0.00 in0.0 mm
08:46 AM 38.4°F3.6°C 27.7°F-2.4°C 65% 11.0 mph E17.7 kmh E 13.0 mph20.9 kmh 30.50 in1032.8 mb 0.00 in0.0 mm 0.00 in0.0 mm 0.00 in0.0 mm
08:47 AM 38.4°F3.6°C 27.3°F-2.6°C 64% 8.0 mph E12.9 kmh E 12.0 mph19.3 kmh 30.50 in1032.8 mb 0.00 in0.0 mm 0.00 in0.0 mm 0.00 in0.0 mm
08:48 AM 38.4°F3.6°C 27.3°F-2.6°C 64% 9.0 mph ENE14.5 kmh ENE 12.0 mph19.3 kmh 30.50 in1032.8 mb 0.00 in0.0 mm 0.00 in0.0 mm 0.00 in0.0 mm
08:49 AM 38.5°F3.6°C 27.8°F-2.3°C 65% 11.0 mph ENE17.7 kmh ENE 13.0 mph20.9 kmh 30.50 in1032.8 mb 0.00 in0.0 mm 0.00 in0.0 mm 0.00 in0.0 mm
08:50 AM 38.5°F3.6°C 27.8°F-2.3°C 65% 9.0 mph E14.5 kmh E 12.0 mph19.3 kmh 30.50 in1032.8 mb 0.00 in0.0 mm 0.00 in0.0 mm 0.00 in0.0 mm
08:51 AM 38.6°F3.7°C 27.9°F-2.3°C 65% 9.0 mph E14.5 kmh E 12.0 mph19.3 kmh 30.50 in1032.8 mb 0.00 in0.0 mm 0.00 in0.0 mm 0.00 in0.0 mm
08:52 AM 38.7°F3.7°C 28.0°F-2.2°C 65% 11.0 mph ESE17.7 kmh ESE 15.0 mph24.1 kmh 30.50 in1032.8 mb 0.00 in0.0 mm 0.00 in0.0 mm 0.00 in0.0 mm
08:53 AM 38.7°F3.7°C 27.6°F-2.4°C 64% 15.0 mph ENE24.1 kmh ENE 20.0 mph32.2 kmh 30.50 in1032.8 mb 0.00 in0.0 mm 0.00 in0.0 mm 0.00 in0.0 mm
08:54 AM 38.8°F3.8°C 27.7°F-2.4°C 64% 14.0 mph E22.5 kmh E 19.0 mph30.6 kmh 30.50 in1032.8 mb 0.00 in0.0 mm 0.00 in0.0 mm 0.00 in0.0 mm
08:55 AM 38.8°F3.8°C 27.3°F-2.6°C 63% 7.0 mph ENE11.3 kmh ENE 20.0 mph32.2 kmh 30.50 in1032.8 mb 0.00 in0.0 mm 0.00 in0.0 mm 0.00 in0.0 mm
08:56 AM 38.9°F3.8°C 27.8°F-2.3°C 64% 9.0 mph ENE14.5 kmh ENE 12.0 mph19.3 kmh 30.50 in1032.8 mb 0.00 in0.0 mm 0.00 in0.0 mm 0.00 in0.0 mm
08:57 AM 39.0°F3.9°C 27.9°F-2.3°C 64% 11.0 mph ENE17.7 kmh ENE 18.0 mph29.0 kmh 30.50 in1032.8 mb 0.00 in0.0 mm 0.00 in0.0 mm 0.00 in0.0 mm
08:58 AM 39.0°F3.9°C 27.5°F-2.5°C 63% 17.0 mph ENE27.4 kmh ENE 21.0 mph33.8 kmh 30.50 in1032.8 mb 0.00 in0.0 mm 0.00 in0.0 mm 0.00 in0.0 mm
08:59 AM 39.0°F3.9°C 27.1°F-2.7°C 62% 14.0 mph E22.5 kmh E 20.0 mph32.2 kmh 30.50 in1032.8 mb 0.00 in0.0 mm 0.00 in0.0 mm 0.00 in0.0 mm
09:00 AM 39.0°F3.9°C 27.1°F-2.7°C 62% 14.0 mph ENE22.5 kmh ENE 21.0 mph33.8 kmh 30.50 in1032.8 mb 0.00 in0.0 mm 0.00 in0.0 mm 0.00 in0.0 mm
09:01 AM 39.0°F3.9°C 27.1°F-2.7°C 62% 16.0 mph ENE25.7 kmh ENE 20.0 mph32.2 kmh 30.50 in1032.8 mb 0.00 in0.0 mm 0.00 in0.0 mm 0.00 in0.0 mm
09:02 AM 39.0°F3.9°C 27.1°F-2.7°C 62% 13.0 mph E20.9 kmh E 18.0 mph29.0 kmh 30.50 in1032.8 mb 0.00 in0.0 mm 0.00 in0.0 mm 0.00 in0.0 mm
09:03 AM 39.0°F3.9°C 27.1°F-2.7°C 62% 12.0 mph ENE19.3 kmh ENE 18.0 mph29.0 kmh 30.50 in1032.8 mb 0.00 in0.0 mm 0.00 in0.0 mm 0.00 in0.0 mm
09:04 AM 39.1°F3.9°C 27.2°F-2.7°C 62% 14.0 mph ENE22.5 kmh ENE 21.0 mph33.8 kmh 30.50 in1032.8 mb 0.00 in0.0 mm 0.00 in0.0 mm 0.00 in0.0 mm
09:05 AM 39.2°F4.0°C 26.9°F-2.8°C 61% 17.0 mph ENE27.4 kmh ENE 21.0 mph33.8 kmh 30.50 in1032.8 mb 0.00 in0.0 mm 0.00 in0.0 mm 0.00 in0.0 mm
09:06 AM 39.2°F4.0°C 26.9°F-2.8°C 61% 13.0 mph ENE20.9 kmh ENE 19.0 mph30.6 kmh 30.50 in1032.8 mb 0.00 in0.0 mm 0.00 in0.0 mm 0.00 in0.0 mm
09:07 AM 39.3°F4.1°C 27.0°F-2.8°C 61% 15.0 mph ENE24.1 kmh ENE 19.0 mph30.6 kmh 30.50 in1032.8 mb 0.00 in0.0 mm 0.00 in0.0 mm 0.00 in0.0 mm
09:08 AM 39.3°F4.1°C 27.0°F-2.8°C 61% 15.0 mph ENE24.1 kmh ENE 21.0 mph33.8 kmh 30.50 in1032.8 mb 0.00 in0.0 mm 0.00 in0.0 mm 0.00 in0.0 mm
09:09 AM 39.3°F4.1°C 27.0°F-2.8°C 61% 12.0 mph E19.3 kmh E 17.0 mph27.4 kmh 30.50 in1032.8 mb 0.00 in0.0 mm 0.00 in0.0 mm 0.00 in0.0 mm
09:10 AM 39.3°F4.1°C 27.0°F-2.8°C 61% 16.0 mph E25.7 kmh E 22.0 mph35.4 kmh 30.50 in1032.8 mb 0.00 in0.0 mm 0.00 in0.0 mm 0.00 in0.0 mm
09:11 AM 39.4°F4.1°C 26.7°F-2.9°C 60% 14.0 mph E22.5 kmh E 22.0 mph35.4 kmh 30.50 in1032.8 mb 0.00 in0.0 mm 0.00 in0.0 mm 0.00 in0.0 mm
09:12 AM 39.4°F4.1°C 26.7°F-2.9°C 60% 14.0 mph E22.5 kmh E 18.0 mph29.0 kmh 30.50 in1032.8 mb 0.00 in0.0 mm 0.00 in0.0 mm 0.00 in0.0 mm
09:13 AM 39.4°F4.1°C 26.7°F-2.9°C 60% 14.0 mph E22.5 kmh E 16.0 mph25.7 kmh 30.50 in1032.8 mb 0.00 in0.0 mm 0.00 in0.0 mm 0.00 in0.0 mm
09:14 AM 39.5°F4.2°C 26.8°F-2.9°C 60% 15.0 mph E24.1 kmh E 18.0 mph29.0 kmh 30.50 in1032.8 mb 0.00 in0.0 mm 0.00 in0.0 mm 0.00 in0.0 mm
09:15 AM 39.5°F4.2°C 26.8°F-2.9°C 60% 15.0 mph E24.1 kmh E 21.0 mph33.8 kmh 30.50 in1032.8 mb 0.00 in0.0 mm 0.00 in0.0 mm 0.00 in0.0 mm
09:16 AM 39.7°F4.3°C 27.4°F-2.6°C 61% 14.0 mph E22.5 kmh E 19.0 mph30.6 kmh 30.50 in1032.8 mb 0.00 in0.0 mm 0.00 in0.0 mm 0.00 in0.0 mm
09:17 AM 39.7°F4.3°C 27.0°F-2.8°C 60% 18.0 mph E29.0 kmh E 23.0 mph37.0 kmh 30.50 in1032.8 mb 0.00 in0.0 mm 0.00 in0.0 mm 0.00 in0.0 mm
09:18 AM 39.6°F4.2°C 26.9°F-2.8°C 60% 17.0 mph E27.4 kmh E 23.0 mph37.0 kmh 30.50 in1032.8 mb 0.00 in0.0 mm 0.00 in0.0 mm 0.00 in0.0 mm
09:19 AM 39.6°F4.2°C 26.9°F-2.8°C 60% 12.0 mph E19.3 kmh E 18.0 mph29.0 kmh 30.50 in1032.8 mb 0.00 in0.0 mm 0.00 in0.0 mm 0.00 in0.0 mm
09:20 AM 39.6°F4.2°C 26.9°F-2.8°C 60% 13.0 mph E20.9 kmh E 17.0 mph27.4 kmh 30.50 in1032.8 mb 0.00 in0.0 mm 0.00 in0.0 mm 0.00 in0.0 mm
09:21 AM 39.6°F4.2°C 27.3°F-2.6°C 61% 14.0 mph ENE22.5 kmh ENE 17.0 mph27.4 kmh 30.50 in1032.8 mb 0.00 in0.0 mm 0.00 in0.0 mm 0.00 in0.0 mm
09:22 AM 39.6°F4.2°C 26.9°F-2.8°C 60% 13.0 mph E20.9 kmh E 19.0 mph30.6 kmh 30.50 in1032.8 mb 0.00 in0.0 mm 0.00 in0.0 mm 0.00 in0.0 mm
09:23 AM 39.6°F4.2°C 27.3°F-2.6°C 61% 14.0 mph E22.5 kmh E 17.0 mph27.4 kmh 30.50 in1032.8 mb 0.00 in0.0 mm 0.00 in0.0 mm 0.00 in0.0 mm
09:24 AM 39.7°F4.3°C 27.4°F-2.6°C 61% 11.0 mph E17.7 kmh E 15.0 mph24.1 kmh 30.50 in1032.8 mb 0.00 in0.0 mm 0.00 in0.0 mm 0.00 in0.0 mm
09:25 AM 39.8°F4.3°C 27.5°F-2.5°C 61% 11.0 mph E17.7 kmh E 14.0 mph22.5 kmh 30.50 in1032.8 mb 0.00 in0.0 mm 0.00 in0.0 mm 0.00 in0.0 mm
09:26 AM 39.8°F4.3°C 27.5°F-2.5°C 61% 14.0 mph E22.5 kmh E 17.0 mph27.4 kmh 30.50 in1032.8 mb 0.00 in0.0 mm 0.00 in0.0 mm 0.00 in0.0 mm
09:27 AM 39.8°F4.3°C 27.5°F-2.5°C 61% 14.0 mph E22.5 kmh E 22.0 mph35.4 kmh 30.50 in1032.8 mb 0.00 in0.0 mm 0.00 in0.0 mm 0.00 in0.0 mm
09:28 AM 39.8°F4.3°C 27.5°F-2.5°C 61% 10.0 mph E16.1 kmh E 15.0 mph24.1 kmh 30.50 in1032.8 mb 0.00 in0.0 mm 0.00 in0.0 mm 0.00 in0.0 mm
09:29 AM 39.7°F4.3°C 27.4°F-2.6°C 61% 10.0 mph E16.1 kmh E 16.0 mph25.7 kmh 30.50 in1032.8 mb 0.00 in0.0 mm 0.00 in0.0 mm 0.00 in0.0 mm
09:30 AM 39.9°F4.4°C 27.6°F-2.4°C 61% 13.0 mph ENE20.9 kmh ENE 21.0 mph33.8 kmh 30.50 in1032.8 mb 0.00 in0.0 mm 0.00 in0.0 mm 0.00 in0.0 mm
09:31 AM 40.0°F4.4°C 27.7°F-2.4°C 61% 18.0 mph NE29.0 kmh NE 21.0 mph33.8 kmh 30.50 in1032.8 mb 0.00 in0.0 mm 0.00 in0.0 mm 0.00 in0.0 mm
09:32 AM 40.2°F4.6°C 27.4°F-2.6°C 60% 15.0 mph ENE24.1 kmh ENE 19.0 mph30.6 kmh 30.50 in1032.8 mb 0.00 in0.0 mm 0.00 in0.0 mm 0.00 in0.0 mm
09:33 AM 40.2°F4.6°C 27.4°F-2.6°C 60% 14.0 mph NE22.5 kmh NE 17.0 mph27.4 kmh 30.50 in1032.8 mb 0.00 in0.0 mm 0.00 in0.0 mm 0.00 in0.0 mm
09:34 AM 40.3°F4.6°C 27.5°F-2.5°C 60% 16.0 mph ENE25.7 kmh ENE 20.0 mph32.2 kmh 30.50 in1032.8 mb 0.00 in0.0 mm 0.00 in0.0 mm 0.00 in0.0 mm
09:35 AM 40.4°F4.7°C 27.6°F-2.4°C 60% 15.0 mph E24.1 kmh E 20.0 mph32.2 kmh 30.50 in1032.8 mb 0.00 in0.0 mm 0.00 in0.0 mm 0.00 in0.0 mm
09:36 AM 40.5°F4.7°C 27.3°F-2.6°C 59% 13.0 mph E20.9 kmh E 18.0 mph29.0 kmh 30.50 in1032.8 mb 0.00 in0.0 mm 0.00 in0.0 mm 0.00 in0.0 mm
09:37 AM 40.5°F4.7°C 27.7°F-2.4°C 60% 12.0 mph ENE19.3 kmh ENE 18.0 mph29.0 kmh 30.50 in1032.8 mb 0.00 in0.0 mm 0.00 in0.0 mm 0.00 in0.0 mm
09:38 AM 40.6°F4.8°C 27.8°F-2.3°C 60% 15.0 mph E24.1 kmh E 19.0 mph30.6 kmh 30.50 in1032.8 mb 0.00 in0.0 mm 0.00 in0.0 mm 0.00 in0.0 mm
09:39 AM 40.7°F4.8°C 27.9°F-2.3°C 60% 13.0 mph E20.9 kmh E 17.0 mph27.4 kmh 30.50 in1032.8 mb 0.00 in0.0 mm 0.00 in0.0 mm 0.00 in0.0 mm
09:40 AM 40.7°F4.8°C 27.9°F-2.3°C 60% 11.0 mph E17.7 kmh E 16.0 mph25.7 kmh 30.50 in1032.8 mb 0.00 in0.0 mm 0.00 in0.0 mm 0.00 in0.0 mm
09:41 AM 40.9°F4.9°C 28.1°F-2.2°C 60% 10.0 mph ENE16.1 kmh ENE 14.0 mph22.5 kmh 30.50 in1032.8 mb 0.00 in0.0 mm 0.00 in0.0 mm 0.00 in0.0 mm
09:42 AM 41.1°F5.1°C 28.3°F-2.1°C 60% 12.0 mph NE19.3 kmh NE 16.0 mph25.7 kmh 30.50 in1032.8 mb 0.00 in0.0 mm 0.00 in0.0 mm 0.00 in0.0 mm
09:43 AM 41.3°F5.2°C 28.5°F-1.9°C 60% 16.0 mph NE25.7 kmh NE 23.0 mph37.0 kmh 30.50 in1032.8 mb 0.00 in0.0 mm 0.00 in0.0 mm 0.00 in0.0 mm
09:44 AM 41.5°F5.3°C 28.7°F-1.8°C 60% 12.0 mph NE19.3 kmh NE 15.0 mph24.1 kmh 30.49 in1032.5 mb 0.00 in0.0 mm 0.00 in0.0 mm 0.00 in0.0 mm
09:45 AM 41.7°F5.4°C 28.9°F-1.7°C 60% 15.0 mph ENE24.1 kmh ENE 20.0 mph32.2 kmh 30.50 in1032.8 mb 0.00 in0.0 mm 0.00 in0.0 mm 0.00 in0.0 mm
09:46 AM 41.8°F5.4°C 28.5°F-1.9°C 59% 15.0 mph ENE24.1 kmh ENE 20.0 mph32.2 kmh 30.50 in1032.8 mb 0.00 in0.0 mm 0.00 in0.0 mm 0.00 in0.0 mm
09:47 AM 41.8°F5.4°C 28.5°F-1.9°C 59% 13.0 mph E20.9 kmh E 16.0 mph25.7 kmh 30.50 in1032.8 mb 0.00 in0.0 mm 0.00 in0.0 mm 0.00 in0.0 mm
09:48 AM 41.8°F5.4°C 28.9°F-1.7°C 60% 13.0 mph NE20.9 kmh NE 18.0 mph29.0 kmh 30.49 in1032.5 mb 0.00 in0.0 mm 0.00 in0.0 mm 0.00 in0.0 mm
09:49 AM 41.8°F5.4°C 28.5°F-1.9°C 59% 16.0 mph ENE25.7 kmh ENE 19.0 mph30.6 kmh 30.49 in1032.5 mb 0.00 in0.0 mm 0.00 in0.0 mm 0.00 in0.0 mm
09:50 AM 41.8°F5.4°C 28.5°F-1.9°C 59% 12.0 mph ENE19.3 kmh ENE 15.0 mph24.1 kmh 30.49 in1032.5 mb 0.00 in0.0 mm 0.00 in0.0 mm 0.00 in0.0 mm
09:51 AM 41.8°F5.4°C 28.5°F-1.9°C 59% 14.0 mph NE22.5 kmh NE 18.0 mph29.0 kmh 30.50 in1032.8 mb 0.00 in0.0 mm 0.00 in0.0 mm 0.00 in0.0 mm
09:52 AM 41.9°F5.5°C 28.6°F-1.9°C 59% 16.0 mph ENE25.7 kmh ENE 23.0 mph37.0 kmh 30.49 in1032.5 mb 0.00 in0.0 mm 0.00 in0.0 mm 0.00 in0.0 mm
09:53 AM 42.0°F5.6°C 28.7°F-1.8°C 59% 14.0 mph ENE22.5 kmh ENE 17.0 mph27.4 kmh 30.49 in1032.5 mb 0.00 in0.0 mm 0.00 in0.0 mm 0.00 in0.0 mm
09:54 AM 42.1°F5.6°C 29.2°F-1.6°C 60% 7.0 mph NE11.3 kmh NE 11.0 mph17.7 kmh 30.49 in1032.5 mb 0.00 in0.0 mm 0.00 in0.0 mm 0.00 in0.0 mm
09:55 AM 42.3°F5.7°C 29.0°F-1.7°C 59% 14.0 mph ENE22.5 kmh ENE 22.0 mph35.4 kmh 30.49 in1032.5 mb 0.00 in0.0 mm 0.00 in0.0 mm 0.00 in0.0 mm
09:56 AM 42.3°F5.7°C 28.6°F-1.9°C 58% 18.0 mph ENE29.0 kmh ENE 23.0 mph37.0 kmh 30.49 in1032.5 mb 0.00 in0.0 mm 0.00 in0.0 mm 0.00 in0.0 mm
09:57 AM 42.3°F5.7°C 28.6°F-1.9°C 58% 14.0 mph E22.5 kmh E 16.0 mph25.7 kmh 30.49 in1032.5 mb 0.00 in0.0 mm 0.00 in0.0 mm 0.00 in0.0 mm
09:58 AM 42.3°F5.7°C 28.2°F-2.1°C 57% 13.0 mph ENE20.9 kmh ENE 22.0 mph35.4 kmh 30.49 in1032.5 mb 0.00 in0.0 mm 0.00 in0.0 mm 0.00 in0.0 mm
09:59 AM 42.3°F5.7°C 28.6°F-1.9°C 58% 17.0 mph E27.4 kmh E 24.0 mph38.6 kmh 30.49 in1032.5 mb 0.00 in0.0 mm 0.00 in0.0 mm 0.00 in0.0 mm
10:00 AM 42.4°F5.8°C 28.3°F-2.1°C 57% 16.0 mph E25.7 kmh E 20.0 mph32.2 kmh 30.50 in1032.8 mb 0.00 in0.0 mm 0.00 in0.0 mm 0.00 in0.0 mm
10:01 AM 42.3°F5.7°C 28.2°F-2.1°C 57% 17.0 mph E27.4 kmh E 20.0 mph32.2 kmh 30.49 in1032.5 mb 0.00 in0.0 mm 0.00 in0.0 mm 0.00 in0.0 mm
10:02 AM 42.2°F5.7°C 28.1°F-2.2°C 57% 16.0 mph E25.7 kmh E 20.0 mph32.2 kmh 30.49 in1032.5 mb 0.00 in0.0 mm 0.00 in0.0 mm 0.00 in0.0 mm
10:03 AM 42.1°F5.6°C 28.0°F-2.2°C 57% 10.0 mph ESE16.1 kmh ESE 13.0 mph20.9 kmh 30.49 in1032.5 mb 0.00 in0.0 mm 0.00 in0.0 mm 0.00 in0.0 mm
10:04 AM 42.2°F5.7°C 28.5°F-1.9°C 58% 10.0 mph E16.1 kmh E 13.0 mph20.9 kmh 30.49 in1032.5 mb 0.00 in0.0 mm 0.00 in0.0 mm 0.00 in0.0 mm
10:05 AM 42.2°F5.7°C 28.5°F-1.9°C 58% 12.0 mph ESE19.3 kmh ESE 19.0 mph30.6 kmh 30.49 in1032.5 mb 0.00 in0.0 mm 0.00 in0.0 mm 0.00 in0.0 mm
10:06 AM 42.3°F5.7°C 28.2°F-2.1°C 57% 13.0 mph E20.9 kmh E 15.0 mph24.1 kmh 30.49 in1032.5 mb 0.00 in0.0 mm 0.00 in0.0 mm 0.00 in0.0 mm
10:07 AM 42.3°F5.7°C 28.2°F-2.1°C 57% 14.0 mph ENE22.5 kmh ENE 18.0 mph29.0 kmh 30.49 in1032.5 mb 0.00 in0.0 mm 0.00 in0.0 mm 0.00 in0.0 mm
10:08 AM 42.4°F5.8°C 28.3°F-2.1°C 57% 17.0 mph ENE27.4 kmh ENE 22.0 mph35.4 kmh 30.49 in1032.5 mb 0.00 in0.0 mm 0.00 in0.0 mm 0.00 in0.0 mm
10:09 AM 42.3°F5.7°C 27.7°F-2.4°C 56% 13.0 mph E20.9 kmh E 18.0 mph29.0 kmh 30.50 in1032.8 mb 0.00 in0.0 mm 0.00 in0.0 mm 0.00 in0.0 mm
10:10 AM 42.4°F5.8°C 28.3°F-2.1°C 57% 15.0 mph E24.1 kmh E 20.0 mph32.2 kmh 30.49 in1032.5 mb 0.00 in0.0 mm 0.00 in0.0 mm 0.00 in0.0 mm
10:11 AM 42.4°F5.8°C 27.8°F-2.3°C 56% 14.0 mph E22.5 kmh E 24.0 mph38.6 kmh 30.49 in1032.5 mb 0.00 in0.0 mm 0.00 in0.0 mm 0.00 in0.0 mm
10:12 AM 42.3°F5.7°C 27.7°F-2.4°C 56% 17.0 mph E27.4 kmh E 20.0 mph32.2 kmh 30.49 in1032.5 mb 0.00 in0.0 mm 0.00 in0.0 mm 0.00 in0.0 mm
10:13 AM 42.3°F5.7°C 27.7°F-2.4°C 56% 15.0 mph E24.1 kmh E 18.0 mph29.0 kmh 30.49 in1032.5 mb 0.00 in0.0 mm 0.00 in0.0 mm 0.00 in0.0 mm
10:14 AM 42.3°F5.7°C 28.2°F-2.1°C 57% 12.0 mph E19.3 kmh E 17.0 mph27.4 kmh 30.49 in1032.5 mb 0.00 in0.0 mm 0.00 in0.0 mm 0.00 in0.0 mm
10:15 AM 42.3°F5.7°C 28.2°F-2.1°C 57% 14.0 mph ENE22.5 kmh ENE 20.0 mph32.2 kmh 30.49 in1032.5 mb 0.00 in0.0 mm 0.00 in0.0 mm 0.00 in0.0 mm
10:16 AM 42.5°F5.8°C 28.4°F-2.0°C 57% 14.0 mph E22.5 kmh E 19.0 mph30.6 kmh 30.49 in1032.5 mb 0.00 in0.0 mm 0.00 in0.0 mm 0.00 in0.0 mm
10:17 AM 42.7°F5.9°C 29.0°F-1.7°C 58% 14.0 mph E22.5 kmh E 18.0 mph29.0 kmh 30.49 in1032.5 mb 0.00 in0.0 mm 0.00 in0.0 mm 0.00 in0.0 mm
10:18 AM 42.7°F5.9°C 28.5°F-1.9°C 57% 10.0 mph E16.1 kmh E 13.0 mph20.9 kmh 30.50 in1032.8 mb 0.00 in0.0 mm 0.00 in0.0 mm 0.00 in0.0 mm
10:19 AM 42.8°F6.0°C 28.6°F-1.9°C 57% 9.0 mph E14.5 kmh E 14.0 mph22.5 kmh 30.50 in1032.8 mb 0.00 in0.0 mm 0.00 in0.0 mm 0.00 in0.0 mm
10:20 AM 43.0°F6.1°C 28.8°F-1.8°C 57% 12.0 mph E19.3 kmh E 17.0 mph27.4 kmh 30.50 in1032.8 mb 0.00 in0.0 mm 0.00 in0.0 mm 0.00 in0.0 mm
10:21 AM 42.9°F6.1°C 28.7°F-1.8°C 57% 16.0 mph E25.7 kmh E 19.0 mph30.6 kmh 30.49 in1032.5 mb 0.00 in0.0 mm 0.00 in0.0 mm 0.00 in0.0 mm
10:22 AM 42.8°F6.0°C 28.6°F-1.9°C 57% 14.0 mph E22.5 kmh E 18.0 mph29.0 kmh 30.50 in1032.8 mb 0.00 in0.0 mm 0.00 in0.0 mm 0.00 in0.0 mm
10:23 AM 42.8°F6.0°C 28.6°F-1.9°C 57% 14.0 mph ENE22.5 kmh ENE 22.0 mph35.4 kmh 30.49 in1032.5 mb 0.00 in0.0 mm 0.00 in0.0 mm 0.00 in0.0 mm
10:24 AM 42.8°F6.0°C 28.6°F-1.9°C 57% 17.0 mph E27.4 kmh E 22.0 mph35.4 kmh 30.49 in1032.5 mb 0.00 in0.0 mm 0.00 in0.0 mm 0.00 in0.0 mm
10:25 AM 42.7°F5.9°C 28.5°F-1.9°C 57% 15.0 mph ENE24.1 kmh ENE 16.0 mph25.7 kmh 30.49 in1032.5 mb 0.00 in0.0 mm 0.00 in0.0 mm 0.00 in0.0 mm
10:26 AM 42.7°F5.9°C 28.5°F-1.9°C 57% 14.0 mph ENE22.5 kmh ENE 16.0 mph25.7 kmh 30.49 in1032.5 mb 0.00 in0.0 mm 0.00 in0.0 mm 0.00 in0.0 mm
10:27 AM 42.7°F5.9°C 28.5°F-1.9°C 57% 15.0 mph E24.1 kmh E 20.0 mph32.2 kmh 30.49 in1032.5 mb 0.00 in0.0 mm 0.00 in0.0 mm 0.00 in0.0 mm
10:28 AM 42.7°F5.9°C 29.0°F-1.7°C 58% 14.0 mph ESE22.5 kmh ESE 17.0 mph27.4 kmh 30.50 in1032.8 mb 0.00 in0.0 mm 0.00 in0.0 mm 0.00 in0.0 mm
10:29 AM 42.7°F5.9°C 29.0°F-1.7°C 58% 15.0 mph E24.1 kmh E 22.0 mph35.4 kmh 30.50 in1032.8 mb 0.00 in0.0 mm 0.00 in0.0 mm 0.00 in0.0 mm
10:30 AM 42.7°F5.9°C 29.0°F-1.7°C 58% 13.0 mph E20.9 kmh E 17.0 mph27.4 kmh 30.49 in1032.5 mb 0.00 in0.0 mm 0.00 in0.0 mm 0.00 in0.0 mm
10:31 AM 42.7°F5.9°C 29.0°F-1.7°C 58% 15.0 mph E24.1 kmh E 19.0 mph30.6 kmh 30.49 in1032.5 mb 0.00 in0.0 mm 0.00 in0.0 mm 0.00 in0.0 mm
10:32 AM 42.6°F5.9°C 28.4°F-2.0°C 57% 19.0 mph E30.6 kmh E 25.0 mph40.2 kmh 30.49 in1032.5 mb 0.00 in0.0 mm 0.00 in0.0 mm 0.00 in0.0 mm
10:33 AM 42.7°F5.9°C 28.5°F-1.9°C 57% 16.0 mph E25.7 kmh E 22.0 mph35.4 kmh 30.49 in1032.5 mb 0.00 in0.0 mm 0.00 in0.0 mm 0.00 in0.0 mm
10:34 AM 42.6°F5.9°C 28.4°F-2.0°C 57% 14.0 mph E22.5 kmh E 25.0 mph40.2 kmh 30.49 in1032.5 mb 0.00 in0.0 mm 0.00 in0.0 mm 0.00 in0.0 mm
10:35 AM 42.6°F5.9°C 28.0°F-2.2°C 56% 14.0 mph E22.5 kmh E 18.0 mph29.0 kmh 30.49 in1032.5 mb 0.00 in0.0 mm 0.00 in0.0 mm 0.00 in0.0 mm
10:36 AM 42.7°F5.9°C 28.1°F-2.2°C 56% 14.0 mph E22.5 kmh E 21.0 mph33.8 kmh 30.49 in1032.5 mb 0.00 in0.0 mm 0.00 in0.0 mm 0.00 in0.0 mm
10:37 AM 42.7°F5.9°C 28.1°F-2.2°C 56% 13.0 mph ENE20.9 kmh ENE 16.0 mph25.7 kmh 30.50 in1032.8 mb 0.00 in0.0 mm 0.00 in0.0 mm 0.00 in0.0 mm
10:38 AM 42.8°F6.0°C 28.2°F-2.1°C 56% 12.0 mph E19.3 kmh E 15.0 mph24.1 kmh 30.49 in1032.5 mb 0.00 in0.0 mm 0.00 in0.0 mm 0.00 in0.0 mm
10:39 AM 42.8°F6.0°C 28.2°F-2.1°C 56% 12.0 mph E19.3 kmh E 16.0 mph25.7 kmh 30.49 in1032.5 mb 0.00 in0.0 mm 0.00 in0.0 mm 0.00 in0.0 mm
10:40 AM 42.9°F6.1°C 28.3°F-2.1°C 56% 10.0 mph E16.1 kmh E 14.0 mph22.5 kmh 30.49 in1032.5 mb 0.00 in0.0 mm 0.00 in0.0 mm 0.00 in0.0 mm
10:41 AM 43.1°F6.2°C 28.9°F-1.7°C 57% 9.0 mph E14.5 kmh E 16.0 mph25.7 kmh 30.49 in1032.5 mb 0.00 in0.0 mm 0.00 in0.0 mm 0.00 in0.0 mm
10:42 AM 43.3°F6.3°C 28.7°F-1.8°C 56% 12.0 mph E19.3 kmh E 17.0 mph27.4 kmh 30.50 in1032.8 mb 0.00 in0.0 mm 0.00 in0.0 mm 0.00 in0.0 mm
10:43 AM 43.4°F6.3°C 29.2°F-1.6°C 57% 10.0 mph NE16.1 kmh NE 15.0 mph24.1 kmh 30.49 in1032.5 mb 0.00 in0.0 mm 0.00 in0.0 mm 0.00 in0.0 mm
10:44 AM 43.6°F6.4°C 29.8°F-1.2°C 58% 16.0 mph ENE25.7 kmh ENE 20.0 mph32.2 kmh 30.49 in1032.5 mb 0.00 in0.0 mm 0.00 in0.0 mm 0.00 in0.0 mm
10:45 AM 43.6°F6.4°C 29.4°F-1.4°C 57% 16.0 mph ENE25.7 kmh ENE 21.0 mph33.8 kmh 30.49 in1032.5 mb 0.00 in0.0 mm 0.00 in0.0 mm 0.00 in0.0 mm
10:46 AM 43.6°F6.4°C 29.4°F-1.4°C 57% 15.0 mph NE24.1 kmh NE 18.0 mph29.0 kmh 30.49 in1032.5 mb 0.00 in0.0 mm 0.00 in0.0 mm 0.00 in0.0 mm
10:47 AM 43.6°F6.4°C 29.4°F-1.4°C 57% 13.0 mph ENE20.9 kmh ENE 17.0 mph27.4 kmh 30.49 in1032.5 mb 0.00 in0.0 mm 0.00 in0.0 mm 0.00 in0.0 mm
10:48 AM 43.7°F6.5°C 29.5°F-1.4°C 57% 13.0 mph ENE20.9 kmh ENE 17.0 mph27.4 kmh 30.49 in1032.5 mb 0.00 in0.0 mm 0.00 in0.0 mm 0.00 in0.0 mm
10:49 AM 43.7°F6.5°C 29.5°F-1.4°C 57% 10.0 mph ENE16.1 kmh ENE 13.0 mph20.9 kmh 30.49 in1032.5 mb 0.00 in0.0 mm 0.00 in0.0 mm 0.00 in0.0 mm
10:50 AM 43.7°F6.5°C 29.5°F-1.4°C 57% 10.0 mph ENE16.1 kmh ENE 14.0 mph22.5 kmh 30.49 in1032.5 mb 0.00 in0.0 mm 0.00 in0.0 mm 0.00 in0.0 mm
10:51 AM 43.8°F6.6°C 29.6°F-1.3°C 57% 9.0 mph NE14.5 kmh NE 12.0 mph19.3 kmh 30.49 in1032.5 mb 0.00 in0.0 mm 0.00 in0.0 mm 0.00 in0.0 mm
10:52 AM 43.9°F6.6°C 30.1°F-1.1°C 58% 13.0 mph ENE20.9 kmh ENE 18.0 mph29.0 kmh 30.49 in1032.5 mb 0.00 in0.0 mm 0.00 in0.0 mm 0.00 in0.0 mm
10:53 AM 44.0°F6.7°C 30.2°F-1.0°C 58% 14.0 mph NE22.5 kmh NE 18.0 mph29.0 kmh 30.49 in1032.5 mb 0.00 in0.0 mm 0.00 in0.0 mm 0.00 in0.0 mm
10:54 AM 44.1°F6.7°C 30.3°F-0.9°C 58% 14.0 mph ENE22.5 kmh ENE 17.0 mph27.4 kmh 30.49 in1032.5 mb 0.00 in0.0 mm 0.00 in0.0 mm 0.00 in0.0 mm
10:55 AM 44.0°F6.7°C 29.8°F-1.2°C 57% 14.0 mph ENE22.5 kmh ENE 17.0 mph27.4 kmh 30.49 in1032.5 mb 0.00 in0.0 mm 0.00 in0.0 mm 0.00 in0.0 mm
10:56 AM 44.0°F6.7°C 29.8°F-1.2°C 57% 12.0 mph ENE19.3 kmh ENE 14.0 mph22.5 kmh 30.49 in1032.5 mb 0.00 in0.0 mm 0.00 in0.0 mm 0.00 in0.0 mm
10:57 AM 44.0°F6.7°C 30.2°F-1.0°C 58% 13.0 mph E20.9 kmh E 19.0 mph30.6 kmh 30.49 in1032.5 mb 0.00 in0.0 mm 0.00 in0.0 mm 0.00 in0.0 mm
10:58 AM 43.9°F6.6°C 30.1°F-1.1°C 58% 10.0 mph E16.1 kmh E 15.0 mph24.1 kmh 30.49 in1032.5 mb 0.00 in0.0 mm 0.00 in0.0 mm 0.00 in0.0 mm
10:59 AM 44.0°F6.7°C 30.2°F-1.0°C 58% 13.0 mph E20.9 kmh E 19.0 mph30.6 kmh 30.49 in1032.5 mb 0.00 in0.0 mm 0.00 in0.0 mm 0.00 in0.0 mm
11:00 AM 44.1°F6.7°C 29.9°F-1.2°C 57% 12.0 mph ESE19.3 kmh ESE 14.0 mph22.5 kmh 30.49 in1032.5 mb 0.00 in0.0 mm 0.00 in0.0 mm 0.00 in0.0 mm
11:01 AM 44.2°F6.8°C 29.5°F-1.4°C 56% 10.0 mph E16.1 kmh E 13.0 mph20.9 kmh 30.49 in1032.5 mb 0.00 in0.0 mm 0.00 in0.0 mm 0.00 in0.0 mm
11:02 AM 44.3°F6.8°C 29.6°F-1.3°C 56% 10.0 mph ESE16.1 kmh ESE 17.0 mph27.4 kmh 30.49 in1032.5 mb 0.00 in0.0 mm 0.00 in0.0 mm 0.00 in0.0 mm
11:03 AM 44.4°F6.9°C 29.3°F-1.5°C 55% 9.0 mph ESE14.5 kmh ESE 14.0 mph22.5 kmh 30.49 in1032.5 mb 0.00 in0.0 mm 0.00 in0.0 mm 0.00 in0.0 mm
11:04 AM 44.5°F6.9°C 29.4°F-1.4°C 55% 15.0 mph ESE24.1 kmh ESE 18.0 mph29.0 kmh 30.49 in1032.5 mb 0.00 in0.0 mm 0.00 in0.0 mm 0.00 in0.0 mm
11:05 AM 44.4°F6.9°C 28.4°F-2.0°C 53% 12.0 mph ESE19.3 kmh ESE 17.0 mph27.4 kmh 30.49 in1032.5 mb 0.00 in0.0 mm 0.00 in0.0 mm 0.00 in0.0 mm
11:06 AM 44.4°F6.9°C 28.8°F-1.8°C 54% 13.0 mph ESE20.9 kmh ESE 16.0 mph25.7 kmh 30.49 in1032.5 mb 0.00 in0.0 mm 0.00 in0.0 mm 0.00 in0.0 mm
11:07 AM 44.4°F6.9°C 28.8°F-1.8°C 54% 14.0 mph E22.5 kmh E 17.0 mph27.4 kmh 30.49 in1032.5 mb 0.00 in0.0 mm 0.00 in0.0 mm 0.00 in0.0 mm
11:08 AM 44.4°F6.9°C 29.3°F-1.5°C 55% 16.0 mph E25.7 kmh E 22.0 mph35.4 kmh 30.49 in1032.5 mb 0.00 in0.0 mm 0.00 in0.0 mm 0.00 in0.0 mm
11:09 AM 44.3°F6.8°C 29.2°F-1.6°C 55% 16.0 mph E25.7 kmh E 22.0 mph35.4 kmh 30.49 in1032.5 mb 0.00 in0.0 mm 0.00 in0.0 mm 0.00 in0.0 mm
11:10 AM 44.2°F6.8°C 29.1°F-1.6°C 55% 17.0 mph E27.4 kmh E 22.0 mph35.4 kmh 30.49 in1032.5 mb 0.00 in0.0 mm 0.00 in0.0 mm 0.00 in0.0 mm
11:11 AM 44.0°F6.7°C 28.4°F-2.0°C 54% 15.0 mph E24.1 kmh E 19.0 mph30.6 kmh 30.49 in1032.5 mb 0.00 in0.0 mm 0.00 in0.0 mm 0.00 in0.0 mm
11:12 AM 43.9°F6.6°C 28.8°F-1.8°C 55% 11.0 mph E17.7 kmh E 15.0 mph24.1 kmh 30.49 in1032.5 mb 0.00 in0.0 mm 0.00 in0.0 mm 0.00 in0.0 mm
11:13 AM 44.0°F6.7°C 29.3°F-1.5°C 56% 12.0 mph E19.3 kmh E 18.0 mph29.0 kmh 30.49 in1032.5 mb 0.00 in0.0 mm 0.00 in0.0 mm 0.00 in0.0 mm
11:14 AM 44.1°F6.7°C 29.4°F-1.4°C 56% 14.0 mph E22.5 kmh E 20.0 mph32.2 kmh 30.49 in1032.5 mb 0.00 in0.0 mm 0.00 in0.0 mm 0.00 in0.0 mm
11:15 AM 44.1°F6.7°C 29.0°F-1.7°C 55% 15.0 mph E24.1 kmh E 19.0 mph30.6 kmh 30.49 in1032.5 mb 0.00 in0.0 mm 0.00 in0.0 mm 0.00 in0.0 mm
11:16 AM 44.1°F6.7°C 29.0°F-1.7°C 55% 16.0 mph E25.7 kmh E 20.0 mph32.2 kmh 30.49 in1032.5 mb 0.00 in0.0 mm 0.00 in0.0 mm 0.00 in0.0 mm
11:17 AM 44.0°F6.7°C 28.9°F-1.7°C 55% 12.0 mph E19.3 kmh E 15.0 mph24.1 kmh 30.49 in1032.5 mb 0.00 in0.0 mm 0.00 in0.0 mm 0.00 in0.0 mm
11:18 AM 44.0°F6.7°C 28.9°F-1.7°C 55% 13.0 mph E20.9 kmh E 17.0 mph27.4 kmh 30.50 in1032.8 mb 0.00 in0.0 mm 0.00 in0.0 mm 0.00 in0.0 mm
11:19 AM 44.1°F6.7°C 29.0°F-1.7°C 55% 13.0 mph ENE20.9 kmh ENE 21.0 mph33.8 kmh 30.49 in1032.5 mb 0.00 in0.0 mm 0.00 in0.0 mm 0.00 in0.0 mm
11:20 AM 44.1°F6.7°C 29.4°F-1.4°C 56% 12.0 mph ENE19.3 kmh ENE 15.0 mph24.1 kmh 30.49 in1032.5 mb 0.00 in0.0 mm 0.00 in0.0 mm 0.00 in0.0 mm
11:21 AM 44.3°F6.8°C 29.6°F-1.3°C 56% 12.0 mph NE19.3 kmh NE 16.0 mph25.7 kmh 30.50 in1032.8 mb 0.00 in0.0 mm 0.00 in0.0 mm 0.00 in0.0 mm
11:22 AM 44.4°F6.9°C 29.3°F-1.5°C 55% 15.0 mph ENE24.1 kmh ENE 20.0 mph32.2 kmh 30.49 in1032.5 mb 0.00 in0.0 mm 0.00 in0.0 mm 0.00 in0.0 mm
11:23 AM 44.5°F6.9°C 29.4°F-1.4°C 55% 12.0 mph ENE19.3 kmh ENE 15.0 mph24.1 kmh 30.49 in1032.5 mb 0.00 in0.0 mm 0.00 in0.0 mm 0.00 in0.0 mm
11:24 AM 44.5°F6.9°C 29.4°F-1.4°C 55% 13.0 mph ENE20.9 kmh ENE 16.0 mph25.7 kmh 30.49 in1032.5 mb 0.00 in0.0 mm 0.00 in0.0 mm 0.00 in0.0 mm
11:25 AM 44.7°F7.1°C 30.0°F-1.1°C 56% 13.0 mph E20.9 kmh E 16.0 mph25.7 kmh 30.49 in1032.5 mb 0.00 in0.0 mm 0.00 in0.0 mm 0.00 in0.0 mm
11:26 AM 44.7°F7.1°C 29.5°F-1.4°C 55% 8.0 mph E12.9 kmh E 12.0 mph19.3 kmh 30.50 in1032.8 mb 0.00 in0.0 mm 0.00 in0.0 mm 0.00 in0.0 mm
11:27 AM 44.9°F7.2°C 30.2°F-1.0°C 56% 7.0 mph E11.3 kmh E 14.0 mph22.5 kmh 30.49 in1032.5 mb 0.00 in0.0 mm 0.00 in0.0 mm 0.00 in0.0 mm
11:28 AM 44.9°F7.2°C 30.2°F-1.0°C 56% 10.0 mph E16.1 kmh E 14.0 mph22.5 kmh 30.49 in1032.5 mb 0.00 in0.0 mm 0.00 in0.0 mm 0.00 in0.0 mm
11:29 AM 45.1°F7.3°C 30.4°F-0.9°C 56% 9.0 mph E14.5 kmh E 12.0 mph19.3 kmh 30.49 in1032.5 mb 0.00 in0.0 mm 0.00 in0.0 mm 0.00 in0.0 mm
11:30 AM 45.2°F7.3°C 30.0°F-1.1°C 55% 10.0 mph E16.1 kmh E 13.0 mph20.9 kmh 30.49 in1032.5 mb 0.00 in0.0 mm 0.00 in0.0 mm 0.00 in0.0 mm
11:31 AM 45.2°F7.3°C 30.0°F-1.1°C 55% 13.0 mph ENE20.9 kmh ENE 17.0 mph27.4 kmh 30.49 in1032.5 mb 0.00 in0.0 mm 0.00 in0.0 mm 0.00 in0.0 mm
11:32 AM 45.2°F7.3°C 30.0°F-1.1°C 55% 13.0 mph E20.9 kmh E 16.0 mph25.7 kmh 30.49 in1032.5 mb 0.00 in0.0 mm 0.00 in0.0 mm 0.00 in0.0 mm
11:33 AM 45.1°F7.3°C 29.0°F-1.7°C 53% 11.0 mph E17.7 kmh E 16.0 mph25.7 kmh 30.49 in1032.5 mb 0.00 in0.0 mm 0.00 in0.0 mm 0.00 in0.0 mm
11:34 AM 45.0°F7.2°C 29.4°F-1.4°C 54% 8.0 mph E12.9 kmh E 12.0 mph19.3 kmh 30.50 in1032.8 mb 0.00 in0.0 mm 0.00 in0.0 mm 0.00 in0.0 mm
11:35 AM 45.1°F7.3°C 29.9°F-1.2°C 55% 9.0 mph E14.5 kmh E 14.0 mph22.5 kmh 30.49 in1032.5 mb 0.00 in0.0 mm 0.00 in0.0 mm 0.00 in0.0 mm
11:36 AM 45.1°F7.3°C 29.9°F-1.2°C 55% 14.0 mph ESE22.5 kmh ESE 17.0 mph27.4 kmh 30.50 in1032.8 mb 0.00 in0.0 mm 0.00 in0.0 mm 0.00 in0.0 mm
11:37 AM 45.2°F7.3°C 30.0°F-1.1°C 55% 10.0 mph ENE16.1 kmh ENE 15.0 mph24.1 kmh 30.50 in1032.8 mb 0.00 in0.0 mm 0.00 in0.0 mm 0.00 in0.0 mm
11:38 AM 45.2°F7.3°C 30.0°F-1.1°C 55% 11.0 mph E17.7 kmh E 15.0 mph24.1 kmh 30.49 in1032.5 mb 0.00 in0.0 mm 0.00 in0.0 mm 0.00 in0.0 mm
11:39 AM 45.3°F7.4°C 30.1°F-1.1°C 55% 12.0 mph ESE19.3 kmh ESE 15.0 mph24.1 kmh 30.49 in1032.5 mb 0.00 in0.0 mm 0.00 in0.0 mm 0.00 in0.0 mm
11:40 AM 45.4°F7.4°C 30.2°F-1.0°C 55% 13.0 mph ESE20.9 kmh ESE 16.0 mph25.7 kmh 30.50 in1032.8 mb 0.00 in0.0 mm 0.00 in0.0 mm 0.00 in0.0 mm
11:41 AM 45.5°F7.5°C 30.7°F-0.7°C 56% 13.0 mph E20.9 kmh E 16.0 mph25.7 kmh 30.50 in1032.8 mb 0.00 in0.0 mm 0.00 in0.0 mm 0.00 in0.0 mm
11:42 AM 45.2°F7.3°C 29.6°F-1.3°C 54% 14.0 mph E22.5 kmh E 19.0 mph30.6 kmh 30.50 in1032.8 mb 0.00 in0.0 mm 0.00 in0.0 mm 0.00 in0.0 mm
11:43 AM 44.9°F7.2°C 29.3°F-1.5°C 54% 10.0 mph E16.1 kmh E 12.0 mph19.3 kmh 30.50 in1032.8 mb 0.00 in0.0 mm 0.00 in0.0 mm 0.00 in0.0 mm
11:44 AM 44.8°F7.1°C 29.6°F-1.3°C 55% 13.0 mph ENE20.9 kmh ENE 17.0 mph27.4 kmh 30.49 in1032.5 mb 0.00 in0.0 mm 0.00 in0.0 mm 0.00 in0.0 mm
11:45 AM 44.9°F7.2°C 30.2°F-1.0°C 56% 10.0 mph ENE16.1 kmh ENE 13.0 mph20.9 kmh 30.50 in1032.8 mb 0.00 in0.0 mm 0.00 in0.0 mm 0.00 in0.0 mm
11:46 AM 45.0°F7.2°C 30.7°F-0.7°C 57% 9.0 mph ESE14.5 kmh ESE 11.0 mph17.7 kmh 30.50 in1032.8 mb 0.00 in0.0 mm 0.00 in0.0 mm 0.00 in0.0 mm
11:47 AM 45.1°F7.3°C 30.4°F-0.9°C 56% 11.0 mph ESE17.7 kmh ESE 14.0 mph22.5 kmh 30.50 in1032.8 mb 0.00 in0.0 mm 0.00 in0.0 mm 0.00 in0.0 mm
11:48 AM 45.2°F7.3°C 29.6°F-1.3°C 54% 13.0 mph SE20.9 kmh SE 14.0 mph22.5 kmh 30.50 in1032.8 mb 0.00 in0.0 mm 0.00 in0.0 mm 0.00 in0.0 mm
11:49 AM 45.2°F7.3°C 29.6°F-1.3°C 54% 12.0 mph ESE19.3 kmh ESE 20.0 mph32.2 kmh 30.50 in1032.8 mb 0.00 in0.0 mm 0.00 in0.0 mm 0.00 in0.0 mm
11:50 AM 45.2°F7.3°C 29.6°F-1.3°C 54% 15.0 mph E24.1 kmh E 20.0 mph32.2 kmh 30.50 in1032.8 mb 0.00 in0.0 mm 0.00 in0.0 mm 0.00 in0.0 mm
11:51 AM 45.2°F7.3°C 30.0°F-1.1°C 55% 13.0 mph E20.9 kmh E 17.0 mph27.4 kmh 30.50 in1032.8 mb 0.00 in0.0 mm 0.00 in0.0 mm 0.00 in0.0 mm
11:52 AM 45.0°F7.2°C 29.4°F-1.4°C 54% 15.0 mph E24.1 kmh E 19.0 mph30.6 kmh 30.50 in1032.8 mb 0.00 in0.0 mm 0.00 in0.0 mm 0.00 in0.0 mm
11:53 AM 44.9°F7.2°C 29.3°F-1.5°C 54% 12.0 mph E19.3 kmh E 15.0 mph24.1 kmh 30.50 in1032.8 mb 0.00 in0.0 mm 0.00 in0.0 mm 0.00 in0.0 mm
11:54 AM 44.8°F7.1°C 29.2°F-1.6°C 54% 12.0 mph E19.3 kmh E 15.0 mph24.1 kmh 30.50 in1032.8 mb 0.00 in0.0 mm 0.00 in0.0 mm 0.00 in0.0 mm
11:55 AM 44.9°F7.2°C 29.7°F-1.3°C 55% 12.0 mph E19.3 kmh E 14.0 mph22.5 kmh 30.50 in1032.8 mb 0.00 in0.0 mm 0.00 in0.0 mm 0.00 in0.0 mm
11:56 AM 44.9°F7.2°C 30.2°F-1.0°C 56% 14.0 mph E22.5 kmh E 19.0 mph30.6 kmh 30.50 in1032.8 mb 0.00 in0.0 mm 0.00 in0.0 mm 0.00 in0.0 mm
11:57 AM 44.9°F7.2°C 29.7°F-1.3°C 55% 12.0 mph E19.3 kmh E 17.0 mph27.4 kmh 30.50 in1032.8 mb 0.00 in0.0 mm 0.00 in0.0 mm 0.00 in0.0 mm
11:58 AM 44.9°F7.2°C 30.2°F-1.0°C 56% 8.0 mph E12.9 kmh E 12.0 mph19.3 kmh 30.50 in1032.8 mb 0.00 in0.0 mm 0.00 in0.0 mm 0.00 in0.0 mm
11:59 AM 45.1°F7.3°C 30.4°F-0.9°C 56% 9.0 mph NE14.5 kmh NE 17.0 mph27.4 kmh 30.49 in1032.5 mb 0.00 in0.0 mm 0.00 in0.0 mm 0.00 in0.0 mm
12:00 PM 45.2°F7.3°C 30.4°F-0.9°C 56% 14.0 mph ENE22.5 kmh ENE 17.0 mph27.4 kmh 30.50 in1032.8 mb 0.00 in0.0 mm 0.00 in0.0 mm 0.00 in0.0 mm
12:01 PM 45.2°F7.3°C 30.0°F-1.1°C 55% 10.0 mph E16.1 kmh E 16.0 mph25.7 kmh 30.50 in1032.8 mb 0.00 in0.0 mm 0.00 in0.0 mm 0.00 in0.0 mm
12:02 PM 45.2°F7.3°C 30.4°F-0.9°C 56% 18.0 mph E29.0 kmh E 24.0 mph38.6 kmh 30.50 in1032.8 mb 0.00 in0.0 mm 0.00 in0.0 mm 0.00 in0.0 mm
12:03 PM 45.2°F7.3°C 30.0°F-1.1°C 55% 17.0 mph E27.4 kmh E 21.0 mph33.8 kmh 30.50 in1032.8 mb 0.00 in0.0 mm 0.00 in0.0 mm 0.00 in0.0 mm
12:04 PM 45.1°F7.3°C 29.9°F-1.2°C 55% 15.0 mph E24.1 kmh E 19.0 mph30.6 kmh 30.50 in1032.8 mb 0.00 in0.0 mm 0.00 in0.0 mm 0.00 in0.0 mm
12:05 PM 44.9°F7.2°C 30.2°F-1.0°C 56% 14.0 mph E22.5 kmh E 19.0 mph30.6 kmh 30.50 in1032.8 mb 0.00 in0.0 mm 0.00 in0.0 mm 0.00 in0.0 mm
12:06 PM 44.9°F7.2°C 30.2°F-1.0°C 56% 15.0 mph ESE24.1 kmh ESE 19.0 mph30.6 kmh 30.50 in1032.8 mb 0.00 in0.0 mm 0.00 in0.0 mm 0.00 in0.0 mm
12:07 PM 45.0°F7.2°C 30.3°F-0.9°C 56% 16.0 mph ESE25.7 kmh ESE 21.0 mph33.8 kmh 30.50 in1032.8 mb 0.00 in0.0 mm 0.00 in0.0 mm 0.00 in0.0 mm
12:08 PM 45.0°F7.2°C 30.3°F-0.9°C 56% 18.0 mph E29.0 kmh E 20.0 mph32.2 kmh 30.49 in1032.5 mb 0.00 in0.0 mm 0.00 in0.0 mm 0.00 in0.0 mm
12:09 PM 45.0°F7.2°C 30.3°F-0.9°C 56% 18.0 mph E29.0 kmh E 22.0 mph35.4 kmh 30.50 in1032.8 mb 0.00 in0.0 mm 0.00 in0.0 mm 0.00 in0.0 mm
12:10 PM 45.0°F7.2°C 30.3°F-0.9°C 56% 15.0 mph E24.1 kmh E 17.0 mph27.4 kmh 30.50 in1032.8 mb 0.00 in0.0 mm 0.00 in0.0 mm 0.00 in0.0 mm
12:11 PM 44.9°F7.2°C 30.2°F-1.0°C 56% 12.0 mph ESE19.3 kmh ESE 15.0 mph24.1 kmh 30.50 in1032.8 mb 0.00 in0.0 mm 0.00 in0.0 mm 0.00 in0.0 mm
12:12 PM 45.0°F7.2°C 30.3°F-0.9°C 56% 14.0 mph ENE22.5 kmh ENE 20.0 mph32.2 kmh 30.50 in1032.8 mb 0.00 in0.0 mm 0.00 in0.0 mm 0.00 in0.0 mm
12:13 PM 45.1°F7.3°C 29.9°F-1.2°C 55% 11.0 mph E17.7 kmh E 15.0 mph24.1 kmh 30.50 in1032.8 mb 0.00 in0.0 mm 0.00 in0.0 mm 0.00 in0.0 mm
12:14 PM 45.2°F7.3°C 30.4°F-0.9°C 56% 11.0 mph E17.7 kmh E 15.0 mph24.1 kmh 30.49 in1032.5 mb 0.00 in0.0 mm 0.00 in0.0 mm 0.00 in0.0 mm
12:15 PM 45.4°F7.4°C 30.2°F-1.0°C 55% 13.0 mph ENE20.9 kmh ENE 17.0 mph27.4 kmh 30.49 in1032.5 mb 0.00 in0.0 mm 0.00 in0.0 mm 0.00 in0.0 mm
12:16 PM 45.6°F7.6°C 30.8°F-0.7°C 56% 13.0 mph ESE20.9 kmh ESE 15.0 mph24.1 kmh 30.49 in1032.5 mb 0.00 in0.0 mm 0.00 in0.0 mm 0.00 in0.0 mm
12:17 PM 45.8°F7.7°C 30.6°F-0.8°C 55% 12.0 mph ESE19.3 kmh ESE 16.0 mph25.7 kmh 30.50 in1032.8 mb 0.00 in0.0 mm 0.00 in0.0 mm 0.00 in0.0 mm
12:18 PM 45.8°F7.7°C 30.1°F-1.1°C 54% 11.0 mph ESE17.7 kmh ESE 14.0 mph22.5 kmh 30.49 in1032.5 mb 0.00 in0.0 mm 0.00 in0.0 mm 0.00 in0.0 mm
12:19 PM 45.9°F7.7°C 30.2°F-1.0°C 54% 8.0 mph E12.9 kmh E 11.0 mph17.7 kmh 30.50 in1032.8 mb 0.00 in0.0 mm 0.00 in0.0 mm 0.00 in0.0 mm
12:20 PM 46.0°F7.8°C 30.7°F-0.7°C 55% 12.0 mph E19.3 kmh E 18.0 mph29.0 kmh 30.50 in1032.8 mb 0.00 in0.0 mm 0.00 in0.0 mm 0.00 in0.0 mm
12:21 PM 45.9°F7.7°C 30.7°F-0.7°C 55% 14.0 mph E22.5 kmh E 19.0 mph30.6 kmh 30.49 in1032.5 mb 0.00 in0.0 mm 0.00 in0.0 mm 0.00 in0.0 mm
12:22 PM 45.9°F7.7°C 30.7°F-0.7°C 55% 13.0 mph E20.9 kmh E 16.0 mph25.7 kmh 30.49 in1032.5 mb 0.00 in0.0 mm 0.00 in0.0 mm 0.00 in0.0 mm
12:23 PM 45.8°F7.7°C 30.6°F-0.8°C 55% 11.0 mph E17.7 kmh E 14.0 mph22.5 kmh 30.49 in1032.5 mb 0.00 in0.0 mm 0.00 in0.0 mm 0.00 in0.0 mm
12:24 PM 45.7°F7.6°C 30.5°F-0.8°C 55% 16.0 mph E25.7 kmh E 25.0 mph40.2 kmh 30.49 in1032.5 mb 0.00 in0.0 mm 0.00 in0.0 mm 0.00 in0.0 mm
12:25 PM 45.6°F7.6°C 30.4°F-0.9°C 55% 17.0 mph E27.4 kmh E 23.0 mph37.0 kmh 30.49 in1032.5 mb 0.00 in0.0 mm 0.00 in0.0 mm 0.00 in0.0 mm
12:26 PM 45.5°F7.5°C 30.3°F-0.9°C 55% 16.0 mph E25.7 kmh E 19.0 mph30.6 kmh 30.50 in1032.8 mb 0.00 in0.0 mm 0.00 in0.0 mm 0.00 in0.0 mm
12:27 PM 45.4°F7.4°C 29.7°F-1.3°C 54% 16.0 mph E25.7 kmh E 19.0 mph30.6 kmh 30.49 in1032.5 mb 0.00 in0.0 mm 0.00 in0.0 mm 0.00 in0.0 mm
12:28 PM 45.2°F7.3°C 30.0°F-1.1°C 55% 12.0 mph E19.3 kmh E 16.0 mph25.7 kmh 30.49 in1032.5 mb 0.00 in0.0 mm 0.00 in0.0 mm 0.00 in0.0 mm
12:29 PM 45.2°F7.3°C 30.0°F-1.1°C 55% 15.0 mph ESE24.1 kmh ESE 20.0 mph32.2 kmh 30.49 in1032.5 mb 0.00 in0.0 mm 0.00 in0.0 mm 0.00 in0.0 mm
12:30 PM 45.2°F7.3°C 30.0°F-1.1°C 55% 13.0 mph ESE20.9 kmh ESE 15.0 mph24.1 kmh 30.49 in1032.5 mb 0.00 in0.0 mm 0.00 in0.0 mm 0.00 in0.0 mm
12:31 PM 45.3°F7.4°C 30.1°F-1.1°C 55% 12.0 mph E19.3 kmh E 16.0 mph25.7 kmh 30.49 in1032.5 mb 0.00 in0.0 mm 0.00 in0.0 mm 0.00 in0.0 mm
12:32 PM 45.5°F7.5°C 30.7°F-0.7°C 56% 11.0 mph E17.7 kmh E 15.0 mph24.1 kmh 30.49 in1032.5 mb 0.00 in0.0 mm 0.00 in0.0 mm 0.00 in0.0 mm
12:33 PM 45.6°F7.6°C 30.8°F-0.7°C 56% 17.0 mph E27.4 kmh E 22.0 mph35.4 kmh 30.49 in1032.5 mb 0.00 in0.0 mm 0.00 in0.0 mm 0.00 in0.0 mm
12:34 PM 45.7°F7.6°C 30.9°F-0.6°C 56% 14.0 mph E22.5 kmh E 19.0 mph30.6 kmh 30.49 in1032.5 mb 0.00 in0.0 mm 0.00 in0.0 mm 0.00 in0.0 mm
12:35 PM 45.8°F7.7°C 31.0°F-0.6°C 56% 14.0 mph E22.5 kmh E 19.0 mph30.6 kmh 30.49 in1032.5 mb 0.00 in0.0 mm 0.00 in0.0 mm 0.00 in0.0 mm
12:36 PM 45.8°F7.7°C 31.0°F-0.6°C 56% 13.0 mph E20.9 kmh E 16.0 mph25.7 kmh 30.49 in1032.5 mb 0.00 in0.0 mm 0.00 in0.0 mm 0.00 in0.0 mm
12:37 PM 45.8°F7.7°C 31.0°F-0.6°C 56% 18.0 mph ENE29.0 kmh ENE 25.0 mph40.2 kmh 30.49 in1032.5 mb 0.00 in0.0 mm 0.00 in0.0 mm 0.00 in0.0 mm
12:38 PM 45.7°F7.6°C 30.0°F-1.1°C 54% 17.0 mph E27.4 kmh E 22.0 mph35.4 kmh 30.49 in1032.5 mb 0.00 in0.0 mm 0.00 in0.0 mm 0.00 in0.0 mm
12:39 PM 45.6°F7.6°C 29.9°F-1.2°C 54% 14.0 mph ENE22.5 kmh ENE 18.0 mph29.0 kmh 30.49 in1032.5 mb 0.00 in0.0 mm 0.00 in0.0 mm 0.00 in0.0 mm
12:40 PM 45.6°F7.6°C 30.4°F-0.9°C 55% 10.0 mph E16.1 kmh E 19.0 mph30.6 kmh 30.49 in1032.5 mb 0.00 in0.0 mm 0.00 in0.0 mm 0.00 in0.0 mm
12:41 PM 45.7°F7.6°C 30.5°F-0.8°C 55% 19.0 mph E30.6 kmh E 25.0 mph40.2 kmh 30.49 in1032.5 mb 0.00 in0.0 mm 0.00 in0.0 mm 0.00 in0.0 mm
12:42 PM 45.8°F7.7°C 30.6°F-0.8°C 55% 18.0 mph E29.0 kmh E 26.0 mph41.8 kmh 30.49 in1032.5 mb 0.00 in0.0 mm 0.00 in0.0 mm 0.00 in0.0 mm
12:43 PM 45.8°F7.7°C 30.1°F-1.1°C 54% 17.0 mph ENE27.4 kmh ENE 26.0 mph41.8 kmh 30.49 in1032.5 mb 0.00 in0.0 mm 0.00 in0.0 mm 0.00 in0.0 mm
12:44 PM 45.7°F7.6°C 30.0°F-1.1°C 54% 13.0 mph ENE20.9 kmh ENE 17.0 mph27.4 kmh 30.49 in1032.5 mb 0.00 in0.0 mm 0.00 in0.0 mm 0.00 in0.0 mm
12:45 PM 45.7°F7.6°C 30.0°F-1.1°C 54% 12.0 mph E19.3 kmh E 17.0 mph27.4 kmh 30.49 in1032.5 mb 0.00 in0.0 mm 0.00 in0.0 mm 0.00 in0.0 mm
12:46 PM 45.7°F7.6°C 30.0°F-1.1°C 54% 12.0 mph E19.3 kmh E 16.0 mph25.7 kmh 30.49 in1032.5 mb 0.00 in0.0 mm 0.00 in0.0 mm 0.00 in0.0 mm
12:47 PM 45.7°F7.6°C 30.5°F-0.8°C 55% 12.0 mph E19.3 kmh E 15.0 mph24.1 kmh 30.49 in1032.5 mb 0.00 in0.0 mm 0.00 in0.0 mm 0.00 in0.0 mm
12:48 PM 45.8°F7.7°C 30.6°F-0.8°C 55% 12.0 mph E19.3 kmh E 18.0 mph29.0 kmh 30.49 in1032.5 mb 0.00 in0.0 mm 0.00 in0.0 mm 0.00 in0.0 mm
12:49 PM 46.0°F7.8°C 31.2°F-0.4°C 56% 12.0 mph ESE19.3 kmh ESE 16.0 mph25.7 kmh 30.49 in1032.5 mb 0.00 in0.0 mm 0.00 in0.0 mm 0.00 in0.0 mm
12:50 PM 46.2°F7.9°C 30.9°F-0.6°C 55% 13.0 mph E20.9 kmh E 16.0 mph25.7 kmh 30.49 in1032.5 mb 0.00 in0.0 mm 0.00 in0.0 mm 0.00 in0.0 mm
12:51 PM 46.3°F7.9°C 30.6°F-0.8°C 54% 14.0 mph ENE22.5 kmh ENE 18.0 mph29.0 kmh 30.49 in1032.5 mb 0.00 in0.0 mm 0.00 in0.0 mm 0.00 in0.0 mm
12:52 PM 46.3°F7.9°C 30.6°F-0.8°C 54% 14.0 mph ENE22.5 kmh ENE 18.0 mph29.0 kmh 30.49 in1032.5 mb 0.00 in0.0 mm 0.00 in0.0 mm 0.00 in0.0 mm
12:53 PM 46.4°F8.0°C 30.2°F-1.0°C 53% 12.0 mph ENE19.3 kmh ENE 19.0 mph30.6 kmh 30.49 in1032.5 mb 0.00 in0.0 mm 0.00 in0.0 mm 0.00 in0.0 mm
12:54 PM 46.4°F8.0°C 30.7°F-0.7°C 54% 11.0 mph ENE17.7 kmh ENE 14.0 mph22.5 kmh 30.49 in1032.5 mb 0.00 in0.0 mm 0.00 in0.0 mm 0.00 in0.0 mm
12:55 PM 46.4°F8.0°C 30.7°F-0.7°C 54% 13.0 mph E20.9 kmh E 16.0 mph25.7 kmh 30.49 in1032.5 mb 0.00 in0.0 mm 0.00 in0.0 mm 0.00 in0.0 mm
12:56 PM 46.4°F8.0°C 30.7°F-0.7°C 54% 12.0 mph E19.3 kmh E 15.0 mph24.1 kmh 30.49 in1032.5 mb 0.00 in0.0 mm 0.00 in0.0 mm 0.00 in0.0 mm
12:57 PM 46.4°F8.0°C 30.2°F-1.0°C 53% 9.0 mph ESE14.5 kmh ESE 12.0 mph19.3 kmh 30.49 in1032.5 mb 0.00 in0.0 mm 0.00 in0.0 mm 0.00 in0.0 mm
12:58 PM 46.3°F7.9°C 30.1°F-1.1°C 53% 11.0 mph E17.7 kmh E 17.0 mph27.4 kmh 30.49 in1032.5 mb 0.00 in0.0 mm 0.00 in0.0 mm 0.00 in0.0 mm
12:59 PM 46.3°F7.9°C 30.1°F-1.1°C 53% 13.0 mph E20.9 kmh E 16.0 mph25.7 kmh 30.49 in1032.5 mb 0.00 in0.0 mm 0.00 in0.0 mm 0.00 in0.0 mm
01:00 PM 46.3°F7.9°C 30.1°F-1.1°C 53% 9.0 mph E14.5 kmh E 11.0 mph17.7 kmh 30.49 in1032.5 mb 0.00 in0.0 mm 0.00 in0.0 mm 0.00 in0.0 mm
01:01 PM 46.4°F8.0°C 30.7°F-0.7°C 54% 12.0 mph E19.3 kmh E 16.0 mph25.7 kmh 30.49 in1032.5 mb 0.00 in0.0 mm 0.00 in0.0 mm 0.00 in0.0 mm
01:02 PM 46.4°F8.0°C 30.2°F-1.0°C 53% 17.0 mph E27.4 kmh E 20.0 mph32.2 kmh 30.49 in1032.5 mb 0.00 in0.0 mm 0.00 in0.0 mm 0.00 in0.0 mm
01:03 PM 46.3°F7.9°C 29.6°F-1.3°C 52% 14.0 mph E22.5 kmh E 19.0 mph30.6 kmh 30.49 in1032.5 mb 0.00 in0.0 mm 0.00 in0.0 mm 0.00 in0.0 mm
01:04 PM 46.3°F7.9°C 30.1°F-1.1°C 53% 10.0 mph E16.1 kmh E 14.0 mph22.5 kmh 30.49 in1032.5 mb 0.00 in0.0 mm 0.00 in0.0 mm 0.00 in0.0 mm
01:05 PM 46.3°F7.9°C 30.6°F-0.8°C 54% 10.0 mph ESE16.1 kmh ESE 14.0 mph22.5 kmh 30.49 in1032.5 mb 0.00 in0.0 mm 0.00 in0.0 mm 0.00 in0.0 mm
01:06 PM 46.3°F7.9°C 30.6°F-0.8°C 54% 11.0 mph ENE17.7 kmh ENE 14.0 mph22.5 kmh 30.49 in1032.5 mb 0.00 in0.0 mm 0.00 in0.0 mm 0.00 in0.0 mm
01:07 PM 46.4°F8.0°C 30.7°F-0.7°C 54% 13.0 mph E20.9 kmh E 22.0 mph35.4 kmh 30.49 in1032.5 mb 0.00 in0.0 mm 0.00 in0.0 mm 0.00 in0.0 mm
01:08 PM 46.4°F8.0°C 30.2°F-1.0°C 53% 16.0 mph E25.7 kmh E 20.0 mph32.2 kmh 30.49 in1032.5 mb 0.00 in0.0 mm 0.00 in0.0 mm 0.00 in0.0 mm
01:09 PM 46.4°F8.0°C 30.2°F-1.0°C 53% 16.0 mph ESE25.7 kmh ESE 22.0 mph35.4 kmh 30.49 in1032.5 mb 0.00 in0.0 mm 0.00 in0.0 mm 0.00 in0.0 mm
01:10 PM 46.3°F7.9°C 30.1°F-1.1°C 53% 15.0 mph ESE24.1 kmh ESE 19.0 mph30.6 kmh 30.49 in1032.5 mb 0.00 in0.0 mm 0.00 in0.0 mm 0.00 in0.0 mm
01:11 PM 46.3°F7.9°C 30.1°F-1.1°C 53% 11.0 mph ESE17.7 kmh ESE 17.0 mph27.4 kmh 30.49 in1032.5 mb 0.00 in0.0 mm 0.00 in0.0 mm 0.00 in0.0 mm
01:12 PM 46.3°F7.9°C 30.6°F-0.8°C 54% 12.0 mph ESE19.3 kmh ESE 16.0 mph25.7 kmh 30.49 in1032.5 mb 0.00 in0.0 mm 0.00 in0.0 mm 0.00 in0.0 mm
01:13 PM 46.3°F7.9°C 30.6°F-0.8°C 54% 12.0 mph E19.3 kmh E 19.0 mph30.6 kmh 30.49 in1032.5 mb 0.00 in0.0 mm 0.00 in0.0 mm 0.00 in0.0 mm
01:14 PM 46.4°F8.0°C 30.2°F-1.0°C 53% 16.0 mph ESE25.7 kmh ESE 20.0 mph32.2 kmh 30.49 in1032.5 mb 0.00 in0.0 mm 0.00 in0.0 mm 0.00 in0.0 mm
01:15 PM 46.3°F7.9°C 29.6°F-1.3°C 52% 15.0 mph E24.1 kmh E 17.0 mph27.4 kmh 30.49 in1032.5 mb 0.00 in0.0 mm 0.00 in0.0 mm 0.00 in0.0 mm
01:16 PM 46.2°F7.9°C 30.0°F-1.1°C 53% 11.0 mph ESE17.7 kmh ESE 13.0 mph20.9 kmh 30.49 in1032.5 mb 0.00 in0.0 mm 0.00 in0.0 mm 0.00 in0.0 mm
01:17 PM 46.2°F7.9°C 30.5°F-0.8°C 54% 11.0 mph ESE17.7 kmh ESE 14.0 mph22.5 kmh 30.49 in1032.5 mb 0.00 in0.0 mm 0.00 in0.0 mm 0.00 in0.0 mm
01:18 PM 46.4°F8.0°C 30.2°F-1.0°C 53% 12.0 mph ESE19.3 kmh ESE 15.0 mph24.1 kmh 30.49 in1032.5 mb 0.00 in0.0 mm 0.00 in0.0 mm 0.00 in0.0 mm
01:19 PM 46.6°F8.1°C 30.9°F-0.6°C 54% 11.0 mph E17.7 kmh E 16.0 mph25.7 kmh 30.49 in1032.5 mb 0.00 in0.0 mm 0.00 in0.0 mm 0.00 in0.0 mm
01:20 PM 46.8°F8.2°C 30.6°F-0.8°C 53% 11.0 mph E17.7 kmh E 16.0 mph25.7 kmh 30.49 in1032.5 mb 0.00 in0.0 mm 0.00 in0.0 mm 0.00 in0.0 mm
01:21 PM 46.7°F8.2°C 30.0°F-1.1°C 52% 14.0 mph ENE22.5 kmh ENE 17.0 mph27.4 kmh 30.49 in1032.5 mb 0.00 in0.0 mm 0.00 in0.0 mm 0.00 in0.0 mm
01:22 PM 46.6°F8.1°C 29.9°F-1.2°C 52% 13.0 mph E20.9 kmh E 16.0 mph25.7 kmh 30.49 in1032.5 mb 0.00 in0.0 mm 0.00 in0.0 mm 0.00 in0.0 mm
01:23 PM 46.5°F8.1°C 29.8°F-1.2°C 52% 11.0 mph E17.7 kmh E 16.0 mph25.7 kmh 30.49 in1032.5 mb 0.00 in0.0 mm 0.00 in0.0 mm 0.00 in0.0 mm
01:24 PM 46.5°F8.1°C 30.3°F-0.9°C 53% 13.0 mph ENE20.9 kmh ENE 17.0 mph27.4 kmh 30.49 in1032.5 mb 0.00 in0.0 mm 0.00 in0.0 mm 0.00 in0.0 mm
01:25 PM 46.4°F8.0°C 30.2°F-1.0°C 53% 16.0 mph ESE25.7 kmh ESE 21.0 mph33.8 kmh 30.49 in1032.5 mb 0.00 in0.0 mm 0.00 in0.0 mm 0.00 in0.0 mm
01:26 PM 46.4°F8.0°C 30.2°F-1.0°C 53% 14.0 mph E22.5 kmh E 17.0 mph27.4 kmh 30.49 in1032.5 mb 0.00 in0.0 mm 0.00 in0.0 mm 0.00 in0.0 mm
01:27 PM 46.5°F8.1°C 30.3°F-0.9°C 53% 13.0 mph E20.9 kmh E 17.0 mph27.4 kmh 30.50 in1032.8 mb 0.00 in0.0 mm 0.00 in0.0 mm 0.00 in0.0 mm
01:28 PM 46.5°F8.1°C 30.3°F-0.9°C 53% 12.0 mph E19.3 kmh E 14.0 mph22.5 kmh 30.50 in1032.8 mb 0.00 in0.0 mm 0.00 in0.0 mm 0.00 in0.0 mm
01:29 PM 46.4°F8.0°C 30.2°F-1.0°C 53% 11.0 mph E17.7 kmh E 15.0 mph24.1 kmh 30.50 in1032.8 mb 0.00 in0.0 mm 0.00 in0.0 mm 0.00 in0.0 mm
01:30 PM 46.5°F8.1°C 30.3°F-0.9°C 53% 14.0 mph NE22.5 kmh NE 20.0 mph32.2 kmh 30.49 in1032.5 mb 0.00 in0.0 mm 0.00 in0.0 mm 0.00 in0.0 mm
01:31 PM 46.6°F8.1°C 30.9°F-0.6°C 54% 14.0 mph E22.5 kmh E 19.0 mph30.6 kmh 30.49 in1032.5 mb 0.00 in0.0 mm 0.00 in0.0 mm 0.00 in0.0 mm
01:32 PM 46.7°F8.2°C 30.5°F-0.8°C 53% 17.0 mph ENE27.4 kmh ENE 21.0 mph33.8 kmh 30.49 in1032.5 mb 0.00 in0.0 mm 0.00 in0.0 mm 0.00 in0.0 mm
01:33 PM 46.7°F8.2°C 30.0°F-1.1°C 52% 16.0 mph E25.7 kmh E 18.0 mph29.0 kmh 30.49 in1032.5 mb 0.00 in0.0 mm 0.00 in0.0 mm 0.00 in0.0 mm
01:34 PM 46.5°F8.1°C 29.8°F-1.2°C 52% 14.0 mph ENE22.5 kmh ENE 17.0 mph27.4 kmh 30.49 in1032.5 mb 0.00 in0.0 mm 0.00 in0.0 mm 0.00 in0.0 mm
01:35 PM 46.4°F8.0°C 29.7°F-1.3°C 52% 11.0 mph NE17.7 kmh NE 14.0 mph22.5 kmh 30.49 in1032.5 mb 0.00 in0.0 mm 0.00 in0.0 mm 0.00 in0.0 mm
01:36 PM 46.5°F8.1°C 30.3°F-0.9°C 53% 12.0 mph ENE19.3 kmh ENE 17.0 mph27.4 kmh 30.49 in1032.5 mb 0.00 in0.0 mm 0.00 in0.0 mm 0.00 in0.0 mm
01:37 PM 46.6°F8.1°C 30.4°F-0.9°C 53% 12.0 mph ENE19.3 kmh ENE 17.0 mph27.4 kmh 30.49 in1032.5 mb 0.00 in0.0 mm 0.00 in0.0 mm 0.00 in0.0 mm
01:38 PM 46.7°F8.2°C 30.5°F-0.8°C 53% 12.0 mph E19.3 kmh E 17.0 mph27.4 kmh 30.49 in1032.5 mb 0.00 in0.0 mm 0.00 in0.0 mm 0.00 in0.0 mm
01:39 PM 46.9°F8.3°C 30.7°F-0.7°C 53% 11.0 mph ESE17.7 kmh ESE 17.0 mph27.4 kmh 30.49 in1032.5 mb 0.00 in0.0 mm 0.00 in0.0 mm 0.00 in0.0 mm
01:40 PM 46.8°F8.2°C 29.6°F-1.3°C 51% 13.0 mph ENE20.9 kmh ENE 17.0 mph27.4 kmh 30.50 in1032.8 mb 0.00 in0.0 mm 0.00 in0.0 mm 0.00 in0.0 mm
01:41 PM 46.7°F8.2°C 29.5°F-1.4°C 51% 10.0 mph ENE16.1 kmh ENE 14.0 mph22.5 kmh 30.50 in1032.8 mb 0.00 in0.0 mm 0.00 in0.0 mm 0.00 in0.0 mm
01:42 PM 46.7°F8.2°C 30.0°F-1.1°C 52% 10.0 mph E16.1 kmh E 13.0 mph20.9 kmh 30.49 in1032.5 mb 0.00 in0.0 mm 0.00 in0.0 mm 0.00 in0.0 mm
01:43 PM 46.7°F8.2°C 30.5°F-0.8°C 53% 9.0 mph ENE14.5 kmh ENE 15.0 mph24.1 kmh 30.49 in1032.5 mb 0.00 in0.0 mm 0.00 in0.0 mm 0.00 in0.0 mm
01:44 PM 46.8°F8.2°C 30.1°F-1.1°C 52% 12.0 mph ENE19.3 kmh ENE 15.0 mph24.1 kmh 30.49 in1032.5 mb 0.00 in0.0 mm 0.00 in0.0 mm 0.00 in0.0 mm
01:45 PM 46.8°F8.2°C 30.6°F-0.8°C 53% 11.0 mph E17.7 kmh E 19.0 mph30.6 kmh 30.50 in1032.8 mb 0.00 in0.0 mm 0.00 in0.0 mm 0.00 in0.0 mm
01:46 PM 46.9°F8.3°C 30.2°F-1.0°C 52% 17.0 mph E27.4 kmh E 19.0 mph30.6 kmh 30.50 in1032.8 mb 0.00 in0.0 mm 0.00 in0.0 mm 0.00 in0.0 mm
01:47 PM 46.7°F8.2°C 29.5°F-1.4°C 51% 12.0 mph E19.3 kmh E 17.0 mph27.4 kmh 30.50 in1032.8 mb 0.00 in0.0 mm 0.00 in0.0 mm 0.00 in0.0 mm
01:48 PM 46.7°F8.2°C 30.0°F-1.1°C 52% 12.0 mph E19.3 kmh E 16.0 mph25.7 kmh 30.50 in1032.8 mb 0.00 in0.0 mm 0.00 in0.0 mm 0.00 in0.0 mm
01:49 PM 46.7°F8.2°C 30.0°F-1.1°C 52% 8.0 mph E12.9 kmh E 10.0 mph16.1 kmh 30.50 in1032.8 mb 0.00 in0.0 mm 0.00 in0.0 mm 0.00 in0.0 mm
01:50 PM 46.8°F8.2°C 30.1°F-1.1°C 52% 11.0 mph E17.7 kmh E 14.0 mph22.5 kmh 30.50 in1032.8 mb 0.00 in0.0 mm 0.00 in0.0 mm 0.00 in0.0 mm
01:51 PM 46.9°F8.3°C 30.7°F-0.7°C 53% 9.0 mph ENE14.5 kmh ENE 13.0 mph20.9 kmh 30.50 in1032.8 mb 0.00 in0.0 mm 0.00 in0.0 mm 0.00 in0.0 mm
01:52 PM 47.0°F8.3°C 30.3°F-0.9°C 52% 14.0 mph ENE22.5 kmh ENE 19.0 mph30.6 kmh 30.50 in1032.8 mb 0.00 in0.0 mm 0.00 in0.0 mm 0.00 in0.0 mm
01:53 PM 47.0°F8.3°C 29.8°F-1.2°C 51% 14.0 mph E22.5 kmh E 16.0 mph25.7 kmh 30.49 in1032.5 mb 0.00 in0.0 mm 0.00 in0.0 mm 0.00 in0.0 mm
01:54 PM 46.9°F8.3°C 29.7°F-1.3°C 51% 14.0 mph ENE22.5 kmh ENE 18.0 mph29.0 kmh 30.50 in1032.8 mb 0.00 in0.0 mm 0.00 in0.0 mm 0.00 in0.0 mm
01:55 PM 46.9°F8.3°C 30.2°F-1.0°C 52% 14.0 mph E22.5 kmh E 19.0 mph30.6 kmh 30.50 in1032.8 mb 0.00 in0.0 mm 0.00 in0.0 mm 0.00 in0.0 mm
01:56 PM 47.0°F8.3°C 30.3°F-0.9°C 52% 16.0 mph E25.7 kmh E 21.0 mph33.8 kmh 30.50 in1032.8 mb 0.00 in0.0 mm 0.00 in0.0 mm 0.00 in0.0 mm
01:57 PM 46.9°F8.3°C 29.7°F-1.3°C 51% 14.0 mph ESE22.5 kmh ESE 20.0 mph32.2 kmh 30.50 in1032.8 mb 0.00 in0.0 mm 0.00 in0.0 mm 0.00 in0.0 mm
01:58 PM 46.9°F8.3°C 30.2°F-1.0°C 52% 14.0 mph ENE22.5 kmh ENE 16.0 mph25.7 kmh 30.50 in1032.8 mb 0.00 in0.0 mm 0.00 in0.0 mm 0.00 in0.0 mm
01:59 PM 46.8°F8.2°C 30.1°F-1.1°C 52% 11.0 mph ENE17.7 kmh ENE 15.0 mph24.1 kmh 30.50 in1032.8 mb 0.00 in0.0 mm 0.00 in0.0 mm 0.00 in0.0 mm
02:00 PM 46.7°F8.2°C 30.0°F-1.1°C 52% 8.0 mph E12.9 kmh E 10.0 mph16.1 kmh 30.50 in1032.8 mb 0.00 in0.0 mm 0.00 in0.0 mm 0.00 in0.0 mm
02:01 PM 46.8°F8.2°C 30.6°F-0.8°C 53% 13.0 mph ENE20.9 kmh ENE 17.0 mph27.4 kmh 30.50 in1032.8 mb 0.00 in0.0 mm 0.00 in0.0 mm 0.00 in0.0 mm
02:02 PM 46.9°F8.3°C 30.7°F-0.7°C 53% 11.0 mph ENE17.7 kmh ENE 15.0 mph24.1 kmh 30.50 in1032.8 mb 0.00 in0.0 mm 0.00 in0.0 mm 0.00 in0.0 mm
02:03 PM 47.0°F8.3°C 30.8°F-0.7°C 53% 9.0 mph E14.5 kmh E 15.0 mph24.1 kmh 30.50 in1032.8 mb 0.00 in0.0 mm 0.00 in0.0 mm 0.00 in0.0 mm
02:04 PM 47.0°F8.3°C 29.8°F-1.2°C 51% 10.0 mph E16.1 kmh E 12.0 mph19.3 kmh 30.50 in1032.8 mb 0.00 in0.0 mm 0.00 in0.0 mm 0.00 in0.0 mm
02:05 PM 47.0°F8.3°C 30.3°F-0.9°C 52% 13.0 mph ENE20.9 kmh ENE 17.0 mph27.4 kmh 30.50 in1032.8 mb 0.00 in0.0 mm 0.00 in0.0 mm 0.00 in0.0 mm
02:06 PM 47.1°F8.4°C 30.4°F-0.9°C 52% 14.0 mph ENE22.5 kmh ENE 17.0 mph27.4 kmh 30.50 in1032.8 mb 0.00 in0.0 mm 0.00 in0.0 mm 0.00 in0.0 mm
02:07 PM 47.2°F8.4°C 30.0°F-1.1°C 51% 13.0 mph ENE20.9 kmh ENE 16.0 mph25.7 kmh 30.50 in1032.8 mb 0.00 in0.0 mm 0.00 in0.0 mm 0.00 in0.0 mm
02:08 PM 47.3°F8.5°C 30.1°F-1.1°C 51% 9.0 mph ENE14.5 kmh ENE 13.0 mph20.9 kmh 30.50 in1032.8 mb 0.00 in0.0 mm 0.00 in0.0 mm 0.00 in0.0 mm
02:09 PM 47.3°F8.5°C 30.1°F-1.1°C 51% 9.0 mph E14.5 kmh E 12.0 mph19.3 kmh 30.50 in1032.8 mb 0.00 in0.0 mm 0.00 in0.0 mm 0.00 in0.0 mm
02:10 PM 47.4°F8.6°C 30.2°F-1.0°C 51% 12.0 mph E19.3 kmh E 15.0 mph24.1 kmh 30.50 in1032.8 mb 0.00 in0.0 mm 0.00 in0.0 mm 0.00 in0.0 mm
02:11 PM 47.3°F8.5°C 29.6°F-1.3°C 50% 11.0 mph ENE17.7 kmh ENE 15.0 mph24.1 kmh 30.50 in1032.8 mb 0.00 in0.0 mm 0.00 in0.0 mm 0.00 in0.0 mm
02:12 PM 47.3°F8.5°C 30.1°F-1.1°C 51% 12.0 mph ENE19.3 kmh ENE 19.0 mph30.6 kmh 30.49 in1032.5 mb 0.00 in0.0 mm 0.00 in0.0 mm 0.00 in0.0 mm
02:13 PM 47.4°F8.6°C 30.2°F-1.0°C 51% 16.0 mph E25.7 kmh E 23.0 mph37.0 kmh 30.49 in1032.5 mb 0.00 in0.0 mm 0.00 in0.0 mm 0.00 in0.0 mm
02:14 PM 47.4°F8.6°C 29.7°F-1.3°C 50% 13.0 mph E20.9 kmh E 18.0 mph29.0 kmh 30.50 in1032.8 mb 0.00 in0.0 mm 0.00 in0.0 mm 0.00 in0.0 mm
02:15 PM 47.4°F8.6°C 29.7°F-1.3°C 50% 13.0 mph E20.9 kmh E 19.0 mph30.6 kmh 30.50 in1032.8 mb 0.00 in0.0 mm 0.00 in0.0 mm 0.00 in0.0 mm
02:16 PM 47.2°F8.4°C 29.5°F-1.4°C 50% 14.0 mph ENE22.5 kmh ENE 20.0 mph32.2 kmh 30.50 in1032.8 mb 0.00 in0.0 mm 0.00 in0.0 mm 0.00 in0.0 mm
02:17 PM 47.2°F8.4°C 29.5°F-1.4°C 50% 13.0 mph ENE20.9 kmh ENE 16.0 mph25.7 kmh 30.50 in1032.8 mb 0.00 in0.0 mm 0.00 in0.0 mm 0.00 in0.0 mm
02:18 PM 47.2°F8.4°C 29.5°F-1.4°C 50% 12.0 mph E19.3 kmh E 15.0 mph24.1 kmh 30.50 in1032.8 mb 0.00 in0.0 mm 0.00 in0.0 mm 0.00 in0.0 mm
02:19 PM 47.2°F8.4°C 29.5°F-1.4°C 50% 12.0 mph ENE19.3 kmh ENE 15.0 mph24.1 kmh 30.50 in1032.8 mb 0.00 in0.0 mm 0.00 in0.0 mm 0.00 in0.0 mm
02:20 PM 47.3°F8.5°C 30.1°F-1.1°C 51% 12.0 mph ENE19.3 kmh ENE 17.0 mph27.4 kmh 30.49 in1032.5 mb 0.00 in0.0 mm 0.00 in0.0 mm 0.00 in0.0 mm
02:21 PM 47.2°F8.4°C 29.5°F-1.4°C 50% 14.0 mph ENE22.5 kmh ENE 20.0 mph32.2 kmh 30.50 in1032.8 mb 0.00 in0.0 mm 0.00 in0.0 mm 0.00 in0.0 mm
02:22 PM 47.2°F8.4°C 29.5°F-1.4°C 50% 13.0 mph ENE20.9 kmh ENE 17.0 mph27.4 kmh 30.50 in1032.8 mb 0.00 in0.0 mm 0.00 in0.0 mm 0.00 in0.0 mm
02:23 PM 47.1°F8.4°C 29.4°F-1.4°C 50% 10.0 mph ENE16.1 kmh ENE 13.0 mph20.9 kmh 30.49 in1032.5 mb 0.00 in0.0 mm 0.00 in0.0 mm 0.00 in0.0 mm
02:24 PM 47.1°F8.4°C 29.9°F-1.2°C 51% 12.0 mph E19.3 kmh E 16.0 mph25.7 kmh 30.49 in1032.5 mb 0.00 in0.0 mm 0.00 in0.0 mm 0.00 in0.0 mm
02:25 PM 47.1°F8.4°C 29.9°F-1.2°C 51% 10.0 mph E16.1 kmh E 14.0 mph22.5 kmh 30.49 in1032.5 mb 0.00 in0.0 mm 0.00 in0.0 mm 0.00 in0.0 mm
02:26 PM 47.1°F8.4°C 29.4°F-1.4°C 50% 12.0 mph E19.3 kmh E 16.0 mph25.7 kmh 30.50 in1032.8 mb 0.00 in0.0 mm 0.00 in0.0 mm 0.00 in0.0 mm
02:27 PM 47.0°F8.3°C 29.3°F-1.5°C 50% 11.0 mph E17.7 kmh E 15.0 mph24.1 kmh 30.50 in1032.8 mb 0.00 in0.0 mm 0.00 in0.0 mm 0.00 in0.0 mm
02:28 PM 47.0°F8.3°C 29.8°F-1.2°C 51% 13.0 mph ENE20.9 kmh ENE 19.0 mph30.6 kmh 30.49 in1032.5 mb 0.00 in0.0 mm 0.00 in0.0 mm 0.00 in0.0 mm
02:29 PM 47.0°F8.3°C 29.8°F-1.2°C 51% 13.0 mph ENE20.9 kmh ENE 18.0 mph29.0 kmh 30.49 in1032.5 mb 0.00 in0.0 mm 0.00 in0.0 mm 0.00 in0.0 mm
02:30 PM 47.1°F8.4°C 29.4°F-1.4°C 50% 12.0 mph E19.3 kmh E 17.0 mph27.4 kmh 30.49 in1032.5 mb 0.00 in0.0 mm 0.00 in0.0 mm 0.00 in0.0 mm
02:31 PM 47.1°F8.4°C 29.4°F-1.4°C 50% 12.0 mph E19.3 kmh E 18.0 mph29.0 kmh 30.49 in1032.5 mb 0.00 in0.0 mm 0.00 in0.0 mm 0.00 in0.0 mm
02:32 PM 47.2°F8.4°C 29.5°F-1.4°C 50% 11.0 mph E17.7 kmh E 18.0 mph29.0 kmh 30.49 in1032.5 mb 0.00 in0.0 mm 0.00 in0.0 mm 0.00 in0.0 mm
02:33 PM 47.3°F8.5°C 30.1°F-1.1°C 51% 13.0 mph E20.9 kmh E 16.0 mph25.7 kmh 30.49 in1032.5 mb 0.00 in0.0 mm 0.00 in0.0 mm 0.00 in0.0 mm
02:34 PM 47.2°F8.4°C 29.0°F-1.7°C 49% 11.0 mph ESE17.7 kmh ESE 13.0 mph20.9 kmh 30.49 in1032.5 mb 0.00 in0.0 mm 0.00 in0.0 mm 0.00 in0.0 mm
02:35 PM 47.1°F8.4°C 28.9°F-1.7°C 49% 12.0 mph E19.3 kmh E 18.0 mph29.0 kmh 30.49 in1032.5 mb 0.00 in0.0 mm 0.00 in0.0 mm 0.00 in0.0 mm
02:36 PM 47.0°F8.3°C 28.8°F-1.8°C 49% 14.0 mph E22.5 kmh E 17.0 mph27.4 kmh 30.49 in1032.5 mb 0.00 in0.0 mm 0.00 in0.0 mm 0.00 in0.0 mm
02:37 PM 46.9°F8.3°C 28.8°F-1.8°C 49% 14.0 mph ENE22.5 kmh ENE 16.0 mph25.7 kmh 30.49 in1032.5 mb 0.00 in0.0 mm 0.00 in0.0 mm 0.00 in0.0 mm
02:38 PM 46.9°F8.3°C 28.8°F-1.8°C 49% 11.0 mph ENE17.7 kmh ENE 13.0 mph20.9 kmh 30.49 in1032.5 mb 0.00 in0.0 mm 0.00 in0.0 mm 0.00 in0.0 mm
02:39 PM 46.9°F8.3°C 29.2°F-1.6°C 50% 10.0 mph E16.1 kmh E 13.0 mph20.9 kmh 30.49 in1032.5 mb 0.00 in0.0 mm 0.00 in0.0 mm 0.00 in0.0 mm
02:40 PM 47.0°F8.3°C 29.8°F-1.2°C 51% 15.0 mph NE24.1 kmh NE 18.0 mph29.0 kmh 30.49 in1032.5 mb 0.00 in0.0 mm 0.00 in0.0 mm 0.00 in0.0 mm
02:41 PM 47.2°F8.4°C 29.5°F-1.4°C 50% 13.0 mph ENE20.9 kmh ENE 18.0 mph29.0 kmh 30.49 in1032.5 mb 0.00 in0.0 mm 0.00 in0.0 mm 0.00 in0.0 mm
02:42 PM 47.3°F8.5°C 29.1°F-1.6°C 49% 12.0 mph E19.3 kmh E 18.0 mph29.0 kmh 30.49 in1032.5 mb 0.00 in0.0 mm 0.00 in0.0 mm 0.00 in0.0 mm
02:43 PM 47.3°F8.5°C 29.1°F-1.6°C 49% 15.0 mph ENE24.1 kmh ENE 20.0 mph32.2 kmh 30.49 in1032.5 mb 0.00 in0.0 mm 0.00 in0.0 mm 0.00 in0.0 mm
02:44 PM 47.3°F8.5°C 29.6°F-1.3°C 50% 14.0 mph E22.5 kmh E 16.0 mph25.7 kmh 30.49 in1032.5 mb 0.00 in0.0 mm 0.00 in0.0 mm 0.00 in0.0 mm
02:45 PM 47.2°F8.4°C 29.0°F-1.7°C 49% 11.0 mph E17.7 kmh E 15.0 mph24.1 kmh 30.49 in1032.5 mb 0.00 in0.0 mm 0.00 in0.0 mm 0.00 in0.0 mm
02:46 PM 47.3°F8.5°C 29.6°F-1.3°C 50% 13.0 mph ESE20.9 kmh ESE 18.0 mph29.0 kmh 30.49 in1032.5 mb 0.00 in0.0 mm 0.00 in0.0 mm 0.00 in0.0 mm
02:47 PM 47.2°F8.4°C 29.0°F-1.7°C 49% 15.0 mph ESE24.1 kmh ESE 17.0 mph27.4 kmh 30.49 in1032.5 mb 0.00 in0.0 mm 0.00 in0.0 mm 0.00 in0.0 mm
02:48 PM 47.0°F8.3°C 28.8°F-1.8°C 49% 12.0 mph E19.3 kmh E 16.0 mph25.7 kmh 30.49 in1032.5 mb 0.00 in0.0 mm 0.00 in0.0 mm 0.00 in0.0 mm
02:49 PM 47.1°F8.4°C 29.4°F-1.4°C 50% 9.0 mph E14.5 kmh E 11.0 mph17.7 kmh 30.49 in1032.5 mb 0.00 in0.0 mm 0.00 in0.0 mm 0.00 in0.0 mm
02:50 PM 47.1°F8.4°C 29.4°F-1.4°C 50% 12.0 mph ESE19.3 kmh ESE 19.0 mph30.6 kmh 30.49 in1032.5 mb 0.00 in0.0 mm 0.00 in0.0 mm 0.00 in0.0 mm
02:51 PM 47.1°F8.4°C 28.9°F-1.7°C 49% 13.0 mph E20.9 kmh E 16.0 mph25.7 kmh 30.49 in1032.5 mb 0.00 in0.0 mm 0.00 in0.0 mm 0.00 in0.0 mm
02:52 PM 47.1°F8.4°C 28.9°F-1.7°C 49% 13.0 mph E20.9 kmh E 17.0 mph27.4 kmh 30.49 in1032.5 mb 0.00 in0.0 mm 0.00 in0.0 mm 0.00 in0.0 mm
02:53 PM 47.1°F8.4°C 29.4°F-1.4°C 50% 10.0 mph E16.1 kmh E 15.0 mph24.1 kmh 30.49 in1032.5 mb 0.00 in0.0 mm 0.00 in0.0 mm 0.00 in0.0 mm
02:54 PM 47.2°F8.4°C 29.0°F-1.7°C 49% 10.0 mph ENE16.1 kmh ENE 13.0 mph20.9 kmh 30.49 in1032.5 mb 0.00 in0.0 mm 0.00 in0.0 mm 0.00 in0.0 mm
02:55 PM 47.3°F8.5°C 29.1°F-1.6°C 49% 13.0 mph ENE20.9 kmh ENE 18.0 mph29.0 kmh 30.49 in1032.5 mb 0.00 in0.0 mm 0.00 in0.0 mm 0.00 in0.0 mm
02:56 PM 47.3°F8.5°C 28.6°F-1.9°C 48% 10.0 mph E16.1 kmh E 14.0 mph22.5 kmh 30.49 in1032.5 mb 0.00 in0.0 mm 0.00 in0.0 mm 0.00 in0.0 mm
02:57 PM 47.3°F8.5°C 28.6°F-1.9°C 48% 8.0 mph E12.9 kmh E 10.0 mph16.1 kmh 30.49 in1032.5 mb 0.00 in0.0 mm 0.00 in0.0 mm 0.00 in0.0 mm
02:58 PM 47.4°F8.6°C 29.2°F-1.6°C 49% 13.0 mph ESE20.9 kmh ESE 15.0 mph24.1 kmh 30.49 in1032.5 mb 0.00 in0.0 mm 0.00 in0.0 mm 0.00 in0.0 mm
02:59 PM 47.3°F8.5°C 28.6°F-1.9°C 48% 15.0 mph E24.1 kmh E 19.0 mph30.6 kmh 30.49 in1032.5 mb 0.00 in0.0 mm 0.00 in0.0 mm 0.00 in0.0 mm
03:00 PM 47.2°F8.4°C 28.5°F-1.9°C 48% 13.0 mph E20.9 kmh E 16.0 mph25.7 kmh 30.49 in1032.5 mb 0.00 in0.0 mm 0.00 in0.0 mm 0.00 in0.0 mm
03:01 PM 47.1°F8.4°C 28.4°F-2.0°C 48% 11.0 mph E17.7 kmh E 14.0 mph22.5 kmh 30.49 in1032.5 mb 0.00 in0.0 mm 0.00 in0.0 mm 0.00 in0.0 mm
03:02 PM 47.0°F8.3°C 28.3°F-2.1°C 48% 11.0 mph ESE17.7 kmh ESE 16.0 mph25.7 kmh 30.49 in1032.5 mb 0.00 in0.0 mm 0.00 in0.0 mm 0.00 in0.0 mm
03:03 PM 47.0°F8.3°C 28.8°F-1.8°C 49% 10.0 mph E16.1 kmh E 14.0 mph22.5 kmh 30.49 in1032.5 mb 0.00 in0.0 mm 0.00 in0.0 mm 0.00 in0.0 mm
03:04 PM 47.0°F8.3°C 28.8°F-1.8°C 49% 11.0 mph ENE17.7 kmh ENE 15.0 mph24.1 kmh 30.50 in1032.8 mb 0.00 in0.0 mm 0.00 in0.0 mm 0.00 in0.0 mm
03:05 PM 47.0°F8.3°C 28.3°F-2.1°C 48% 11.0 mph ENE17.7 kmh ENE 16.0 mph25.7 kmh 30.50 in1032.8 mb 0.00 in0.0 mm 0.00 in0.0 mm 0.00 in0.0 mm
03:06 PM 47.1°F8.4°C 28.9°F-1.7°C 49% 13.0 mph E20.9 kmh E 18.0 mph29.0 kmh 30.50 in1032.8 mb 0.00 in0.0 mm 0.00 in0.0 mm 0.00 in0.0 mm
03:07 PM 47.1°F8.4°C 28.9°F-1.7°C 49% 11.0 mph E17.7 kmh E 13.0 mph20.9 kmh 30.50 in1032.8 mb 0.00 in0.0 mm 0.00 in0.0 mm 0.00 in0.0 mm
03:08 PM 47.2°F8.4°C 29.0°F-1.7°C 49% 9.0 mph E14.5 kmh E 12.0 mph19.3 kmh 30.50 in1032.8 mb 0.00 in0.0 mm 0.00 in0.0 mm 0.00 in0.0 mm
03:09 PM 47.2°F8.4°C 29.0°F-1.7°C 49% 12.0 mph E19.3 kmh E 19.0 mph30.6 kmh 30.50 in1032.8 mb 0.00 in0.0 mm 0.00 in0.0 mm 0.00 in0.0 mm
03:10 PM 47.3°F8.5°C 29.1°F-1.6°C 49% 14.0 mph ENE22.5 kmh ENE 18.0 mph29.0 kmh 30.50 in1032.8 mb 0.00 in0.0 mm 0.00 in0.0 mm 0.00 in0.0 mm
03:11 PM 47.4°F8.6°C 29.2°F-1.6°C 49% 13.0 mph E20.9 kmh E 15.0 mph24.1 kmh 30.50 in1032.8 mb 0.00 in0.0 mm 0.00 in0.0 mm 0.00 in0.0 mm
03:12 PM 47.4°F8.6°C 28.7°F-1.8°C 48% 13.0 mph E20.9 kmh E 17.0 mph27.4 kmh 30.50 in1032.8 mb 0.00 in0.0 mm 0.00 in0.0 mm 0.00 in0.0 mm
03:13 PM 47.3°F8.5°C 28.6°F-1.9°C 48% 14.0 mph E22.5 kmh E 17.0 mph27.4 kmh 30.50 in1032.8 mb 0.00 in0.0 mm 0.00 in0.0 mm 0.00 in0.0 mm
03:14 PM 47.3°F8.5°C 28.6°F-1.9°C 48% 12.0 mph E19.3 kmh E 15.0 mph24.1 kmh 30.50 in1032.8 mb 0.00 in0.0 mm 0.00 in0.0 mm 0.00 in0.0 mm
03:15 PM 47.2°F8.4°C 28.5°F-1.9°C 48% 10.0 mph E16.1 kmh E 12.0 mph19.3 kmh 30.50 in1032.8 mb 0.00 in0.0 mm 0.00 in0.0 mm 0.00 in0.0 mm
03:16 PM 47.2°F8.4°C 28.5°F-1.9°C 48% 8.0 mph E12.9 kmh E 11.0 mph17.7 kmh 30.50 in1032.8 mb 0.00 in0.0 mm 0.00 in0.0 mm 0.00 in0.0 mm
03:17 PM 47.2°F8.4°C 28.5°F-1.9°C 48% 7.0 mph ESE11.3 kmh ESE 9.0 mph14.5 kmh 30.49 in1032.5 mb 0.00 in0.0 mm 0.00 in0.0 mm 0.00 in0.0 mm
03:18 PM 47.3°F8.5°C 29.1°F-1.6°C 49% 8.0 mph ESE12.9 kmh ESE 12.0 mph19.3 kmh 30.49 in1032.5 mb 0.00 in0.0 mm 0.00 in0.0 mm 0.00 in0.0 mm
03:19 PM 47.4°F8.6°C 29.2°F-1.6°C 49% 12.0 mph ESE19.3 kmh ESE 16.0 mph25.7 kmh 30.50 in1032.8 mb 0.00 in0.0 mm 0.00 in0.0 mm 0.00 in0.0 mm
03:20 PM 47.5°F8.6°C 29.3°F-1.5°C 49% 12.0 mph E19.3 kmh E 16.0 mph25.7 kmh 30.49 in1032.5 mb 0.00 in0.0 mm 0.00 in0.0 mm 0.00 in0.0 mm
03:21 PM 47.5°F8.6°C 29.3°F-1.5°C 49% 15.0 mph E24.1 kmh E 18.0 mph29.0 kmh 30.49 in1032.5 mb 0.00 in0.0 mm 0.00 in0.0 mm 0.00 in0.0 mm
03:22 PM 47.4°F8.6°C 28.7°F-1.8°C 48% 13.0 mph E20.9 kmh E 16.0 mph25.7 kmh 30.49 in1032.5 mb 0.00 in0.0 mm 0.00 in0.0 mm 0.00 in0.0 mm
03:23 PM 47.3°F8.5°C 29.1°F-1.6°C 49% 11.0 mph E17.7 kmh E 17.0 mph27.4 kmh 30.49 in1032.5 mb 0.00 in0.0 mm 0.00 in0.0 mm 0.00 in0.0 mm
03:24 PM 47.2°F8.4°C 29.0°F-1.7°C 49% 12.0 mph E19.3 kmh E 16.0 mph25.7 kmh 30.49 in1032.5 mb 0.00 in0.0 mm 0.00 in0.0 mm 0.00 in0.0 mm
03:25 PM 47.2°F8.4°C 29.0°F-1.7°C 49% 14.0 mph E22.5 kmh E 20.0 mph32.2 kmh 30.49 in1032.5 mb 0.00 in0.0 mm 0.00 in0.0 mm 0.00 in0.0 mm
03:26 PM 47.1°F8.4°C 28.9°F-1.7°C 49% 18.0 mph E29.0 kmh E 23.0 mph37.0 kmh 30.49 in1032.5 mb 0.00 in0.0 mm 0.00 in0.0 mm 0.00 in0.0 mm
03:27 PM 47.1°F8.4°C 28.9°F-1.7°C 49% 13.0 mph E20.9 kmh E 19.0 mph30.6 kmh 30.49 in1032.5 mb 0.00 in0.0 mm 0.00 in0.0 mm 0.00 in0.0 mm
03:28 PM 47.2°F8.4°C 29.5°F-1.4°C 50% 13.0 mph E20.9 kmh E 19.0 mph30.6 kmh 30.49 in1032.5 mb 0.00 in0.0 mm 0.00 in0.0 mm 0.00 in0.0 mm
03:29 PM 47.2°F8.4°C 29.0°F-1.7°C 49% 13.0 mph E20.9 kmh E 15.0 mph24.1 kmh 30.49 in1032.5 mb 0.00 in0.0 mm 0.00 in0.0 mm 0.00 in0.0 mm
03:30 PM 47.2°F8.4°C 29.0°F-1.7°C 49% 10.0 mph E16.1 kmh E 13.0 mph20.9 kmh 30.49 in1032.5 mb 0.00 in0.0 mm 0.00 in0.0 mm 0.00 in0.0 mm
03:31 PM 47.2°F8.4°C 29.5°F-1.4°C 50% 11.0 mph NE17.7 kmh NE 14.0 mph22.5 kmh 30.49 in1032.5 mb 0.00 in0.0 mm 0.00 in0.0 mm 0.00 in0.0 mm
03:32 PM 47.2°F8.4°C 29.0°F-1.7°C 49% 16.0 mph ENE25.7 kmh ENE 19.0 mph30.6 kmh 30.49 in1032.5 mb 0.00 in0.0 mm 0.00 in0.0 mm 0.00 in0.0 mm
03:33 PM 47.2°F8.4°C 29.0°F-1.7°C 49% 14.0 mph ENE22.5 kmh ENE 17.0 mph27.4 kmh 30.49 in1032.5 mb 0.00 in0.0 mm 0.00 in0.0 mm 0.00 in0.0 mm
03:34 PM 47.3°F8.5°C 29.1°F-1.6°C 49% 12.0 mph E19.3 kmh E 16.0 mph25.7 kmh 30.50 in1032.8 mb 0.00 in0.0 mm 0.00 in0.0 mm 0.00 in0.0 mm
03:35 PM 47.3°F8.5°C 28.6°F-1.9°C 48% 12.0 mph ESE19.3 kmh ESE 14.0 mph22.5 kmh 30.49 in1032.5 mb 0.00 in0.0 mm 0.00 in0.0 mm 0.00 in0.0 mm
03:36 PM 47.2°F8.4°C 28.0°F-2.2°C 47% 8.0 mph E12.9 kmh E 11.0 mph17.7 kmh 30.49 in1032.5 mb 0.00 in0.0 mm 0.00 in0.0 mm 0.00 in0.0 mm
03:37 PM 47.2°F8.4°C 28.5°F-1.9°C 48% 12.0 mph E19.3 kmh E 17.0 mph27.4 kmh 30.49 in1032.5 mb 0.00 in0.0 mm 0.00 in0.0 mm 0.00 in0.0 mm
03:38 PM 47.1°F8.4°C 28.9°F-1.7°C 49% 9.0 mph E14.5 kmh E 14.0 mph22.5 kmh 30.49 in1032.5 mb 0.00 in0.0 mm 0.00 in0.0 mm 0.00 in0.0 mm
03:39 PM 47.2°F8.4°C 29.0°F-1.7°C 49% 11.0 mph E17.7 kmh E 14.0 mph22.5 kmh 30.49 in1032.5 mb 0.00 in0.0 mm 0.00 in0.0 mm 0.00 in0.0 mm
03:40 PM 47.2°F8.4°C 29.0°F-1.7°C 49% 12.0 mph E19.3 kmh E 15.0 mph24.1 kmh 30.49 in1032.5 mb 0.00 in0.0 mm 0.00 in0.0 mm 0.00 in0.0 mm
03:41 PM 47.3°F8.5°C 29.1°F-1.6°C 49% 12.0 mph E19.3 kmh E 17.0 mph27.4 kmh 30.49 in1032.5 mb 0.00 in0.0 mm 0.00 in0.0 mm 0.00 in0.0 mm
03:42 PM 47.3°F8.5°C 29.1°F-1.6°C 49% 13.0 mph E20.9 kmh E 15.0 mph24.1 kmh 30.49 in1032.5 mb 0.00 in0.0 mm 0.00 in0.0 mm 0.00 in0.0 mm
03:43 PM 47.3°F8.5°C 28.6°F-1.9°C 48% 13.0 mph E20.9 kmh E 15.0 mph24.1 kmh 30.49 in1032.5 mb 0.00 in0.0 mm 0.00 in0.0 mm 0.00 in0.0 mm
03:44 PM 47.3°F8.5°C 28.6°F-1.9°C 48% 14.0 mph E22.5 kmh E 19.0 mph30.6 kmh 30.49 in1032.5 mb 0.00 in0.0 mm 0.00 in0.0 mm 0.00 in0.0 mm
03:45 PM 47.2°F8.4°C 28.5°F-1.9°C 48% 11.0 mph E17.7 kmh E 13.0 mph20.9 kmh 30.49 in1032.5 mb 0.00 in0.0 mm 0.00 in0.0 mm 0.00 in0.0 mm
03:46 PM 47.1°F8.4°C 28.4°F-2.0°C 48% 9.0 mph E14.5 kmh E 12.0 mph19.3 kmh 30.49 in1032.5 mb 0.00 in0.0 mm 0.00 in0.0 mm 0.00 in0.0 mm
03:47 PM 47.0°F8.3°C 28.8°F-1.8°C 49% 11.0 mph ESE17.7 kmh ESE 16.0 mph25.7 kmh 30.49 in1032.5 mb 0.00 in0.0 mm 0.00 in0.0 mm 0.00 in0.0 mm
03:48 PM 47.0°F8.3°C 28.8°F-1.8°C 49% 12.0 mph ESE19.3 kmh ESE 16.0 mph25.7 kmh 30.49 in1032.5 mb 0.00 in0.0 mm 0.00 in0.0 mm 0.00 in0.0 mm
03:49 PM 47.0°F8.3°C 28.8°F-1.8°C 49% 11.0 mph E17.7 kmh E 16.0 mph25.7 kmh 30.49 in1032.5 mb 0.00 in0.0 mm 0.00 in0.0 mm 0.00 in0.0 mm
03:50 PM 47.0°F8.3°C 28.8°F-1.8°C 49% 15.0 mph ESE24.1 kmh ESE 18.0 mph29.0 kmh 30.49 in1032.5 mb 0.00 in0.0 mm 0.00 in0.0 mm 0.00 in0.0 mm
03:51 PM 47.0°F8.3°C 28.8°F-1.8°C 49% 14.0 mph E22.5 kmh E 18.0 mph29.0 kmh 30.49 in1032.5 mb 0.00 in0.0 mm 0.00 in0.0 mm 0.00 in0.0 mm
03:52 PM 47.1°F8.4°C 28.4°F-2.0°C 48% 10.0 mph E16.1 kmh E 14.0 mph22.5 kmh 30.49 in1032.5 mb 0.00 in0.0 mm 0.00 in0.0 mm 0.00 in0.0 mm
03:53 PM 47.0°F8.3°C 28.3°F-2.1°C 48% 8.0 mph E12.9 kmh E 11.0 mph17.7 kmh 30.49 in1032.5 mb 0.00 in0.0 mm 0.00 in0.0 mm 0.00 in0.0 mm
03:54 PM 47.1°F8.4°C 28.9°F-1.7°C 49% 9.0 mph E14.5 kmh E 10.0 mph16.1 kmh 30.49 in1032.5 mb 0.00 in0.0 mm 0.00 in0.0 mm 0.00 in0.0 mm
03:55 PM 47.2°F8.4°C 29.0°F-1.7°C 49% 10.0 mph ESE16.1 kmh ESE 13.0 mph20.9 kmh 30.49 in1032.5 mb 0.00 in0.0 mm 0.00 in0.0 mm 0.00 in0.0 mm
03:56 PM 47.2°F8.4°C 29.0°F-1.7°C 49% 10.0 mph ESE16.1 kmh ESE 12.0 mph19.3 kmh 30.49 in1032.5 mb 0.00 in0.0 mm 0.00 in0.0 mm 0.00 in0.0 mm
03:57 PM 47.3°F8.5°C 29.1°F-1.6°C 49% 14.0 mph E22.5 kmh E 16.0 mph25.7 kmh 30.49 in1032.5 mb 0.00 in0.0 mm 0.00 in0.0 mm 0.00 in0.0 mm
03:58 PM 47.3°F8.5°C 28.6°F-1.9°C 48% 13.0 mph ESE20.9 kmh ESE 16.0 mph25.7 kmh 30.49 in1032.5 mb 0.00 in0.0 mm 0.00 in0.0 mm 0.00 in0.0 mm
03:59 PM 47.3°F8.5°C 29.1°F-1.6°C 49% 10.0 mph E16.1 kmh E 12.0 mph19.3 kmh 30.49 in1032.5 mb 0.00 in0.0 mm 0.00 in0.0 mm 0.00 in0.0 mm
04:00 PM 47.2°F8.4°C 29.0°F-1.7°C 49% 12.0 mph ESE19.3 kmh ESE 15.0 mph24.1 kmh 30.49 in1032.5 mb 0.00 in0.0 mm 0.00 in0.0 mm 0.00 in0.0 mm
04:01 PM 47.2°F8.4°C 29.0°F-1.7°C 49% 13.0 mph E20.9 kmh E 16.0 mph25.7 kmh 30.49 in1032.5 mb 0.00 in0.0 mm 0.00 in0.0 mm 0.00 in0.0 mm
04:02 PM 47.2°F8.4°C 29.0°F-1.7°C 49% 12.0 mph E19.3 kmh E 18.0 mph29.0 kmh 30.49 in1032.5 mb 0.00 in0.0 mm 0.00 in0.0 mm 0.00 in0.0 mm
04:03 PM 47.2°F8.4°C 29.0°F-1.7°C 49% 7.0 mph E11.3 kmh E 10.0 mph16.1 kmh 30.49 in1032.5 mb 0.00 in0.0 mm 0.00 in0.0 mm 0.00 in0.0 mm
04:04 PM 47.2°F8.4°C 29.0°F-1.7°C 49% 5.0 mph ENE8.0 kmh ENE 8.0 mph12.9 kmh 30.49 in1032.5 mb 0.00 in0.0 mm 0.00 in0.0 mm 0.00 in0.0 mm
04:05 PM 47.3°F8.5°C 29.6°F-1.3°C 50% 10.0 mph ESE16.1 kmh ESE 13.0 mph20.9 kmh 30.49 in1032.5 mb 0.00 in0.0 mm 0.00 in0.0 mm 0.00 in0.0 mm
04:06 PM 47.4°F8.6°C 29.2°F-1.6°C 49% 13.0 mph ENE20.9 kmh ENE 16.0 mph25.7 kmh 30.49 in1032.5 mb 0.00 in0.0 mm 0.00 in0.0 mm 0.00 in0.0 mm
04:07 PM 47.4°F8.6°C 29.2°F-1.6°C 49% 10.0 mph ENE16.1 kmh ENE 13.0 mph20.9 kmh 30.49 in1032.5 mb 0.00 in0.0 mm 0.00 in0.0 mm 0.00 in0.0 mm
04:08 PM 47.4°F8.6°C 29.2°F-1.6°C 49% 8.0 mph E12.9 kmh E 11.0 mph17.7 kmh 30.49 in1032.5 mb 0.00 in0.0 mm 0.00 in0.0 mm 0.00 in0.0 mm
04:09 PM 47.5°F8.6°C 28.8°F-1.8°C 48% 9.0 mph E14.5 kmh E 12.0 mph19.3 kmh 30.49 in1032.5 mb 0.00 in0.0 mm 0.00 in0.0 mm 0.00 in0.0 mm
04:10 PM 47.5°F8.6°C 28.8°F-1.8°C 48% 9.0 mph E14.5 kmh E 12.0 mph19.3 kmh 30.49 in1032.5 mb 0.00 in0.0 mm 0.00 in0.0 mm 0.00 in0.0 mm
04:11 PM 47.5°F8.6°C 28.8°F-1.8°C 48% 11.0 mph ESE17.7 kmh ESE 15.0 mph24.1 kmh 30.49 in1032.5 mb 0.00 in0.0 mm 0.00 in0.0 mm 0.00 in0.0 mm
04:12 PM 47.4°F8.6°C 28.7°F-1.8°C 48% 9.0 mph ESE14.5 kmh ESE 12.0 mph19.3 kmh 30.49 in1032.5 mb 0.00 in0.0 mm 0.00 in0.0 mm 0.00 in0.0 mm
04:13 PM 47.4°F8.6°C 28.7°F-1.8°C 48% 9.0 mph ESE14.5 kmh ESE 11.0 mph17.7 kmh 30.49 in1032.5 mb 0.00 in0.0 mm 0.00 in0.0 mm 0.00 in0.0 mm
04:14 PM 47.4°F8.6°C 28.7°F-1.8°C 48% 11.0 mph ESE17.7 kmh ESE 16.0 mph25.7 kmh 30.49 in1032.5 mb 0.00 in0.0 mm 0.00 in0.0 mm 0.00 in0.0 mm
04:15 PM 47.4°F8.6°C 29.2°F-1.6°C 49% 11.0 mph E17.7 kmh E 15.0 mph24.1 kmh 30.49 in1032.5 mb 0.00 in0.0 mm 0.00 in0.0 mm 0.00 in0.0 mm
04:16 PM 47.3°F8.5°C 29.1°F-1.6°C 49% 9.0 mph E14.5 kmh E 11.0 mph17.7 kmh 30.49 in1032.5 mb 0.00 in0.0 mm 0.00 in0.0 mm 0.00 in0.0 mm
04:17 PM 47.3°F8.5°C 29.1°F-1.6°C 49% 12.0 mph E19.3 kmh E 16.0 mph25.7 kmh 30.49 in1032.5 mb 0.00 in0.0 mm 0.00 in0.0 mm 0.00 in0.0 mm
04:18 PM 47.3°F8.5°C 29.1°F-1.6°C 49% 12.0 mph ESE19.3 kmh ESE 15.0 mph24.1 kmh 30.49 in1032.5 mb 0.00 in0.0 mm 0.00 in0.0 mm 0.00 in0.0 mm
04:19 PM 47.2°F8.4°C 28.5°F-1.9°C 48% 9.0 mph ESE14.5 kmh ESE 12.0 mph19.3 kmh 30.49 in1032.5 mb 0.00 in0.0 mm 0.00 in0.0 mm 0.00 in0.0 mm
04:20 PM 47.2°F8.4°C 28.5°F-1.9°C 48% 9.0 mph E14.5 kmh E 11.0 mph17.7 kmh 30.49 in1032.5 mb 0.00 in0.0 mm 0.00 in0.0 mm 0.00 in0.0 mm
04:21 PM 47.2°F8.4°C 29.0°F-1.7°C 49% 8.0 mph E12.9 kmh E 10.0 mph16.1 kmh 30.49 in1032.5 mb 0.00 in0.0 mm 0.00 in0.0 mm 0.00 in0.0 mm
04:22 PM 47.2°F8.4°C 29.5°F-1.4°C 50% 9.0 mph E14.5 kmh E 14.0 mph22.5 kmh 30.49 in1032.5 mb 0.00 in0.0 mm 0.00 in0.0 mm 0.00 in0.0 mm
04:23 PM 47.3°F8.5°C 29.6°F-1.3°C 50% 12.0 mph E19.3 kmh E 16.0 mph25.7 kmh 30.49 in1032.5 mb 0.00 in0.0 mm 0.00 in0.0 mm 0.00 in0.0 mm
04:24 PM 47.3°F8.5°C 29.1°F-1.6°C 49% 11.0 mph E17.7 kmh E 15.0 mph24.1 kmh 30.49 in1032.5 mb 0.00 in0.0 mm 0.00 in0.0 mm 0.00 in0.0 mm
04:25 PM 47.4°F8.6°C 29.2°F-1.6°C 49% 8.0 mph ESE12.9 kmh ESE 10.0 mph16.1 kmh 30.49 in1032.5 mb 0.00 in0.0 mm 0.00 in0.0 mm 0.00 in0.0 mm
04:26 PM 47.4°F8.6°C 29.7°F-1.3°C 50% 8.0 mph E12.9 kmh E 9.0 mph14.5 kmh 30.49 in1032.5 mb 0.00 in0.0 mm 0.00 in0.0 mm 0.00 in0.0 mm
04:27 PM 47.5°F8.6°C 29.3°F-1.5°C 49% 10.0 mph E16.1 kmh E 14.0 mph22.5 kmh 30.49 in1032.5 mb 0.00 in0.0 mm 0.00 in0.0 mm 0.00 in0.0 mm
04:28 PM 47.6°F8.7°C 29.4°F-1.4°C 49% 10.0 mph ESE16.1 kmh ESE 14.0 mph22.5 kmh 30.49 in1032.5 mb 0.00 in0.0 mm 0.00 in0.0 mm 0.00 in0.0 mm
04:29 PM 47.5°F8.6°C 28.8°F-1.8°C 48% 11.0 mph ESE17.7 kmh ESE 13.0 mph20.9 kmh 30.49 in1032.5 mb 0.00 in0.0 mm 0.00 in0.0 mm 0.00 in0.0 mm
04:30 PM 47.5°F8.6°C 28.8°F-1.8°C 48% 10.0 mph ESE16.1 kmh ESE 11.0 mph17.7 kmh 30.49 in1032.5 mb 0.00 in0.0 mm 0.00 in0.0 mm 0.00 in0.0 mm
04:31 PM 47.4°F8.6°C 28.7°F-1.8°C 48% 8.0 mph E12.9 kmh E 9.0 mph14.5 kmh 30.49 in1032.5 mb 0.00 in0.0 mm 0.00 in0.0 mm 0.00 in0.0 mm
04:32 PM 47.4°F8.6°C 28.7°F-1.8°C 48% 8.0 mph E12.9 kmh E 10.0 mph16.1 kmh 30.49 in1032.5 mb 0.00 in0.0 mm 0.00 in0.0 mm 0.00 in0.0 mm
04:33 PM 47.3°F8.5°C 28.6°F-1.9°C 48% 7.0 mph E11.3 kmh E 10.0 mph16.1 kmh 30.49 in1032.5 mb 0.00 in0.0 mm 0.00 in0.0 mm 0.00 in0.0 mm
04:34 PM 47.4°F8.6°C 29.2°F-1.6°C 49% 8.0 mph ESE12.9 kmh ESE 15.0 mph24.1 kmh 30.49 in1032.5 mb 0.00 in0.0 mm 0.00 in0.0 mm 0.00 in0.0 mm
04:35 PM 47.3°F8.5°C 28.6°F-1.9°C 48% 11.0 mph E17.7 kmh E 13.0 mph20.9 kmh 30.49 in1032.5 mb 0.00 in0.0 mm 0.00 in0.0 mm 0.00 in0.0 mm
04:36 PM 47.3°F8.5°C 28.6°F-1.9°C 48% 8.0 mph E12.9 kmh E 11.0 mph17.7 kmh 30.49 in1032.5 mb 0.00 in0.0 mm 0.00 in0.0 mm 0.00 in0.0 mm
04:37 PM 47.3°F8.5°C 28.6°F-1.9°C 48% 10.0 mph ENE16.1 kmh ENE 14.0 mph22.5 kmh 30.49 in1032.5 mb 0.00 in0.0 mm 0.00 in0.0 mm 0.00 in0.0 mm
04:38 PM 47.3°F8.5°C 28.6°F-1.9°C 48% 5.0 mph E8.0 kmh E 8.0 mph12.9 kmh 30.49 in1032.5 mb 0.00 in0.0 mm 0.00 in0.0 mm 0.00 in0.0 mm
04:39 PM 47.3°F8.5°C 28.6°F-1.9°C 48% 9.0 mph NE14.5 kmh NE 14.0 mph22.5 kmh 30.49 in1032.5 mb 0.00 in0.0 mm 0.00 in0.0 mm 0.00 in0.0 mm
04:40 PM 47.5°F8.6°C 28.8°F-1.8°C 48% 12.0 mph ESE19.3 kmh ESE 19.0 mph30.6 kmh 30.49 in1032.5 mb 0.00 in0.0 mm 0.00 in0.0 mm 0.00 in0.0 mm
04:41 PM 47.5°F8.6°C 28.8°F-1.8°C 48% 12.0 mph ESE19.3 kmh ESE 14.0 mph22.5 kmh 30.49 in1032.5 mb 0.00 in0.0 mm 0.00 in0.0 mm 0.00 in0.0 mm
04:42 PM 47.4°F8.6°C 28.2°F-2.1°C 47% 9.0 mph E14.5 kmh E 12.0 mph19.3 kmh 30.49 in1032.5 mb 0.00 in0.0 mm 0.00 in0.0 mm 0.00 in0.0 mm
04:43 PM 47.3°F8.5°C 28.1°F-2.2°C 47% 10.0 mph E16.1 kmh E 14.0 mph22.5 kmh 30.49 in1032.5 mb 0.00 in0.0 mm 0.00 in0.0 mm 0.00 in0.0 mm
04:44 PM 47.3°F8.5°C 28.1°F-2.2°C 47% 10.0 mph E16.1 kmh E 13.0 mph20.9 kmh 30.49 in1032.5 mb 0.00 in0.0 mm 0.00 in0.0 mm 0.00 in0.0 mm
04:45 PM 47.2°F8.4°C 28.5°F-1.9°C 48% 10.0 mph E16.1 kmh E 13.0 mph20.9 kmh 30.50 in1032.8 mb 0.00 in0.0 mm 0.00 in0.0 mm 0.00 in0.0 mm
04:46 PM 47.2°F8.4°C 28.5°F-1.9°C 48% 7.0 mph ESE11.3 kmh ESE 9.0 mph14.5 kmh 30.49 in1032.5 mb 0.00 in0.0 mm 0.00 in0.0 mm 0.00 in0.0 mm
04:47 PM 47.2°F8.4°C 28.5°F-1.9°C 48% 9.0 mph E14.5 kmh E 13.0 mph20.9 kmh 30.49 in1032.5 mb 0.00 in0.0 mm 0.00 in0.0 mm 0.00 in0.0 mm
04:48 PM 47.2°F8.4°C 29.0°F-1.7°C 49% 10.0 mph E16.1 kmh E 14.0 mph22.5 kmh 30.49 in1032.5 mb 0.00 in0.0 mm 0.00 in0.0 mm 0.00 in0.0 mm
04:49 PM 47.2°F8.4°C 28.5°F-1.9°C 48% 12.0 mph E19.3 kmh E 14.0 mph22.5 kmh 30.50 in1032.8 mb 0.00 in0.0 mm 0.00 in0.0 mm 0.00 in0.0 mm
04:50 PM 47.3°F8.5°C 28.6°F-1.9°C 48% 11.0 mph E17.7 kmh E 13.0 mph20.9 kmh 30.50 in1032.8 mb 0.00 in0.0 mm 0.00 in0.0 mm 0.00 in0.0 mm
04:51 PM 47.2°F8.4°C 28.0°F-2.2°C 47% 10.0 mph E16.1 kmh E 13.0 mph20.9 kmh 30.50 in1032.8 mb 0.00 in0.0 mm 0.00 in0.0 mm 0.00 in0.0 mm
04:52 PM 47.2°F8.4°C 28.5°F-1.9°C 48% 10.0 mph NE16.1 kmh NE 15.0 mph24.1 kmh 30.50 in1032.8 mb 0.00 in0.0 mm 0.00 in0.0 mm 0.00 in0.0 mm
04:53 PM 47.2°F8.4°C 28.5°F-1.9°C 48% 10.0 mph ENE16.1 kmh ENE 13.0 mph20.9 kmh 30.49 in1032.5 mb 0.00 in0.0 mm 0.00 in0.0 mm 0.00 in0.0 mm
04:54 PM 47.3°F8.5°C 28.6°F-1.9°C 48% 12.0 mph ENE19.3 kmh ENE 17.0 mph27.4 kmh 30.49 in1032.5 mb 0.00 in0.0 mm 0.00 in0.0 mm 0.00 in0.0 mm
04:55 PM 47.3°F8.5°C 29.1°F-1.6°C 49% 11.0 mph ENE17.7 kmh ENE 14.0 mph22.5 kmh 30.49 in1032.5 mb 0.00 in0.0 mm 0.00 in0.0 mm 0.00 in0.0 mm
04:56 PM 47.4°F8.6°C 28.7°F-1.8°C 48% 9.0 mph ENE14.5 kmh ENE 10.0 mph16.1 kmh 30.50 in1032.8 mb 0.00 in0.0 mm 0.00 in0.0 mm 0.00 in0.0 mm
04:57 PM 47.4°F8.6°C 28.7°F-1.8°C 48% 9.0 mph E14.5 kmh E 13.0 mph20.9 kmh 30.50 in1032.8 mb 0.00 in0.0 mm 0.00 in0.0 mm 0.00 in0.0 mm
04:58 PM 47.4°F8.6°C 28.7°F-1.8°C 48% 10.0 mph E16.1 kmh E 13.0 mph20.9 kmh 30.49 in1032.5 mb 0.00 in0.0 mm 0.00 in0.0 mm 0.00 in0.0 mm
04:59 PM 47.5°F8.6°C 28.8°F-1.8°C 48% 10.0 mph E16.1 kmh E 14.0 mph22.5 kmh 30.49 in1032.5 mb 0.00 in0.0 mm 0.00 in0.0 mm 0.00 in0.0 mm
05:00 PM 47.4°F8.6°C 28.7°F-1.8°C 48% 9.0 mph ENE14.5 kmh ENE 11.0 mph17.7 kmh 30.49 in1032.5 mb 0.00 in0.0 mm 0.00 in0.0 mm 0.00 in0.0 mm
05:01 PM 47.3°F8.5°C 28.6°F-1.9°C 48% 9.0 mph ENE14.5 kmh ENE 10.0 mph16.1 kmh 30.50 in1032.8 mb 0.00 in0.0 mm 0.00 in0.0 mm 0.00 in0.0 mm
05:02 PM 47.3°F8.5°C 28.6°F-1.9°C 48% 9.0 mph E14.5 kmh E 11.0 mph17.7 kmh 30.49 in1032.5 mb 0.00 in0.0 mm 0.00 in0.0 mm 0.00 in0.0 mm
05:03 PM 47.3°F8.5°C 28.6°F-1.9°C 48% 8.0 mph E12.9 kmh E 11.0 mph17.7 kmh 30.50 in1032.8 mb 0.00 in0.0 mm 0.00 in0.0 mm 0.00 in0.0 mm
05:04 PM 47.4°F8.6°C 28.7°F-1.8°C 48% 8.0 mph ENE12.9 kmh ENE 10.0 mph16.1 kmh 30.49 in1032.5 mb 0.00 in0.0 mm 0.00 in0.0 mm 0.00 in0.0 mm
05:05 PM 47.4°F8.6°C 28.7°F-1.8°C 48% 11.0 mph E17.7 kmh E 14.0 mph22.5 kmh 30.49 in1032.5 mb 0.00 in0.0 mm 0.00 in0.0 mm 0.00 in0.0 mm
05:06 PM 47.3°F8.5°C 28.1°F-2.2°C 47% 9.0 mph E14.5 kmh E 11.0 mph17.7 kmh 30.49 in1032.5 mb 0.00 in0.0 mm 0.00 in0.0 mm 0.00 in0.0 mm
05:07 PM 47.3°F8.5°C 28.6°F-1.9°C 48% 9.0 mph E14.5 kmh E 11.0 mph17.7 kmh 30.49 in1032.5 mb 0.00 in0.0 mm 0.00 in0.0 mm 0.00 in0.0 mm
05:08 PM 47.3°F8.5°C 28.1°F-2.2°C 47% 7.0 mph ESE11.3 kmh ESE 11.0 mph17.7 kmh 30.50 in1032.8 mb 0.00 in0.0 mm 0.00 in0.0 mm 0.00 in0.0 mm
05:09 PM 47.3°F8.5°C 28.1°F-2.2°C 47% 7.0 mph ESE11.3 kmh ESE 9.0 mph14.5 kmh 30.49 in1032.5 mb 0.00 in0.0 mm 0.00 in0.0 mm 0.00 in0.0 mm
05:10 PM 47.3°F8.5°C 28.1°F-2.2°C 47% 8.0 mph ESE12.9 kmh ESE 13.0 mph20.9 kmh 30.49 in1032.5 mb 0.00 in0.0 mm 0.00 in0.0 mm 0.00 in0.0 mm
05:11 PM 47.4°F8.6°C 28.2°F-2.1°C 47% 11.0 mph E17.7 kmh E 14.0 mph22.5 kmh 30.49 in1032.5 mb 0.00 in0.0 mm 0.00 in0.0 mm 0.00 in0.0 mm
05:12 PM 47.3°F8.5°C 28.1°F-2.2°C 47% 11.0 mph E17.7 kmh E 13.0 mph20.9 kmh 30.49 in1032.5 mb 0.00 in0.0 mm 0.00 in0.0 mm 0.00 in0.0 mm
05:13 PM 47.3°F8.5°C 28.1°F-2.2°C 47% 11.0 mph ENE17.7 kmh ENE 13.0 mph20.9 kmh 30.49 in1032.5 mb 0.00 in0.0 mm 0.00 in0.0 mm 0.00 in0.0 mm
05:14 PM 47.3°F8.5°C 28.1°F-2.2°C 47% 11.0 mph ENE17.7 kmh ENE 13.0 mph20.9 kmh 30.49 in1032.5 mb 0.00 in0.0 mm 0.00 in0.0 mm 0.00 in0.0 mm
05:15 PM 47.2°F8.4°C 28.0°F-2.2°C 47% 10.0 mph ESE16.1 kmh ESE 12.0 mph19.3 kmh 30.49 in1032.5 mb 0.00 in0.0 mm 0.00 in0.0 mm 0.00 in0.0 mm
05:16 PM 47.2°F8.4°C 28.0°F-2.2°C 47% 10.0 mph ESE16.1 kmh ESE 13.0 mph20.9 kmh 30.49 in1032.5 mb 0.00 in0.0 mm 0.00 in0.0 mm 0.00 in0.0 mm
05:17 PM 47.2°F8.4°C 28.0°F-2.2°C 47% 6.0 mph E9.7 kmh E 9.0 mph14.5 kmh 30.49 in1032.5 mb 0.00 in0.0 mm 0.00 in0.0 mm 0.00 in0.0 mm
05:18 PM 47.2°F8.4°C 28.0°F-2.2°C 47% 5.0 mph E8.0 kmh E 7.0 mph11.3 kmh 30.49 in1032.5 mb 0.00 in0.0 mm 0.00 in0.0 mm 0.00 in0.0 mm
05:19 PM 47.2°F8.4°C 28.5°F-1.9°C 48% 7.0 mph ENE11.3 kmh ENE 11.0 mph17.7 kmh 30.49 in1032.5 mb 0.00 in0.0 mm 0.00 in0.0 mm 0.00 in0.0 mm
05:20 PM 47.2°F8.4°C 28.0°F-2.2°C 47% 8.0 mph E12.9 kmh E 10.0 mph16.1 kmh 30.49 in1032.5 mb 0.00 in0.0 mm 0.00 in0.0 mm 0.00 in0.0 mm
05:21 PM 47.3°F8.5°C 28.1°F-2.2°C 47% 10.0 mph ENE16.1 kmh ENE 13.0 mph20.9 kmh 30.49 in1032.5 mb 0.00 in0.0 mm 0.00 in0.0 mm 0.00 in0.0 mm
05:22 PM 47.3°F8.5°C 28.1°F-2.2°C 47% 10.0 mph ENE16.1 kmh ENE 13.0 mph20.9 kmh 30.49 in1032.5 mb 0.00 in0.0 mm 0.00 in0.0 mm 0.00 in0.0 mm
05:23 PM 47.3°F8.5°C 28.1°F-2.2°C 47% 8.0 mph NE12.9 kmh NE 13.0 mph20.9 kmh 30.49 in1032.5 mb 0.00 in0.0 mm 0.00 in0.0 mm 0.00 in0.0 mm
05:24 PM 47.3°F8.5°C 28.1°F-2.2°C 47% 9.0 mph ENE14.5 kmh ENE 12.0 mph19.3 kmh 30.49 in1032.5 mb 0.00 in0.0 mm 0.00 in0.0 mm 0.00 in0.0 mm
05:25 PM 47.3°F8.5°C 28.1°F-2.2°C 47% 12.0 mph NE19.3 kmh NE 17.0 mph27.4 kmh 30.49 in1032.5 mb 0.00 in0.0 mm 0.00 in0.0 mm 0.00 in0.0 mm
05:26 PM 47.3°F8.5°C 28.1°F-2.2°C 47% 11.0 mph ENE17.7 kmh ENE 14.0 mph22.5 kmh 30.49 in1032.5 mb 0.00 in0.0 mm 0.00 in0.0 mm 0.00 in0.0 mm
05:27 PM 47.3°F8.5°C 28.1°F-2.2°C 47% 10.0 mph ENE16.1 kmh ENE 12.0 mph19.3 kmh 30.49 in1032.5 mb 0.00 in0.0 mm 0.00 in0.0 mm 0.00 in0.0 mm
05:28 PM 47.2°F8.4°C 28.0°F-2.2°C 47% 10.0 mph E16.1 kmh E 13.0 mph20.9 kmh 30.49 in1032.5 mb 0.00 in0.0 mm 0.00 in0.0 mm 0.00 in0.0 mm
05:29 PM 47.2°F8.4°C 28.0°F-2.2°C 47% 11.0 mph E17.7 kmh E 13.0 mph20.9 kmh 30.49 in1032.5 mb 0.00 in0.0 mm 0.00 in0.0 mm 0.00 in0.0 mm
05:30 PM 47.1°F8.4°C 27.9°F-2.3°C 47% 11.0 mph E17.7 kmh E 13.0 mph20.9 kmh 30.49 in1032.5 mb 0.00 in0.0 mm 0.00 in0.0 mm 0.00 in0.0 mm
05:31 PM 47.1°F8.4°C 27.9°F-2.3°C 47% 10.0 mph ENE16.1 kmh ENE 14.0 mph22.5 kmh 30.49 in1032.5 mb 0.00 in0.0 mm 0.00 in0.0 mm 0.00 in0.0 mm
05:32 PM 47.0°F8.3°C 27.8°F-2.3°C 47% 10.0 mph ENE16.1 kmh ENE 14.0 mph22.5 kmh 30.49 in1032.5 mb 0.00 in0.0 mm 0.00 in0.0 mm 0.00 in0.0 mm
05:33 PM 47.0°F8.3°C 27.8°F-2.3°C 47% 9.0 mph E14.5 kmh E 11.0 mph17.7 kmh 30.49 in1032.5 mb 0.00 in0.0 mm 0.00 in0.0 mm 0.00 in0.0 mm
05:34 PM 47.0°F8.3°C 27.8°F-2.3°C 47% 7.0 mph E11.3 kmh E 9.0 mph14.5 kmh 30.49 in1032.5 mb 0.00 in0.0 mm 0.00 in0.0 mm 0.00 in0.0 mm
05:35 PM 47.0°F8.3°C 27.8°F-2.3°C 47% 7.0 mph E11.3 kmh E 9.0 mph14.5 kmh 30.49 in1032.5 mb 0.00 in0.0 mm 0.00 in0.0 mm 0.00 in0.0 mm
05:36 PM 47.0°F8.3°C 27.8°F-2.3°C 47% 8.0 mph E12.9 kmh E 10.0 mph16.1 kmh 30.49 in1032.5 mb 0.00 in0.0 mm 0.00 in0.0 mm 0.00 in0.0 mm
05:37 PM 47.0°F8.3°C 27.8°F-2.3°C 47% 8.0 mph E12.9 kmh E 9.0 mph14.5 kmh 30.49 in1032.5 mb 0.00 in0.0 mm 0.00 in0.0 mm 0.00 in0.0 mm
05:38 PM 47.0°F8.3°C 27.8°F-2.3°C 47% 10.0 mph E16.1 kmh E 12.0 mph19.3 kmh 30.49 in1032.5 mb 0.00 in0.0 mm 0.00 in0.0 mm 0.00 in0.0 mm
05:39 PM 47.0°F8.3°C 27.8°F-2.3°C 47% 10.0 mph E16.1 kmh E 12.0 mph19.3 kmh 30.49 in1032.5 mb 0.00 in0.0 mm 0.00 in0.0 mm 0.00 in0.0 mm
05:40 PM 47.0°F8.3°C 27.8°F-2.3°C 47% 8.0 mph E12.9 kmh E 10.0 mph16.1 kmh 30.49 in1032.5 mb 0.00 in0.0 mm 0.00 in0.0 mm 0.00 in0.0 mm
05:41 PM 47.0°F8.3°C 27.8°F-2.3°C 47% 8.0 mph E12.9 kmh E 11.0 mph17.7 kmh 30.49 in1032.5 mb 0.00 in0.0 mm 0.00 in0.0 mm 0.00 in0.0 mm
05:42 PM 47.0°F8.3°C 27.8°F-2.3°C 47% 9.0 mph E14.5 kmh E 13.0 mph20.9 kmh 30.49 in1032.5 mb 0.00 in0.0 mm 0.00 in0.0 mm 0.00 in0.0 mm
05:43 PM 46.9°F8.3°C 27.7°F-2.4°C 47% 8.0 mph E12.9 kmh E 11.0 mph17.7 kmh 30.49 in1032.5 mb 0.00 in0.0 mm 0.00 in0.0 mm 0.00 in0.0 mm
05:44 PM 47.0°F8.3°C 27.8°F-2.3°C 47% 9.0 mph E14.5 kmh E 11.0 mph17.7 kmh 30.49 in1032.5 mb 0.00 in0.0 mm 0.00 in0.0 mm 0.00 in0.0 mm
05:45 PM 46.9°F8.3°C 27.7°F-2.4°C 47% 8.0 mph E12.9 kmh E 12.0 mph19.3 kmh 30.49 in1032.5 mb 0.00 in0.0 mm 0.00 in0.0 mm 0.00 in0.0 mm
05:46 PM 46.9°F8.3°C 27.2°F-2.7°C 46% 10.0 mph E16.1 kmh E 11.0 mph17.7 kmh 30.49 in1032.5 mb 0.00 in0.0 mm 0.00 in0.0 mm 0.00 in0.0 mm
05:47 PM 46.9°F8.3°C 27.2°F-2.7°C 46% 9.0 mph E14.5 kmh E 11.0 mph17.7 kmh 30.49 in1032.5 mb 0.00 in0.0 mm 0.00 in0.0 mm 0.00 in0.0 mm
05:48 PM 46.9°F8.3°C 27.2°F-2.7°C 46% 7.0 mph ENE11.3 kmh ENE 10.0 mph16.1 kmh 30.49 in1032.5 mb 0.00 in0.0 mm 0.00 in0.0 mm 0.00 in0.0 mm
05:49 PM 46.9°F8.3°C 27.2°F-2.7°C 46% 10.0 mph ENE16.1 kmh ENE 12.0 mph19.3 kmh 30.49 in1032.5 mb 0.00 in0.0 mm 0.00 in0.0 mm 0.00 in0.0 mm
05:50 PM 46.8°F8.2°C 27.6°F-2.4°C 47% 6.0 mph E9.7 kmh E 9.0 mph14.5 kmh 30.49 in1032.5 mb 0.00 in0.0 mm 0.00 in0.0 mm 0.00 in0.0 mm
05:51 PM 46.9°F8.3°C 27.2°F-2.7°C 46% 6.0 mph ESE9.7 kmh ESE 11.0 mph17.7 kmh 30.49 in1032.5 mb 0.00 in0.0 mm 0.00 in0.0 mm 0.00 in0.0 mm
05:52 PM 46.9°F8.3°C 27.2°F-2.7°C 46% 11.0 mph E17.7 kmh E 13.0 mph20.9 kmh 30.49 in1032.5 mb 0.00 in0.0 mm 0.00 in0.0 mm 0.00 in0.0 mm
05:53 PM 46.9°F8.3°C 27.2°F-2.7°C 46% 11.0 mph E17.7 kmh E 14.0 mph22.5 kmh 30.49 in1032.5 mb 0.00 in0.0 mm 0.00 in0.0 mm 0.00 in0.0 mm
05:54 PM 46.9°F8.3°C 26.7°F-2.9°C 45% 8.0 mph E12.9 kmh E 11.0 mph17.7 kmh 30.49 in1032.5 mb 0.00 in0.0 mm 0.00 in0.0 mm 0.00 in0.0 mm
05:55 PM 46.8°F8.2°C 26.6°F-3.0°C 45% 7.0 mph E11.3 kmh E 9.0 mph14.5 kmh 30.49 in1032.5 mb 0.00 in0.0 mm 0.00 in0.0 mm 0.00 in0.0 mm
05:56 PM 46.8°F8.2°C 26.6°F-3.0°C 45% 7.0 mph E11.3 kmh E 9.0 mph14.5 kmh 30.49 in1032.5 mb 0.00 in0.0 mm 0.00 in0.0 mm 0.00 in0.0 mm
05:57 PM 46.8°F8.2°C 26.6°F-3.0°C 45% 10.0 mph E16.1 kmh E 14.0 mph22.5 kmh 30.49 in1032.5 mb 0.00 in0.0 mm 0.00 in0.0 mm 0.00 in0.0 mm
05:58 PM 46.7°F8.2°C 26.0°F-3.3°C 44% 10.0 mph E16.1 kmh E 14.0 mph22.5 kmh 30.49 in1032.5 mb 0.00 in0.0 mm 0.00 in0.0 mm 0.00 in0.0 mm
05:59 PM 46.7°F8.2°C 26.0°F-3.3°C 44% 10.0 mph ENE16.1 kmh ENE 13.0 mph20.9 kmh 30.49 in1032.5 mb 0.00 in0.0 mm 0.00 in0.0 mm 0.00 in0.0 mm
06:00 PM 46.7°F8.2°C 26.0°F-3.3°C 44% 11.0 mph ENE17.7 kmh ENE 14.0 mph22.5 kmh 30.49 in1032.5 mb 0.00 in0.0 mm 0.00 in0.0 mm 0.00 in0.0 mm
06:01 PM 46.7°F8.2°C 26.5°F-3.1°C 45% 10.0 mph E16.1 kmh E 13.0 mph20.9 kmh 30.49 in1032.5 mb 0.00 in0.0 mm 0.00 in0.0 mm 0.00 in0.0 mm
06:02 PM 46.6°F8.1°C 25.9°F-3.4°C 44% 9.0 mph ENE14.5 kmh ENE 12.0 mph19.3 kmh 30.49 in1032.5 mb 0.00 in0.0 mm 0.00 in0.0 mm 0.00 in0.0 mm
06:03 PM 46.6°F8.1°C 26.4°F-3.1°C 45% 9.0 mph ENE14.5 kmh ENE 11.0 mph17.7 kmh 30.49 in1032.5 mb 0.00 in0.0 mm 0.00 in0.0 mm 0.00 in0.0 mm
06:04 PM 46.5°F8.1°C 26.3°F-3.2°C 45% 9.0 mph E14.5 kmh E 12.0 mph19.3 kmh 30.49 in1032.5 mb 0.00 in0.0 mm 0.00 in0.0 mm 0.00 in0.0 mm
06:05 PM 46.5°F8.1°C 26.3°F-3.2°C 45% 9.0 mph E14.5 kmh E 13.0 mph20.9 kmh 30.49 in1032.5 mb 0.00 in0.0 mm 0.00 in0.0 mm 0.00 in0.0 mm
06:06 PM 46.5°F8.1°C 26.3°F-3.2°C 45% 10.0 mph E16.1 kmh E 13.0 mph20.9 kmh 30.49 in1032.5 mb 0.00 in0.0 mm 0.00 in0.0 mm 0.00 in0.0 mm
06:07 PM 46.5°F8.1°C 26.3°F-3.2°C 45% 10.0 mph ENE16.1 kmh ENE 12.0 mph19.3 kmh 30.49 in1032.5 mb 0.00 in0.0 mm 0.00 in0.0 mm 0.00 in0.0 mm
06:08 PM 46.5°F8.1°C 26.3°F-3.2°C 45% 7.0 mph E11.3 kmh E 11.0 mph17.7 kmh 30.49 in1032.5 mb 0.00 in0.0 mm 0.00 in0.0 mm 0.00 in0.0 mm
06:09 PM 46.5°F8.1°C 26.3°F-3.2°C 45% 9.0 mph E14.5 kmh E 11.0 mph17.7 kmh 30.49 in1032.5 mb 0.00 in0.0 mm 0.00 in0.0 mm 0.00 in0.0 mm
06:10 PM 46.5°F8.1°C 26.3°F-3.2°C 45% 9.0 mph E14.5 kmh E 10.0 mph16.1 kmh 30.49 in1032.5 mb 0.00 in0.0 mm 0.00 in0.0 mm 0.00 in0.0 mm
06:11 PM 46.5°F8.1°C 26.3°F-3.2°C 45% 8.0 mph E12.9 kmh E 10.0 mph16.1 kmh 30.49 in1032.5 mb 0.00 in0.0 mm 0.00 in0.0 mm 0.00 in0.0 mm
06:12 PM 46.5°F8.1°C 26.3°F-3.2°C 45% 8.0 mph E12.9 kmh E 11.0 mph17.7 kmh 30.49 in1032.5 mb 0.00 in0.0 mm 0.00 in0.0 mm 0.00 in0.0 mm
06:13 PM 46.4°F8.0°C 26.2°F-3.2°C 45% 8.0 mph E12.9 kmh E 10.0 mph16.1 kmh 30.49 in1032.5 mb 0.00 in0.0 mm 0.00 in0.0 mm 0.00 in0.0 mm
06:14 PM 46.5°F8.1°C 26.3°F-3.2°C 45% 7.0 mph E11.3 kmh E 9.0 mph14.5 kmh 30.49 in1032.5 mb 0.00 in0.0 mm 0.00 in0.0 mm 0.00 in0.0 mm
06:15 PM 46.4°F8.0°C 26.2°F-3.2°C 45% 7.0 mph E11.3 kmh E 10.0 mph16.1 kmh 30.49 in1032.5 mb 0.00 in0.0 mm 0.00 in0.0 mm 0.00 in0.0 mm
06:16 PM 46.5°F8.1°C 26.3°F-3.2°C 45% 8.0 mph E12.9 kmh E 11.0 mph17.7 kmh 30.49 in1032.5 mb 0.00 in0.0 mm 0.00 in0.0 mm 0.00 in0.0 mm
06:17 PM 46.5°F8.1°C 26.3°F-3.2°C 45% 8.0 mph E12.9 kmh E 9.0 mph14.5 kmh 30.49 in1032.5 mb 0.00 in0.0 mm 0.00 in0.0 mm 0.00 in0.0 mm
06:18 PM 46.4°F8.0°C 25.7°F-3.5°C 44% 9.0 mph E14.5 kmh E 10.0 mph16.1 kmh 30.49 in1032.5 mb 0.00 in0.0 mm 0.00 in0.0 mm 0.00 in0.0 mm
06:19 PM 46.4°F8.0°C 25.7°F-3.5°C 44% 9.0 mph E14.5 kmh E 11.0 mph17.7 kmh 30.49 in1032.5 mb 0.00 in0.0 mm 0.00 in0.0 mm 0.00 in0.0 mm
06:20 PM 46.4°F8.0°C 25.7°F-3.5°C 44% 8.0 mph E12.9 kmh E 10.0 mph16.1 kmh 30.49 in1032.5 mb 0.00 in0.0 mm 0.00 in0.0 mm 0.00 in0.0 mm
06:21 PM 46.3°F7.9°C 26.1°F-3.3°C 45% 6.0 mph E9.7 kmh E 8.0 mph12.9 kmh 30.49 in1032.5 mb 0.00 in0.0 mm 0.00 in0.0 mm 0.00 in0.0 mm
06:22 PM 46.3°F7.9°C 26.1°F-3.3°C 45% 5.0 mph E8.0 kmh E 7.0 mph11.3 kmh 30.49 in1032.5 mb 0.00 in0.0 mm 0.00 in0.0 mm 0.00 in0.0 mm
06:23 PM 46.3°F7.9°C 26.1°F-3.3°C 45% 7.0 mph E11.3 kmh E 10.0 mph16.1 kmh 30.49 in1032.5 mb 0.00 in0.0 mm 0.00 in0.0 mm 0.00 in0.0 mm
06:24 PM 46.4°F8.0°C 26.2°F-3.2°C 45% 8.0 mph E12.9 kmh E 12.0 mph19.3 kmh 30.49 in1032.5 mb 0.00 in0.0 mm 0.00 in0.0 mm 0.00 in0.0 mm
06:25 PM 46.3°F7.9°C 26.1°F-3.3°C 45% 10.0 mph E16.1 kmh E 12.0 mph19.3 kmh 30.49 in1032.5 mb 0.00 in0.0 mm 0.00 in0.0 mm 0.00 in0.0 mm
06:26 PM 46.3°F7.9°C 25.6°F-3.6°C 44% 9.0 mph E14.5 kmh E 11.0 mph17.7 kmh 30.49 in1032.5 mb 0.00 in0.0 mm 0.00 in0.0 mm 0.00 in0.0 mm
06:27 PM 46.2°F7.9°C 25.5°F-3.6°C 44% 9.0 mph E14.5 kmh E 11.0 mph17.7 kmh 30.49 in1032.5 mb 0.00 in0.0 mm 0.00 in0.0 mm 0.00 in0.0 mm
06:28 PM 46.2°F7.9°C 25.5°F-3.6°C 44% 9.0 mph E14.5 kmh E 11.0 mph17.7 kmh 30.49 in1032.5 mb 0.00 in0.0 mm 0.00 in0.0 mm 0.00 in0.0 mm
06:29 PM 46.2°F7.9°C 25.5°F-3.6°C 44% 8.0 mph E12.9 kmh E 9.0 mph14.5 kmh 30.49 in1032.5 mb 0.00 in0.0 mm 0.00 in0.0 mm 0.00 in0.0 mm
06:30 PM 46.1°F7.8°C 26.0°F-3.3°C 45% 7.0 mph E11.3 kmh E 9.0 mph14.5 kmh 30.49 in1032.5 mb 0.00 in0.0 mm 0.00 in0.0 mm 0.00 in0.0 mm
06:31 PM 46.1°F7.8°C 26.0°F-3.3°C 45% 5.0 mph E8.0 kmh E 7.0 mph11.3 kmh 30.49 in1032.5 mb 0.00 in0.0 mm 0.00 in0.0 mm 0.00 in0.0 mm
06:32 PM 46.2°F7.9°C 26.0°F-3.3°C 45% 7.0 mph E11.3 kmh E 8.0 mph12.9 kmh 30.49 in1032.5 mb 0.00 in0.0 mm 0.00 in0.0 mm 0.00 in0.0 mm
06:33 PM 46.1°F7.8°C 26.5°F-3.1°C 46% 8.0 mph E12.9 kmh E 9.0 mph14.5 kmh 30.49 in1032.5 mb 0.00 in0.0 mm 0.00 in0.0 mm 0.00 in0.0 mm
06:34 PM 46.1°F7.8°C 26.0°F-3.3°C 45% 6.0 mph E9.7 kmh E 8.0 mph12.9 kmh 30.49 in1032.5 mb 0.00 in0.0 mm 0.00 in0.0 mm 0.00 in0.0 mm
06:35 PM 46.0°F7.8°C 25.9°F-3.4°C 45% 5.0 mph E8.0 kmh E 7.0 mph11.3 kmh 30.49 in1032.5 mb 0.00 in0.0 mm 0.00 in0.0 mm 0.00 in0.0 mm
06:36 PM 46.0°F7.8°C 25.9°F-3.4°C 45% 7.0 mph E11.3 kmh E 9.0 mph14.5 kmh 30.49 in1032.5 mb 0.00 in0.0 mm 0.00 in0.0 mm 0.00 in0.0 mm
06:37 PM 46.0°F7.8°C 25.9°F-3.4°C 45% 7.0 mph E11.3 kmh E 9.0 mph14.5 kmh 30.49 in1032.5 mb 0.00 in0.0 mm 0.00 in0.0 mm 0.00 in0.0 mm
06:38 PM 46.0°F7.8°C 25.9°F-3.4°C 45% 7.0 mph E11.3 kmh E 9.0 mph14.5 kmh 30.49 in1032.5 mb 0.00 in0.0 mm 0.00 in0.0 mm 0.00 in0.0 mm
06:39 PM 45.9°F7.7°C 25.8°F-3.4°C 45% 7.0 mph ENE11.3 kmh ENE 9.0 mph14.5 kmh 30.49 in1032.5 mb 0.00 in0.0 mm 0.00 in0.0 mm 0.00 in0.0 mm
06:40 PM 46.0°F7.8°C 25.9°F-3.4°C 45% 4.0 mph E6.4 kmh E 7.0 mph11.3 kmh 30.49 in1032.5 mb 0.00 in0.0 mm 0.00 in0.0 mm 0.00 in0.0 mm
06:41 PM 46.0°F7.8°C 26.4°F-3.1°C 46% 4.0 mph ENE6.4 kmh ENE 6.0 mph9.7 kmh 30.49 in1032.5 mb 0.00 in0.0 mm 0.00 in0.0 mm 0.00 in0.0 mm
06:42 PM 46.0°F7.8°C 26.4°F-3.1°C 46% 4.0 mph ENE6.4 kmh ENE 6.0 mph9.7 kmh 30.49 in1032.5 mb 0.00 in0.0 mm 0.00 in0.0 mm 0.00 in0.0 mm
06:43 PM 46.0°F7.8°C 26.4°F-3.1°C 46% 4.0 mph ENE6.4 kmh ENE 8.0 mph12.9 kmh 30.49 in1032.5 mb 0.00 in0.0 mm 0.00 in0.0 mm 0.00 in0.0 mm
06:44 PM 46.0°F7.8°C 26.4°F-3.1°C 46% 6.0 mph E9.7 kmh E 9.0 mph14.5 kmh 30.49 in1032.5 mb 0.00 in0.0 mm 0.00 in0.0 mm 0.00 in0.0 mm
06:45 PM 46.0°F7.8°C 25.9°F-3.4°C 45% 4.0 mph E6.4 kmh E 6.0 mph9.7 kmh 30.49 in1032.5 mb 0.00 in0.0 mm 0.00 in0.0 mm 0.00 in0.0 mm
06:46 PM 46.0°F7.8°C 26.4°F-3.1°C 46% 4.0 mph ENE6.4 kmh ENE 5.0 mph8.0 kmh 30.49 in1032.5 mb 0.00 in0.0 mm 0.00 in0.0 mm 0.00 in0.0 mm
06:47 PM 46.0°F7.8°C 26.4°F-3.1°C 46% 5.0 mph ENE8.0 kmh ENE 8.0 mph12.9 kmh 30.49 in1032.5 mb 0.00 in0.0 mm 0.00 in0.0 mm 0.00 in0.0 mm
06:48 PM 46.0°F7.8°C 26.4°F-3.1°C 46% 5.0 mph ENE8.0 kmh ENE 8.0 mph12.9 kmh 30.49 in1032.5 mb 0.00 in0.0 mm 0.00 in0.0 mm 0.00 in0.0 mm
06:49 PM 46.0°F7.8°C 26.4°F-3.1°C 46% 6.0 mph ENE9.7 kmh ENE 7.0 mph11.3 kmh 30.49 in1032.5 mb 0.00 in0.0 mm 0.00 in0.0 mm 0.00 in0.0 mm
06:50 PM 46.0°F7.8°C 26.4°F-3.1°C 46% 5.0 mph NE8.0 kmh NE 6.0 mph9.7 kmh 30.49 in1032.5 mb 0.00 in0.0 mm 0.00 in0.0 mm 0.00 in0.0 mm
06:51 PM 45.9°F7.7°C 26.3°F-3.2°C 46% 4.0 mph NE6.4 kmh NE 5.0 mph8.0 kmh 30.49 in1032.5 mb 0.00 in0.0 mm 0.00 in0.0 mm 0.00 in0.0 mm
06:52 PM 45.9°F7.7°C 26.3°F-3.2°C 46% 4.0 mph NE6.4 kmh NE 5.0 mph8.0 kmh 30.49 in1032.5 mb 0.00 in0.0 mm 0.00 in0.0 mm 0.00 in0.0 mm
06:53 PM 45.9°F7.7°C 26.3°F-3.2°C 46% 3.0 mph NE4.8 kmh NE 6.0 mph9.7 kmh 30.49 in1032.5 mb 0.00 in0.0 mm 0.00 in0.0 mm 0.00 in0.0 mm
06:54 PM 45.9°F7.7°C 26.3°F-3.2°C 46% 4.0 mph NE6.4 kmh NE 6.0 mph9.7 kmh 30.49 in1032.5 mb 0.00 in0.0 mm 0.00 in0.0 mm 0.00 in0.0 mm
06:55 PM 45.9°F7.7°C 26.8°F-2.9°C 47% 4.0 mph NE6.4 kmh NE 5.0 mph8.0 kmh 30.49 in1032.5 mb 0.00 in0.0 mm 0.00 in0.0 mm 0.00 in0.0 mm
06:56 PM 45.9°F7.7°C 26.8°F-2.9°C 47% 4.0 mph NE6.4 kmh NE 6.0 mph9.7 kmh 30.49 in1032.5 mb 0.00 in0.0 mm 0.00 in0.0 mm 0.00 in0.0 mm
06:57 PM 45.9°F7.7°C 26.8°F-2.9°C 47% 4.0 mph NE6.4 kmh NE 5.0 mph8.0 kmh 30.49 in1032.5 mb 0.00 in0.0 mm 0.00 in0.0 mm 0.00 in0.0 mm
06:58 PM 45.9°F7.7°C 26.8°F-2.9°C 47% 4.0 mph ENE6.4 kmh ENE 5.0 mph8.0 kmh 30.49 in1032.5 mb 0.00 in0.0 mm 0.00 in0.0 mm 0.00 in0.0 mm
06:59 PM 45.9°F7.7°C 26.8°F-2.9°C 47% 3.0 mph ENE4.8 kmh ENE 4.0 mph6.4 kmh 30.49 in1032.5 mb 0.00 in0.0 mm 0.00 in0.0 mm 0.00 in0.0 mm
07:00 PM 45.9°F7.7°C 26.8°F-2.9°C 47% 3.0 mph NE4.8 kmh NE 5.0 mph8.0 kmh 30.49 in1032.5 mb 0.00 in0.0 mm 0.00 in0.0 mm 0.00 in0.0 mm
07:01 PM 45.9°F7.7°C 26.8°F-2.9°C 47% 3.0 mph NE4.8 kmh NE 4.0 mph6.4 kmh 30.49 in1032.5 mb 0.00 in0.0 mm 0.00 in0.0 mm 0.00 in0.0 mm
07:02 PM 45.8°F7.7°C 26.7°F-2.9°C 47% 3.0 mph NE4.8 kmh NE 4.0 mph6.4 kmh 30.49 in1032.5 mb 0.00 in0.0 mm 0.00 in0.0 mm 0.00 in0.0 mm
07:03 PM 45.8°F7.7°C 26.7°F-2.9°C 47% 3.0 mph NE4.8 kmh NE 5.0 mph8.0 kmh 30.49 in1032.5 mb 0.00 in0.0 mm 0.00 in0.0 mm 0.00 in0.0 mm
07:04 PM 45.8°F7.7°C 27.2°F-2.7°C 48% 4.0 mph NE6.4 kmh NE 6.0 mph9.7 kmh 30.49 in1032.5 mb 0.00 in0.0 mm 0.00 in0.0 mm 0.00 in0.0 mm
07:05 PM 45.7°F7.6°C 27.1°F-2.7°C 48% 4.0 mph NE6.4 kmh NE 5.0 mph8.0 kmh 30.49 in1032.5 mb 0.00 in0.0 mm 0.00 in0.0 mm 0.00 in0.0 mm
07:06 PM 45.6°F7.6°C 27.1°F-2.7°C 48% 5.0 mph NE8.0 kmh NE 6.0 mph9.7 kmh 30.49 in1032.5 mb 0.00 in0.0 mm 0.00 in0.0 mm 0.00 in0.0 mm
07:07 PM 45.6°F7.6°C 27.1°F-2.7°C 48% 4.0 mph ENE6.4 kmh ENE 7.0 mph11.3 kmh 30.49 in1032.5 mb 0.00 in0.0 mm 0.00 in0.0 mm 0.00 in0.0 mm
07:08 PM 45.5°F7.5°C 27.0°F-2.8°C 48% 5.0 mph NE8.0 kmh NE 6.0 mph9.7 kmh 30.49 in1032.5 mb 0.00 in0.0 mm 0.00 in0.0 mm 0.00 in0.0 mm
07:09 PM 45.4°F7.4°C 26.9°F-2.8°C 48% 6.0 mph ENE9.7 kmh ENE 10.0 mph16.1 kmh 30.49 in1032.5 mb 0.00 in0.0 mm 0.00 in0.0 mm 0.00 in0.0 mm
07:10 PM 45.3°F7.4°C 26.8°F-2.9°C 48% 5.0 mph ENE8.0 kmh ENE 8.0 mph12.9 kmh 30.49 in1032.5 mb 0.00 in0.0 mm 0.00 in0.0 mm 0.00 in0.0 mm
07:11 PM 45.2°F7.3°C 26.7°F-2.9°C 48% 5.0 mph NE8.0 kmh NE 8.0 mph12.9 kmh 30.49 in1032.5 mb 0.00 in0.0 mm 0.00 in0.0 mm 0.00 in0.0 mm
07:12 PM 45.1°F7.3°C 26.6°F-3.0°C 48% 5.0 mph ENE8.0 kmh ENE 6.0 mph9.7 kmh 30.49 in1032.5 mb 0.00 in0.0 mm 0.00 in0.0 mm 0.00 in0.0 mm
07:13 PM 45.0°F7.2°C 26.5°F-3.1°C 48% 5.0 mph NE8.0 kmh NE 7.0 mph11.3 kmh 30.49 in1032.5 mb 0.00 in0.0 mm 0.00 in0.0 mm 0.00 in0.0 mm
07:14 PM 44.9°F7.2°C 26.4°F-3.1°C 48% 7.0 mph ENE11.3 kmh ENE 9.0 mph14.5 kmh 30.49 in1032.5 mb 0.00 in0.0 mm 0.00 in0.0 mm 0.00 in0.0 mm
07:15 PM 44.8°F7.1°C 26.3°F-3.2°C 48% 5.0 mph ENE8.0 kmh ENE 6.0 mph9.7 kmh 30.49 in1032.5 mb 0.00 in0.0 mm 0.00 in0.0 mm 0.00 in0.0 mm
07:16 PM 44.8°F7.1°C 26.8°F-2.9°C 49% 6.0 mph ENE9.7 kmh ENE 8.0 mph12.9 kmh 30.49 in1032.5 mb 0.00 in0.0 mm 0.00 in0.0 mm 0.00 in0.0 mm
07:17 PM 44.6°F7.0°C 26.6°F-3.0°C 49% 5.0 mph ENE8.0 kmh ENE 8.0 mph12.9 kmh 30.49 in1032.5 mb 0.00 in0.0 mm 0.00 in0.0 mm 0.00 in0.0 mm
07:18 PM 44.6°F7.0°C 26.6°F-3.0°C 49% 5.0 mph NE8.0 kmh NE 7.0 mph11.3 kmh 30.49 in1032.5 mb 0.00 in0.0 mm 0.00 in0.0 mm 0.00 in0.0 mm
07:19 PM 44.5°F6.9°C 26.5°F-3.1°C 49% 6.0 mph NE9.7 kmh NE 9.0 mph14.5 kmh 30.49 in1032.5 mb 0.00 in0.0 mm 0.00 in0.0 mm 0.00 in0.0 mm
07:20 PM 44.4°F6.9°C 26.5°F-3.1°C 49% 4.0 mph ENE6.4 kmh ENE 6.0 mph9.7 kmh 30.49 in1032.5 mb 0.00 in0.0 mm 0.00 in0.0 mm 0.00 in0.0 mm
07:21 PM 44.3°F6.8°C 26.4°F-3.1°C 49% 5.0 mph ENE8.0 kmh ENE 7.0 mph11.3 kmh 30.49 in1032.5 mb 0.00 in0.0 mm 0.00 in0.0 mm 0.00 in0.0 mm
07:22 PM 44.2°F6.8°C 26.8°F-2.9°C 50% 4.0 mph ENE6.4 kmh ENE 6.0 mph9.7 kmh 30.49 in1032.5 mb 0.00 in0.0 mm 0.00 in0.0 mm 0.00 in0.0 mm
07:23 PM 44.1°F6.7°C 26.7°F-2.9°C 50% 4.0 mph ENE6.4 kmh ENE 6.0 mph9.7 kmh 30.49 in1032.5 mb 0.00 in0.0 mm 0.00 in0.0 mm 0.00 in0.0 mm
07:24 PM 44.1°F6.7°C 26.7°F-2.9°C 50% 5.0 mph NE8.0 kmh NE 6.0 mph9.7 kmh 30.49 in1032.5 mb 0.00 in0.0 mm 0.00 in0.0 mm 0.00 in0.0 mm
07:25 PM 44.0°F6.7°C 26.6°F-3.0°C 50% 5.0 mph ENE8.0 kmh ENE 6.0 mph9.7 kmh 30.49 in1032.5 mb 0.00 in0.0 mm 0.00 in0.0 mm 0.00 in0.0 mm
07:26 PM 43.9°F6.6°C 26.5°F-3.1°C 50% 5.0 mph ENE8.0 kmh ENE 6.0 mph9.7 kmh 30.49 in1032.5 mb 0.00 in0.0 mm 0.00 in0.0 mm 0.00 in0.0 mm
07:27 PM 43.9°F6.6°C 26.5°F-3.1°C 50% 5.0 mph ENE8.0 kmh ENE 6.0 mph9.7 kmh 30.49 in1032.5 mb 0.00 in0.0 mm 0.00 in0.0 mm 0.00 in0.0 mm
07:28 PM 43.8°F6.6°C 26.9°F-2.8°C 51% 4.0 mph ENE6.4 kmh ENE 5.0 mph8.0 kmh 30.49 in1032.5 mb 0.00 in0.0 mm 0.00 in0.0 mm 0.00 in0.0 mm
07:29 PM 43.7°F6.5°C 26.8°F-2.9°C 51% 5.0 mph ENE8.0 kmh ENE 8.0 mph12.9 kmh 30.49 in1032.5 mb 0.00 in0.0 mm 0.00 in0.0 mm 0.00 in0.0 mm
07:30 PM 43.7°F6.5°C 26.8°F-2.9°C 51% 5.0 mph ENE8.0 kmh ENE 7.0 mph11.3 kmh 30.50 in1032.8 mb 0.00 in0.0 mm 0.00 in0.0 mm 0.00 in0.0 mm
07:31 PM 43.6°F6.4°C 26.7°F-2.9°C 51% 5.0 mph ENE8.0 kmh ENE 7.0 mph11.3 kmh 30.50 in1032.8 mb 0.00 in0.0 mm 0.00 in0.0 mm 0.00 in0.0 mm
07:32 PM 43.5°F6.4°C 26.6°F-3.0°C 51% 4.0 mph ENE6.4 kmh ENE 5.0 mph8.0 kmh 30.50 in1032.8 mb 0.00 in0.0 mm 0.00 in0.0 mm 0.00 in0.0 mm
07:33 PM 43.4°F6.3°C